
Distance (Route):
Temperature : 6.1°C
Humidity : 68.8%
Pressure : 718.9hPa| Receiver | Frames | First received | Last received |
|---|---|---|---|
| PETON7-10 | 222 | 2026-08-30 11:38:48 | 2026-08-30 12:37:22 |
| OM5KV | 208 | 2026-08-30 11:25:59 | 2026-08-30 11:45:10 |
| GYPAP8-17 | 81 | 2026-08-30 11:37:21 | 2026-08-30 13:11:40 |
| ATIDSZ-14 | 77 | 2026-08-30 11:34:03 | 2026-08-30 12:04:05 |
| SQ9EZE-16 | 74 | 2026-08-30 12:21:15 | 2026-08-30 12:54:22 |
| OE3JTB-15 | 36 | 2026-08-30 11:38:41 | 2026-08-30 13:08:37 |
| OE5DRO-10 | 32 | 2026-08-30 12:13:54 | 2026-08-30 12:37:28 |
| LZ4TU-5 | 32 | 2026-08-30 12:14:50 | 2026-08-30 12:50:51 |
| SQ9EZE-15 | 31 | 2026-08-30 12:18:55 | 2026-08-30 12:52:58 |
| SQ9EZE-14 | 3 | 2026-08-30 12:21:14 | 2026-08-30 12:33:24 |
| Receiver | Date | Latitude | Longitude | Direction | Speed | Altitude | Climb | Temperature | Humidity | Pressure | Voltage | Killtimer | Uptime | BKT | XDATA |
|---|---|---|---|---|---|---|---|---|---|---|---|---|---|---|---|
| GYPAP8-17 | 2026-08-30 13:11:40 | 47.41808 | 19.90950 | 106° | 35km/h | 2963m | -12.8m/s | 6.1°C | 68.8% | 718.9hPa | 2.6V | 08:24:00 | 00:00:00 | 00:00:00 | |
| GYPAP8-17 | 2026-08-30 13:10:56 | 47.41951 | 19.90359 | 119° | 37km/h | 3480m | -13.6m/s | 2.5°C | 80.5% | 674.6hPa | 2.6V | 00:00:00 | 00:00:00 | 00:00:00 | |
| GYPAP8-17 | 2026-08-30 13:10:03 | 47.42077 | 19.89830 | 95° | 22km/h | 4204m | -16.0m/s | -1.3°C | 60.1% | 616.9hPa | 2.6V | 00:00:00 | 00:00:00 | 00:00:00 | |
| GYPAP8-17 | 2026-08-30 13:09:11 | 47.42071 | 19.89350 | 88° | 26km/h | 5005m | -17.4m/s | -5.2°C | 57.4% | 558.0hPa | 2.6V | 00:00:00 | 00:00:00 | 00:00:00 | |
| OE3JTB-15 | 2026-08-30 13:08:37 | 47.42139 | 19.89000 | 96° | 31km/h | 5546m | -16.8m/s | -9.6°C | 53.7% | 520.1hPa | 2.6V | 00:00:00 | 00:00:00 | 00:00:00 | |
| GYPAP8-17 | 2026-08-30 13:08:18 | 47.42169 | 19.88795 | 98° | 26km/h | 5812m | -16.8m/s | -12.2°C | 61.3% | 502.4hPa | 2.6V | 00:00:00 | 00:00:00 | 00:00:00 | |
| GYPAP8-17 | 2026-08-30 13:07:26 | 47.42143 | 19.88114 | 93° | 44km/h | 6518m | -16.1m/s | -18.2°C | 39.4% | 457.7hPa | 2.6V | 00:00:00 | 00:00:00 | 00:00:00 | |
| OE3JTB-15 | 2026-08-30 13:06:45 | 47.42227 | 19.87372 | 100° | 55km/h | 7132m | -14.4m/s | -20.5°C | 7.3% | 421.9hPa | 2.6V | 00:00:00 | 02:11:55 | 00:00:00 | |
| GYPAP8-17 | 2026-08-30 13:06:34 | 47.42256 | 19.87177 | 104° | 53km/h | 7258m | -13.8m/s | -21.5°C | 11.2% | 414.7hPa | 2.6V | 08:29:00 | 00:00:00 | 00:00:00 | |
| OE3JTB-15 | 2026-08-30 13:06:16 | 47.42330 | 19.86766 | 102° | 58km/h | 7484m | -13.7m/s | -23.3°C | 5.9% | 401.1hPa | 2.6V | 00:00:00 | 00:00:00 | 08:30:00 | |
| OE3JTB-15 | 2026-08-30 13:05:47 | 47.42524 | 19.86017 | 91° | 49km/h | 7733m | -25.1m/s | -25.6°C | 6.7% | 379.8hPa | 2.6V | 00:00:00 | 00:00:00 | 00:00:00 | |
| GYPAP8-17 | 2026-08-30 13:05:42 | 47.42537 | 19.85931 | 97° | 53km/h | 7804m | -22.8m/s | -26.0°C | 6.3% | 377.1hPa | 2.6V | 00:00:00 | 00:00:00 | 00:00:00 | |
| OE3JTB-15 | 2026-08-30 13:05:18 | 47.42662 | 19.85376 | 103° | 51km/h | 8159m | -19.8m/s | -28.4°C | 25.2% | 361.4hPa | 2.6V | 00:00:00 | 02:10:28 | 00:00:00 | |
| GYPAP8-17 | 2026-08-30 13:04:49 | 47.39938 | 19.68135 | 0° | 0km/h | 30863m | 0.0m/s | -31.4°C | 21.4% | 344.9hPa | 2.6V | 00:00:00 | 00:00:00 | 00:00:00 | |
| GYPAP8-17 | 2026-08-30 13:03:43 | 47.39938 | 19.68135 | 0° | 0km/h | 30863m | 0.0m/s | -37.1°C | 14.2% | 309.4hPa | 2.6V | 00:00:00 | 00:00:00 | 00:00:00 | |
| GYPAP8-17 | 2026-08-30 13:02:40 | 47.39938 | 19.68135 | 0° | 0km/h | 30863m | 0.0m/s | -45.6°C | 28.3% | 270.2hPa | 2.6V | 00:00:00 | 00:00:00 | 00:00:00 | |
| GYPAP8-17 | 2026-08-30 13:01:29 | 47.39938 | 19.68135 | 0° | 0km/h | 30863m | 0.0m/s | -52.1°C | 12.1% | 227.4hPa | 2.6V | 00:00:00 | 00:00:00 | 00:00:00 | |
| GYPAP8-17 | 2026-08-30 13:00:25 | 47.39938 | 19.68135 | 0° | 0km/h | 30863m | 0.0m/s | -53.7°C | 4.8% | 191.9hPa | 2.6V | 00:00:00 | 00:00:00 | 00:00:00 | |
| GYPAP8-17 | 2026-08-30 12:59:17 | 47.39938 | 19.68135 | 0° | 0km/h | 30863m | 0.0m/s | -55.0°C | 3.7% | 159.3hPa | 2.6V | 00:00:00 | 00:00:00 | 00:00:00 | |
| GYPAP8-17 | 2026-08-30 12:58:14 | 47.39938 | 19.68135 | 0° | 0km/h | 30863m | 0.0m/s | -57.6°C | 2.2% | 136.9hPa | 2.6V | 00:00:00 | 00:00:00 | 00:00:00 | |
| GYPAP8-17 | 2026-08-30 12:57:11 | 47.39938 | 19.68135 | 0° | 0km/h | 30863m | 0.0m/s | -56.9°C | 1.3% | 117.0hPa | 2.6V | 00:00:00 | 00:00:00 | 00:00:00 | |
| GYPAP8-17 | 2026-08-30 12:56:09 | 47.39938 | 19.68135 | 0° | 0km/h | 30863m | 0.0m/s | -56.0°C | 1.1% | 93.9hPa | 2.6V | 00:00:00 | 00:00:00 | 00:00:00 | |
| GYPAP8-17 | 2026-08-30 12:55:06 | 47.39938 | 19.68135 | 0° | 0km/h | 30863m | 0.0m/s | -55.9°C | 1.0% | 74.1hPa | 2.6V | 00:00:00 | 00:00:00 | 00:00:00 | |
| SQ9EZE-16 | 2026-08-30 12:54:22 | 47.39938 | 19.68135 | 0° | 0km/h | 30863m | 0.0m/s | -55.2°C | 0.9% | 61.5hPa | 2.6V | 00:00:00 | 00:00:00 | 00:00:00 | |
| SQ9EZE-16 | 2026-08-30 12:54:03 | 47.39938 | 19.68135 | 0° | 0km/h | 30863m | 0.0m/s | -55.2°C | 1.0% | 56.7hPa | 2.6V | 00:00:00 | 00:00:00 | 00:00:00 | |
| SQ9EZE-16 | 2026-08-30 12:53:47 | 47.39938 | 19.68135 | 0° | 0km/h | 30863m | 0.0m/s | -54.4°C | 0.9% | 52.9hPa | 2.6V | 00:00:00 | 00:00:00 | 00:00:00 | |
| SQ9EZE-16 | 2026-08-30 12:53:30 | 47.39938 | 19.68135 | 0° | 0km/h | 30863m | 0.0m/s | -54.2°C | 0.9% | 49.3hPa | 2.6V | 00:00:00 | 00:00:00 | 00:00:00 | |
| SQ9EZE-16 | 2026-08-30 12:53:14 | 47.39938 | 19.68135 | 0° | 0km/h | 30863m | 0.0m/s | -54.6°C | 0.9% | 46.1hPa | 2.6V | 00:00:00 | 00:00:00 | 00:00:00 | |
| GYPAP8-17 | 2026-08-30 12:53:02 | 47.39938 | 19.68135 | 0° | 0km/h | 30863m | 0.0m/s | -54.6°C | 0.9% | 43.9hPa | 2.6V | 00:00:00 | 00:00:00 | 00:00:00 | |
| SQ9EZE-15 | 2026-08-30 12:52:58 | 47.39938 | 19.68135 | 0° | 0km/h | 30863m | 0.0m/s | -54.8°C | 0.9% | 43.0hPa | 2.6V | 00:00:00 | 00:00:00 | 00:00:00 | |
| SQ9EZE-16 | 2026-08-30 12:52:43 | 47.39938 | 19.68135 | 0° | 0km/h | 30863m | 0.0m/s | -54.6°C | 0% | 0hPa | 2.6V | 00:00:00 | 00:00:00 | 00:00:00 | |
| SQ9EZE-15 | 2026-08-30 12:52:37 | 47.39938 | 19.68135 | 0° | 0km/h | 30863m | 0.0m/s | -54.8°C | 0.9% | 39.5hPa | 2.6V | 00:00:00 | 00:00:00 | 00:00:00 | |
| SQ9EZE-16 | 2026-08-30 12:52:29 | 47.39938 | 19.68135 | 0° | 0km/h | 30863m | 0.0m/s | -54.4°C | 0% | 0hPa | 2.6V | 00:00:00 | 00:00:00 | 00:00:00 | |
| GYPAP8-17 | 2026-08-30 12:51:59 | 47.39938 | 19.68135 | 0° | 0km/h | 30863m | 0.0m/s | -53.6°C | 0.8% | 33.9hPa | 2.6V | 00:00:00 | 00:00:00 | 00:00:00 | |
| SQ9EZE-16 | 2026-08-30 12:51:56 | 47.39938 | 19.68135 | 0° | 0km/h | 30863m | 0.0m/s | 0°C | 0% | 0hPa | 2.6V | 00:00:00 | 00:00:00 | 00:00:00 | |
| GYPAP8-17 | 2026-08-30 12:51:04 | 47.39938 | 19.68135 | 0° | 0km/h | 30863m | 0.0m/s | -52.5°C | 0.8% | 26.7hPa | 2.6V | 00:00:00 | 00:00:00 | 00:00:00 | |
| LZ4TU-5 | 2026-08-30 12:50:51 | 47.39938 | 19.68135 | 0° | 0km/h | 30863m | 0.0m/s | -51.5°C | 0% | 25.1hPa | 2.6V | 00:00:00 | 00:00:00 | 00:00:00 | |
| SQ9EZE-15 | 2026-08-30 12:50:50 | 47.39938 | 19.68135 | 0° | 0km/h | 30863m | 0.0m/s | -51.4°C | 0.8% | 25.0hPa | 2.6V | 00:00:00 | 00:00:00 | 00:00:00 | |
| LZ4TU-5 | 2026-08-30 12:50:47 | 47.39938 | 19.68135 | 0° | 0km/h | 30863m | 0.0m/s | -51.2°C | 0% | 24.7hPa | 2.6V | 00:00:00 | 00:00:00 | 00:00:00 | |
| GYPAP8-17 | 2026-08-30 12:50:02 | 47.39938 | 19.68135 | 0° | 0km/h | 30863m | 0.0m/s | -48.8°C | 0.6% | 20.0hPa | 2.6V | 00:00:00 | 00:00:00 | 00:00:00 | |
| SQ9EZE-15 | 2026-08-30 12:49:46 | 47.39938 | 19.68135 | 0° | 0km/h | 30863m | 0.0m/s | -48.2°C | 0.6% | 18.3hPa | 2.6V | 00:00:00 | 00:00:00 | 00:00:00 | |
| SQ9EZE-15 | 2026-08-30 12:49:25 | 47.39938 | 19.68135 | 0° | 0km/h | 30863m | 0.0m/s | -46.6°C | 0.6% | 16.4hPa | 2.6V | 00:00:00 | 00:00:00 | 00:00:00 | |
| GYPAP8-17 | 2026-08-30 12:49:08 | 47.39938 | 19.68135 | 0° | 0km/h | 30863m | 0.0m/s | -44.3°C | 0.5% | 14.9hPa | 2.6V | 00:00:00 | 00:00:00 | 00:00:00 | |
| LZ4TU-5 | 2026-08-30 12:48:43 | 47.39938 | 19.68135 | 0° | 0km/h | 30863m | 0.0m/s | -43.4°C | 0% | 12.8hPa | 2.6V | 00:00:00 | 00:00:00 | 00:00:00 | |
| LZ4TU-5 | 2026-08-30 12:48:39 | 47.39938 | 19.68135 | 0° | 0km/h | 30863m | 0.0m/s | -43.4°C | 0% | 12.6hPa | 2.6V | 00:00:00 | 00:00:00 | 00:00:00 | |
| SQ9EZE-16 | 2026-08-30 12:48:31 | 47.39938 | 19.68135 | 0° | 0km/h | 30863m | 0.0m/s | -42.4°C | 0.4% | 12.1hPa | 2.6V | 00:00:00 | 00:00:00 | 00:00:00 | |
| SQ9EZE-16 | 2026-08-30 12:48:11 | 47.39938 | 19.68135 | 0° | 0km/h | 30863m | 0.0m/s | -40.4°C | 0.4% | 10.7hPa | 2.6V | 00:00:00 | 00:00:00 | 00:00:00 | |
| SQ9EZE-16 | 2026-08-30 12:47:56 | 47.39938 | 19.68135 | 0° | 0km/h | 30863m | 0.0m/s | -40.3°C | 0.4% | 9.7hPa | 2.6V | 00:00:00 | 00:00:00 | 00:00:00 | |
| SQ9EZE-16 | 2026-08-30 12:47:40 | 47.39938 | 19.68135 | 0° | 0km/h | 30863m | 0.0m/s | -40.1°C | 0.4% | 8.9hPa | 2.6V | 00:00:00 | 00:00:00 | 00:00:00 | |
| SQ9EZE-16 | 2026-08-30 12:47:25 | 47.39938 | 19.68135 | 0° | 0km/h | 30863m | 0.0m/s | -38.1°C | 0.3% | 8.3hPa | 2.6V | 00:00:00 | 00:00:00 | 00:00:00 | |
| SQ9EZE-16 | 2026-08-30 12:47:09 | 47.39938 | 19.68135 | 0° | 0km/h | 30863m | 0.0m/s | -37.5°C | 0.3% | 7.7hPa | 2.6V | 00:00:00 | 00:00:00 | 00:00:00 | |
| SQ9EZE-16 | 2026-08-30 12:46:53 | 47.39938 | 19.68135 | 0° | 0km/h | 30863m | 0.0m/s | -38.0°C | 0.3% | 7.8hPa | 2.6V | 00:00:00 | 00:00:00 | 00:00:00 | |
| SQ9EZE-16 | 2026-08-30 12:46:37 | 47.39938 | 19.68135 | 0° | 0km/h | 30863m | 0.0m/s | -37.9°C | 0.3% | 7.9hPa | 2.6V | 00:00:00 | 00:00:00 | 00:00:00 | |
| GYPAP8-17 | 2026-08-30 12:46:32 | 47.39938 | 19.68135 | 0° | 0km/h | 30863m | 0.0m/s | -37.5°C | 0.3% | 7.9hPa | 2.6V | 00:00:00 | 00:00:00 | 00:00:00 | |
| LZ4TU-5 | 2026-08-30 12:46:21 | 47.39938 | 19.68135 | 0° | 0km/h | 30863m | 0.0m/s | -37.3°C | 0% | 8.0hPa | 2.6V | 00:00:00 | 00:00:00 | 00:00:00 | |
| SQ9EZE-16 | 2026-08-30 12:46:19 | 47.39938 | 19.68135 | 0° | 0km/h | 30863m | 0.0m/s | -37.5°C | 0% | 8.1hPa | 2.6V | 00:00:00 | 00:00:00 | 00:00:00 | |
| LZ4TU-5 | 2026-08-30 12:46:17 | 47.39938 | 19.68135 | 0° | 0km/h | 30863m | 0.0m/s | -37.7°C | 0% | 8.1hPa | 2.6V | 00:00:00 | 00:00:00 | 00:00:00 | |
| SQ9EZE-16 | 2026-08-30 12:46:04 | 47.39938 | 19.68135 | 0° | 0km/h | 30863m | 0.0m/s | -38.1°C | 0% | 8.2hPa | 2.6V | 00:00:00 | 00:00:00 | 00:00:00 | |
| SQ9EZE-16 | 2026-08-30 12:45:47 | 47.39938 | 19.68135 | 0° | 0km/h | 30863m | 0.0m/s | -38.7°C | 0% | 0hPa | 2.6V | 00:00:00 | 00:00:00 | 00:00:00 | |
| SQ9EZE-16 | 2026-08-30 12:45:32 | 47.39938 | 19.68135 | 0° | 0km/h | 30863m | 0.0m/s | -39.4°C | 0% | 0hPa | 2.6V | 00:00:00 | 00:00:00 | 00:00:00 | |
| GYPAP8-17 | 2026-08-30 12:45:30 | 47.39938 | 19.68135 | 0° | 0km/h | 30863m | 0.0m/s | -39.4°C | 0.4% | 8.5hPa | 2.6V | 00:00:00 | 00:00:00 | 00:00:00 | |
| SQ9EZE-16 | 2026-08-30 12:45:18 | 47.39938 | 19.68135 | 0° | 0km/h | 30863m | 0.0m/s | 0°C | 0% | 0hPa | 2.6V | 00:00:00 | 00:00:00 | 00:00:00 | |
| SQ9EZE-16 | 2026-08-30 12:44:38 | 47.39938 | 19.68135 | 0° | 0km/h | 30863m | 0.0m/s | 0°C | 0% | 0hPa | 2.6V | 00:00:00 | 00:00:00 | 00:00:00 | |
| SQ9EZE-15 | 2026-08-30 12:44:29 | 47.39938 | 19.68135 | 0° | 0km/h | 30863m | 0.0m/s | -40.1°C | 0.4% | 9.1hPa | 2.6V | 00:00:00 | 00:00:00 | 00:00:00 | |
| GYPAP8-17 | 2026-08-30 12:44:24 | 47.39938 | 19.68135 | 0° | 0km/h | 30863m | 0.0m/s | -40.3°C | 0.4% | 9.1hPa | 2.6V | 00:00:00 | 00:00:00 | 00:00:00 | |
| SQ9EZE-16 | 2026-08-30 12:44:21 | 47.39938 | 19.68135 | 0° | 0km/h | 30863m | 0.0m/s | 0°C | 0% | 0hPa | 2.6V | 00:00:00 | 00:00:00 | 00:00:00 | |
| LZ4TU-5 | 2026-08-30 12:44:10 | 47.39938 | 19.68135 | 0° | 0km/h | 30863m | 0.0m/s | -39.7°C | 0% | 9.3hPa | 2.6V | 00:00:00 | 00:00:00 | 00:00:00 | |
| LZ4TU-5 | 2026-08-30 12:44:07 | 47.39938 | 19.68135 | 0° | 0km/h | 30863m | 0.0m/s | -39.7°C | 0% | 0hPa | 2.6V | 00:00:00 | 00:00:00 | 00:00:00 | |
| SQ9EZE-16 | 2026-08-30 12:43:39 | 47.39938 | 19.68135 | 0° | 0km/h | 30863m | 0.0m/s | 0°C | 0% | 0hPa | 2.6V | 00:00:00 | 00:00:00 | 00:00:00 | |
| GYPAP8-17 | 2026-08-30 12:43:22 | 47.39938 | 19.68135 | 0° | 0km/h | 30863m | 0.0m/s | -40.2°C | 0.4% | 9.8hPa | 2.6V | 00:00:00 | 00:00:00 | 00:00:00 | |
| SQ9EZE-16 | 2026-08-30 12:43:21 | 47.39938 | 19.68135 | 0° | 0km/h | 30863m | 0.0m/s | 0°C | 0% | 0hPa | 2.6V | 00:00:00 | 00:00:00 | 00:00:00 | |
| GYPAP8-17 | 2026-08-30 12:42:19 | 47.39938 | 19.68135 | 0° | 0km/h | 30863m | 0.0m/s | -40.2°C | 0.4% | 10.5hPa | 2.6V | 00:00:00 | 00:00:00 | 00:00:00 | |
| SQ9EZE-15 | 2026-08-30 12:42:09 | 47.39938 | 19.68135 | 0° | 0km/h | 30863m | 0.0m/s | -40.3°C | 0.4% | 10.6hPa | 2.6V | 00:00:00 | 00:00:00 | 00:00:00 | |
| LZ4TU-5 | 2026-08-30 12:42:03 | 47.39938 | 19.68135 | 0° | 0km/h | 30863m | 0.0m/s | -40.3°C | 0% | 0hPa | 2.6V | 00:00:00 | 00:00:00 | 00:00:00 | |
| LZ4TU-5 | 2026-08-30 12:41:58 | 47.39938 | 19.68135 | 0° | 0km/h | 30863m | 0.0m/s | -40.4°C | 0% | 0hPa | 2.6V | 00:00:00 | 00:00:00 | 00:00:00 | |
| SQ9EZE-15 | 2026-08-30 12:41:49 | 47.39938 | 19.68135 | 0° | 0km/h | 30863m | 0.0m/s | -41.2°C | 0.4% | 10.8hPa | 2.6V | 00:00:00 | 00:00:00 | 00:00:00 | |
| SQ9EZE-15 | 2026-08-30 12:41:28 | 47.39938 | 19.68135 | 0° | 0km/h | 30863m | 0.0m/s | -41.9°C | 0.4% | 11.1hPa | 2.6V | 00:00:00 | 00:00:00 | 00:00:00 | |
| GYPAP8-17 | 2026-08-30 12:41:16 | 47.39938 | 19.68135 | 0° | 0km/h | 30863m | 0.0m/s | -41.9°C | 0.5% | 11.2hPa | 2.6V | 00:00:00 | 00:00:00 | 00:00:00 | |
| SQ9EZE-15 | 2026-08-30 12:41:07 | 47.39938 | 19.68135 | 0° | 0km/h | 30863m | 0.0m/s | -41.9°C | 0.5% | 11.3hPa | 2.6V | 00:00:00 | 00:00:00 | 00:00:00 | |
| GYPAP8-17 | 2026-08-30 12:39:58 | 47.39938 | 19.68135 | 0° | 0km/h | 30863m | 0.0m/s | -43.7°C | 0.5% | 12.2hPa | 2.6V | 00:00:00 | 00:00:00 | 00:00:00 | |
| SQ9EZE-15 | 2026-08-30 12:39:41 | 47.39938 | 19.68135 | 0° | 0km/h | 30863m | 0.0m/s | -44.0°C | 0.5% | 12.4hPa | 2.6V | 00:00:00 | 00:00:00 | 00:00:00 | |
| SQ9EZE-15 | 2026-08-30 12:39:21 | 47.39938 | 19.68135 | 0° | 0km/h | 30863m | 0.0m/s | -43.8°C | 0.5% | 12.6hPa | 2.6V | 00:00:00 | 00:00:00 | 00:00:00 | |
| LZ4TU-5 | 2026-08-30 12:39:16 | 47.39938 | 19.68135 | 0° | 0km/h | 30863m | 0.0m/s | 0°C | 0% | 0hPa | 2.6V | 00:00:00 | 00:00:00 | 00:00:00 | |
| GYPAP8-17 | 2026-08-30 12:39:04 | 47.39938 | 19.68135 | 0° | 0km/h | 30863m | 0.0m/s | -44.1°C | 0.5% | 12.9hPa | 2.6V | 00:00:00 | 00:00:00 | 00:00:00 | |
| SQ9EZE-15 | 2026-08-30 12:38:59 | 47.39938 | 19.68135 | 0° | 0km/h | 30863m | 0.0m/s | -44.1°C | 0.5% | 12.9hPa | 2.6V | 00:00:00 | 00:00:00 | 00:00:00 | |
| GYPAP8-17 | 2026-08-30 12:38:42 | 47.39938 | 19.68135 | 0° | 0km/h | 30863m | 0.0m/s | -44.1°C | 0.5% | 13.2hPa | 2.6V | 00:00:00 | 00:00:00 | 00:00:00 | |
| OE5DRO-10 | 2026-08-30 12:37:28 | 47.40060 | 19.67870 | 331° | 44km/h | 30339m | -73.9m/s | -44.2°C | 2.6% | 14.2hPa | 2.6V | 00:00:00 | 00:00:00 | 00:00:00 | |
| LZ4TU-5 | 2026-08-30 12:37:24 | 47.40558 | 19.67371 | 332° | 40km/h | 29446m | 25.5m/s | 0°C | 0% | 0hPa | 2.6V | 00:00:00 | 00:00:00 | 00:00:00 | |
| PETON7-10 | 2026-08-30 12:37:22 | 47.40559 | 19.67371 | 332° | 42km/h | 29446m | 25.5m/s | -44.2°C | 2.5% | 14.3hPa | 2.6V | 00:00:00 | 00:00:00 | 00:00:00 | |
| LZ4TU-5 | 2026-08-30 12:37:19 | 47.40511 | 19.67392 | 208° | 44km/h | 29385m | 26.9m/s | 0°C | 0% | 0hPa | 2.6V | 00:00:00 | 00:00:00 | 00:00:00 | |
| PETON7-10 | 2026-08-30 12:37:07 | 47.40848 | 19.67136 | 28° | 24km/h | 29042m | 7.1m/s | -44.2°C | 2.5% | 14.6hPa | 2.6V | 00:00:00 | 01:42:23 | 00:00:00 | |
| OE5DRO-10 | 2026-08-30 12:37:05 | 47.40848 | 19.67133 | 177° | 24km/h | 29033m | 4.0m/s | -44.2°C | 2.5% | 14.6hPa | 2.6V | 00:00:00 | 00:00:00 | 08:30:00 | |
| SQ9EZE-15 | 2026-08-30 12:37:02 | 47.40851 | 19.67131 | 18° | 18km/h | 29023m | 5.9m/s | -44.3°C | 0.5% | 14.7hPa | 2.7V | 00:00:00 | 00:00:00 | 00:00:00 | |
| GYPAP8-17 | 2026-08-30 12:36:53 | 47.40844 | 19.67075 | 163° | 40km/h | 28959m | 7.7m/s | -44.2°C | 0.5% | 14.8hPa | 2.7V | 00:00:00 | 00:00:00 | 00:00:00 | |
| SQ9EZE-16 | 2026-08-30 12:36:52 | 47.40738 | 19.67073 | 30° | 16km/h | 28848m | 3.8m/s | -44.3°C | 0.5% | 14.8hPa | 2.7V | 00:00:00 | 00:00:00 | 00:00:00 | |
| OE5DRO-10 | 2026-08-30 12:36:46 | 47.40705 | 19.67068 | 15° | 22km/h | 28815m | 5.5m/s | -44.6°C | 2.5% | 14.9hPa | 2.7V | 00:00:00 | 00:00:00 | 00:00:00 | |
| SQ9EZE-15 | 2026-08-30 12:36:43 | 47.40684 | 19.67062 | 23° | 31km/h | 28800m | 6.5m/s | -44.9°C | 0.5% | 15.0hPa | 2.7V | 00:00:00 | 00:00:00 | 00:00:00 | |
| PETON7-10 | 2026-08-30 12:36:37 | 47.40663 | 19.67025 | 83° | 20km/h | 28769m | 4.4m/s | -44.8°C | 2.5% | 15.0hPa | 2.7V | 00:00:00 | 00:00:00 | 00:00:00 | |
| SQ9EZE-16 | 2026-08-30 12:36:36 | 47.40663 | 19.67025 | 84° | 5km/h | 28769m | 4.5m/s | -44.9°C | 0.5% | 15.1hPa | 2.7V | 00:00:00 | 00:00:00 | 00:00:00 | |
| GYPAP8-17 | 2026-08-30 12:36:33 | 47.40652 | 19.67025 | 13° | 16km/h | 28748m | 5.3m/s | -45.3°C | 0.6% | 15.1hPa | 2.7V | 00:00:00 | 00:00:00 | 00:00:00 | |
| OE5DRO-10 | 2026-08-30 12:36:27 | 47.40610 | 19.66997 | 27° | 16km/h | 28715m | 6.9m/s | -45.6°C | 2.7% | 15.2hPa | 2.7V | 00:00:00 | 00:00:00 | 00:00:00 | |
| PETON7-10 | 2026-08-30 12:36:22 | 47.40593 | 19.66997 | 353° | 16km/h | 28684m | 4.0m/s | -45.7°C | 2.7% | 15.3hPa | 2.7V | 00:00:00 | 01:41:38 | 00:00:00 | |
| SQ9EZE-15 | 2026-08-30 12:36:21 | 47.40593 | 19.66997 | 353° | 16km/h | 28684m | 4.1m/s | -45.7°C | 0.6% | 15.3hPa | 2.7V | 00:00:00 | 00:00:00 | 00:00:00 | |
| SQ9EZE-16 | 2026-08-30 12:36:20 | 47.40589 | 19.66999 | 337° | 22km/h | 28679m | 7.4m/s | -45.8°C | 0.6% | 15.3hPa | 2.7V | 00:00:00 | 00:00:00 | 00:00:00 | |
| OE5DRO-10 | 2026-08-30 12:36:08 | 47.40544 | 19.66984 | 12° | 22km/h | 28580m | 5.9m/s | -46.0°C | 2.7% | 15.5hPa | 2.7V | 00:00:00 | 00:00:00 | 00:00:00 | |
| PETON7-10 | 2026-08-30 12:36:07 | 47.40540 | 19.66984 | 354° | 20km/h | 28574m | 6.4m/s | -46.0°C | 2.8% | 15.5hPa | 2.6V | 00:00:00 | 00:00:00 | 08:30:00 | |
| SQ9EZE-16 | 2026-08-30 12:36:04 | 47.40529 | 19.66988 | 348° | 27km/h | 28562m | 4.0m/s | -46.1°C | 0.6% | 15.6hPa | 2.7V | 00:00:00 | 00:00:00 | 00:00:00 | |
| SQ9EZE-15 | 2026-08-30 12:36:00 | 47.40506 | 19.67002 | 344° | 20km/h | 28528m | 4.9m/s | -46.1°C | 0.6% | 15.7hPa | 2.7V | 00:00:00 | 00:00:00 | 00:00:00 | |
| PETON7-10 | 2026-08-30 12:35:52 | 47.40461 | 19.67008 | 353° | 26km/h | 28463m | 4.3m/s | -46.3°C | 2.8% | 15.8hPa | 2.7V | 00:00:00 | 00:00:00 | 00:00:00 | |
| SQ9EZE-16 | 2026-08-30 12:35:49 | 47.40445 | 19.67011 | 358° | 24km/h | 28450m | 7.7m/s | -46.4°C | 0.6% | 15.8hPa | 2.7V | 00:00:00 | 00:00:00 | 00:00:00 | |
| OE5DRO-10 | 2026-08-30 12:35:44 | 47.40400 | 19.67010 | 356° | 20km/h | 28425m | 8.1m/s | -46.4°C | 2.8% | 15.9hPa | 2.7V | 00:00:00 | 00:00:00 | 00:00:00 | |
| PETON7-10 | 2026-08-30 12:35:37 | 47.40380 | 19.67038 | 324° | 22km/h | 28370m | 7.6m/s | -46.3°C | 2.8% | 16.0hPa | 2.7V | 00:00:00 | 01:40:53 | 00:00:00 | |
| SQ9EZE-16 | 2026-08-30 12:35:32 | 47.40357 | 19.67042 | 349° | 37km/h | 28347m | 10.0m/s | -46.3°C | 0.6% | 16.1hPa | 2.7V | 00:00:00 | 00:00:00 | 00:00:00 | |
| OE5DRO-10 | 2026-08-30 12:35:24 | 47.40311 | 19.67076 | 310° | 15km/h | 28278m | 5.4m/s | -46.3°C | 2.8% | 16.2hPa | 2.7V | 00:00:00 | 00:00:00 | 00:00:00 | |
| PETON7-10 | 2026-08-30 12:35:22 | 47.40305 | 19.67082 | 346° | 22km/h | 28264m | 5.7m/s | -46.4°C | 2.8% | 16.3hPa | 2.7V | 00:00:00 | 00:00:00 | 00:00:00 | |
| SQ9EZE-16 | 2026-08-30 12:35:15 | 47.40269 | 19.67108 | 342° | 26km/h | 28220m | 7.9m/s | -46.6°C | 0.6% | 16.4hPa | 2.7V | 00:00:00 | 00:00:00 | 00:00:00 | |
| PETON7-10 | 2026-08-30 12:35:07 | 47.40245 | 19.67153 | 337° | 18km/h | 28162m | 7.3m/s | -46.5°C | 2.8% | 16.5hPa | 2.7V | 00:00:00 | 00:00:00 | 00:00:00 | |
| SQ9EZE-16 | 2026-08-30 12:35:00 | 47.40211 | 19.67170 | 342° | 15km/h | 28121m | 5.0m/s | -46.6°C | 0.6% | 16.7hPa | 2.7V | 00:00:00 | 00:00:00 | 00:00:00 | |
| LZ4TU-5 | 2026-08-30 12:34:55 | 47.40201 | 19.67197 | 275° | 16km/h | 28088m | 5.5m/s | 0°C | 0% | 0hPa | 2.7V | 00:00:00 | 00:00:00 | 00:00:00 | |
| OE5DRO-10 | 2026-08-30 12:34:53 | 47.40193 | 19.67208 | 338° | 18km/h | 28070m | 7.2m/s | -46.7°C | 2.8% | 16.8hPa | 2.7V | 00:00:00 | 00:00:00 | 00:00:00 | |
| PETON7-10 | 2026-08-30 12:34:52 | 47.40189 | 19.67210 | 339° | 15km/h | 28062m | 7.6m/s | -46.7°C | 2.8% | 16.8hPa | 2.7V | 00:00:00 | 01:40:08 | 00:00:00 | |
| LZ4TU-5 | 2026-08-30 12:34:50 | 47.40184 | 19.67213 | 340° | 20km/h | 28054m | 5.5m/s | 0°C | 0% | 0hPa | 2.7V | 00:00:00 | 00:00:00 | 00:00:00 | |
| SQ9EZE-16 | 2026-08-30 12:34:46 | 47.40168 | 19.67217 | 288° | 5km/h | 28023m | 5.9m/s | -46.9°C | 0.6% | 16.9hPa | 2.7V | 00:00:00 | 00:00:00 | 00:00:00 | |
| PETON7-10 | 2026-08-30 12:34:37 | 47.40138 | 19.67256 | 345° | 20km/h | 27963m | 3.6m/s | -46.8°C | 2.8% | 17.0hPa | 2.7V | 00:00:00 | 00:00:00 | 00:00:00 | |
| OE5DRO-10 | 2026-08-30 12:34:34 | 47.40123 | 19.67260 | 4° | 16km/h | 27939m | 3.0m/s | -46.8°C | 2.8% | 17.1hPa | 2.6V | 00:00:00 | 00:00:00 | 00:00:00 | |
| SQ9EZE-16 | 2026-08-30 12:34:29 | 47.40113 | 19.67264 | 341° | 11km/h | 27910m | 5.1m/s | -46.9°C | 0.6% | 17.2hPa | 2.6V | 00:00:00 | 00:00:00 | 00:00:00 | |
| GYPAP8-17 | 2026-08-30 12:34:28 | 47.40111 | 19.67266 | 337° | 11km/h | 27902m | 10.5m/s | -46.9°C | 0.6% | 17.2hPa | 2.6V | 00:00:00 | 00:00:00 | 00:00:00 | |
| PETON7-10 | 2026-08-30 12:34:22 | 47.40077 | 19.67292 | 326° | 16km/h | 27851m | 8.6m/s | -46.9°C | 2.8% | 17.3hPa | 2.6V | 00:00:00 | 00:00:00 | 00:00:00 | |
| OE5DRO-10 | 2026-08-30 12:34:15 | 47.40069 | 19.67314 | 281° | 26km/h | 27790m | 11.2m/s | -47.0°C | 2.8% | 17.4hPa | 2.6V | 00:00:00 | 00:00:00 | 00:00:00 | |
| SQ9EZE-16 | 2026-08-30 12:34:12 | 47.40067 | 19.67321 | 309° | 15km/h | 27772m | 5.8m/s | -47.0°C | 0.6% | 17.5hPa | 2.6V | 00:00:00 | 00:00:00 | 00:00:00 | |
| PETON7-10 | 2026-08-30 12:34:07 | 47.40047 | 19.67342 | 24° | 24km/h | 27740m | -4.9m/s | -47.1°C | 2.8% | 17.6hPa | 2.6V | 00:00:00 | 01:39:23 | 00:00:00 | |
| SQ9EZE-16 | 2026-08-30 12:33:56 | 47.40003 | 19.67335 | 285° | 29km/h | 27735m | 7.6m/s | -47.4°C | 0.6% | 17.8hPa | 2.6V | 00:00:00 | 00:00:00 | 00:00:00 | |
| OE5DRO-10 | 2026-08-30 12:33:55 | 47.40003 | 19.67360 | 273° | 15km/h | 27708m | 10.7m/s | -47.5°C | 2.9% | 17.8hPa | 2.6V | 00:00:00 | 00:00:00 | 08:30:00 | |
| SQ9EZE-15 | 2026-08-30 12:33:54 | 47.40002 | 19.67360 | 273° | 29km/h | 27708m | 10.7m/s | -47.5°C | 0.6% | 17.8hPa | 2.7V | 00:00:00 | 00:00:00 | 00:00:00 | |
| PETON7-10 | 2026-08-30 12:33:52 | 47.40001 | 19.67401 | 291° | 13km/h | 27665m | 8.1m/s | -47.6°C | 2.9% | 17.9hPa | 2.7V | 00:00:00 | 00:00:00 | 08:30:00 | |
| SQ9EZE-16 | 2026-08-30 12:33:38 | 47.40011 | 19.67453 | 289° | 7km/h | 27574m | 7.4m/s | -48.1°C | 0.6% | 18.1hPa | 2.6V | 00:00:00 | 00:00:00 | 00:00:00 | |
| PETON7-10 | 2026-08-30 12:33:37 | 47.40011 | 19.67461 | 270° | 9km/h | 27562m | 4.6m/s | -48.2°C | 3.0% | 18.1hPa | 2.6V | 00:00:00 | 00:00:00 | 00:00:00 | |
| OE5DRO-10 | 2026-08-30 12:33:36 | 47.40011 | 19.67466 | 275° | 9km/h | 27556m | 7.2m/s | -48.3°C | 3.0% | 18.2hPa | 2.6V | 00:00:00 | 00:00:00 | 00:00:00 | |
| SQ9EZE-15 | 2026-08-30 12:33:34 | 47.40011 | 19.67471 | 266° | 11km/h | 27549m | 6.6m/s | -48.4°C | 0.7% | 18.2hPa | 2.6V | 00:00:00 | 00:00:00 | 00:00:00 | |
| SQ9EZE-14 | 2026-08-30 12:33:24 | 47.40017 | 19.67490 | 310° | 4km/h | 27474m | 4.8m/s | 0°C | 0% | 0hPa | 2.6V | 00:00:00 | 00:00:00 | 00:00:00 | |
| SQ9EZE-16 | 2026-08-30 12:33:23 | 47.40017 | 19.67490 | 310° | 4km/h | 27474m | 4.8m/s | -48.1°C | 0.6% | 18.4hPa | 2.6V | 00:00:00 | 00:00:00 | 00:00:00 | |
| PETON7-10 | 2026-08-30 12:33:22 | 47.40017 | 19.67491 | 153° | 9km/h | 27461m | 8.7m/s | -48.2°C | 2.9% | 18.4hPa | 2.6V | 00:00:00 | 01:38:38 | 00:00:00 | |
| GYPAP8-17 | 2026-08-30 12:33:16 | 47.40021 | 19.67504 | 304° | 15km/h | 27427m | 4.9m/s | -48.4°C | 0.7% | 18.6hPa | 2.6V | 00:00:00 | 00:00:00 | 00:00:00 | |
| SQ9EZE-15 | 2026-08-30 12:33:13 | 47.40015 | 19.67508 | 6° | 7km/h | 27404m | 6.3m/s | -48.5°C | 0.7% | 18.6hPa | 2.6V | 00:00:00 | 00:00:00 | 00:00:00 | |
| SQ9EZE-16 | 2026-08-30 12:33:09 | 47.40003 | 19.67510 | 336° | 13km/h | 27370m | 7.1m/s | -48.5°C | 0.7% | 18.7hPa | 2.6V | 00:00:00 | 00:00:00 | 00:00:00 | |
| PETON7-10 | 2026-08-30 12:33:07 | 47.39998 | 19.67513 | 327° | 13km/h | 27358m | 3.9m/s | -48.5°C | 3.0% | 18.7hPa | 2.6V | 00:00:00 | 00:00:00 | 00:00:00 | |
| PETON7-10 | 2026-08-30 12:32:52 | 47.39958 | 19.67534 | 332° | 20km/h | 27248m | 4.4m/s | -48.8°C | 3.2% | 19.0hPa | 2.6V | 00:00:00 | 00:00:00 | 00:00:00 | |
| LZ4TU-5 | 2026-08-30 12:32:49 | 47.39950 | 19.67541 | 343° | 24km/h | 27232m | 10.6m/s | 0°C | 0% | 0hPa | 2.6V | 00:00:00 | 00:00:00 | 00:00:00 | |
| PETON7-10 | 2026-08-30 12:32:37 | 47.39904 | 19.67597 | 319° | 22km/h | 27140m | 5.7m/s | -48.7°C | 3.1% | 19.4hPa | 2.6V | 00:00:00 | 01:37:53 | 00:00:00 | |
| PETON7-10 | 2026-08-30 12:32:22 | 47.39847 | 19.67682 | 302° | 15km/h | 27031m | 5.6m/s | -48.6°C | 3.1% | 19.7hPa | 2.6V | 00:00:00 | 00:00:00 | 00:00:00 | |
| OE5DRO-10 | 2026-08-30 12:32:18 | 47.39839 | 19.67704 | 283° | 15km/h | 27002m | 8.5m/s | -48.5°C | 3.1% | 19.8hPa | 2.6V | 00:00:00 | 00:00:00 | 00:00:00 | |
| GYPAP8-17 | 2026-08-30 12:32:09 | 47.39830 | 19.67742 | 276° | 11km/h | 26939m | 5.5m/s | -48.5°C | 0.7% | 20.0hPa | 2.6V | 00:00:00 | 00:00:00 | 00:00:00 | |
| PETON7-10 | 2026-08-30 12:32:07 | 47.39831 | 19.67760 | 269° | 15km/h | 26920m | 6.5m/s | -48.4°C | 3.0% | 20.0hPa | 2.6V | 00:00:00 | 00:00:00 | 00:00:00 | |
| SQ9EZE-16 | 2026-08-30 12:32:04 | 47.39831 | 19.67777 | 267° | 22km/h | 26905m | 5.8m/s | -48.4°C | 0.7% | 20.1hPa | 2.6V | 00:00:00 | 00:00:00 | 00:00:00 | |
| OE5DRO-10 | 2026-08-30 12:31:59 | 47.39829 | 19.67799 | 1° | 15km/h | 26862m | 5.7m/s | -48.2°C | 3.0% | 20.1hPa | 2.6V | 00:00:00 | 00:00:00 | 00:00:00 | |
| SQ9EZE-16 | 2026-08-30 12:31:48 | 47.39819 | 19.67824 | 250° | 13km/h | 26785m | 5.5m/s | -48.2°C | 0.7% | 20.4hPa | 2.6V | 00:00:00 | 00:00:00 | 00:00:00 | |
| OE5DRO-10 | 2026-08-30 12:31:40 | 47.39797 | 19.67851 | 329° | 16km/h | 26714m | 6.5m/s | -48.3°C | 3.0% | 20.6hPa | 2.6V | 00:00:00 | 00:00:00 | 00:00:00 | |
| PETON7-10 | 2026-08-30 12:31:37 | 47.39789 | 19.67866 | 293° | 16km/h | 26695m | 6.4m/s | -48.3°C | 3.0% | 20.6hPa | 2.6V | 00:00:00 | 00:00:00 | 08:30:00 | |
| SQ9EZE-15 | 2026-08-30 12:31:35 | 47.39787 | 19.67880 | 278° | 20km/h | 26683m | 5.1m/s | -48.4°C | 0.6% | 20.7hPa | 2.7V | 00:00:00 | 00:00:00 | 00:00:00 | |
| SQ9EZE-16 | 2026-08-30 12:31:29 | 47.39773 | 19.67902 | 351° | 20km/h | 26661m | 3.8m/s | -48.4°C | 0.6% | 20.8hPa | 2.7V | 00:00:00 | 00:00:00 | 00:00:00 | |
| OE5DRO-10 | 2026-08-30 12:31:22 | 47.39764 | 19.67936 | 255° | 22km/h | 26618m | 10.6m/s | -48.8°C | 3.2% | 21.0hPa | 2.7V | 00:00:00 | 00:00:00 | 00:00:00 | |
| SQ9EZE-16 | 2026-08-30 12:31:15 | 47.39742 | 19.67983 | 323° | 35km/h | 26571m | 8.3m/s | -48.9°C | 0.7% | 21.2hPa | 2.7V | 00:00:00 | 00:00:00 | 00:00:00 | |
| GYPAP8-17 | 2026-08-30 12:31:10 | 47.39730 | 19.68009 | 252° | 9km/h | 26546m | 5.7m/s | -48.9°C | 0.7% | 21.2hPa | 2.7V | 00:00:00 | 00:00:00 | 00:00:00 | |
| PETON7-10 | 2026-08-30 12:31:07 | 47.39748 | 19.68023 | 200° | 16km/h | 26517m | 6.4m/s | -48.8°C | 3.1% | 21.3hPa | 2.7V | 00:00:00 | 01:36:23 | 00:00:00 | |
| LZ4TU-5 | 2026-08-30 12:31:00 | 47.39758 | 19.68036 | 335° | 16km/h | 26476m | 5.3m/s | 0°C | 0% | 0hPa | 2.7V | 00:00:00 | 00:00:00 | 00:00:00 | |
| SQ9EZE-16 | 2026-08-30 12:30:58 | 47.39750 | 19.68040 | 352° | 13km/h | 26464m | 6.6m/s | -48.7°C | 0.7% | 21.5hPa | 2.7V | 00:00:00 | 00:00:00 | 00:00:00 | |
| LZ4TU-5 | 2026-08-30 12:30:55 | 47.39751 | 19.68036 | 159° | 13km/h | 26446m | 7.0m/s | 0°C | 0% | 0hPa | 2.7V | 00:00:00 | 00:00:00 | 00:00:00 | |
| PETON7-10 | 2026-08-30 12:30:52 | 47.39771 | 19.68037 | 189° | 13km/h | 26420m | 6.9m/s | -48.5°C | 3.0% | 21.6hPa | 2.7V | 00:00:00 | 00:00:00 | 00:00:00 | |
| SQ9EZE-16 | 2026-08-30 12:30:41 | 47.39766 | 19.68011 | 102° | 15km/h | 26354m | 5.4m/s | -49.0°C | 0.7% | 21.8hPa | 2.6V | 00:00:00 | 00:00:00 | 00:00:00 | |
| OE5DRO-10 | 2026-08-30 12:30:38 | 47.39769 | 19.67984 | 119° | 13km/h | 26319m | 8.9m/s | -48.8°C | 3.1% | 21.9hPa | 2.6V | 00:00:00 | 00:00:00 | 00:00:00 | |
| PETON7-10 | 2026-08-30 12:30:37 | 47.39769 | 19.67984 | 119° | 13km/h | 26319m | 8.9m/s | -48.8°C | 3.1% | 21.9hPa | 2.6V | 00:00:00 | 00:00:00 | 00:00:00 | |
| SQ9EZE-16 | 2026-08-30 12:30:26 | 47.39779 | 19.67942 | 107° | 20km/h | 26250m | 5.2m/s | -48.8°C | 0.7% | 22.2hPa | 2.6V | 00:00:00 | 00:00:00 | 00:00:00 | |
| PETON7-10 | 2026-08-30 12:30:22 | 47.39775 | 19.67923 | 29° | 15km/h | 26214m | 9.2m/s | -48.9°C | 3.0% | 22.3hPa | 2.6V | 00:00:00 | 01:35:38 | 00:00:00 | |
| OE5DRO-10 | 2026-08-30 12:30:19 | 47.39768 | 19.67916 | 55° | 15km/h | 26195m | 8.0m/s | -49.0°C | 3.0% | 22.3hPa | 2.6V | 00:00:00 | 00:00:00 | 00:00:00 | |
| SQ9EZE-16 | 2026-08-30 12:30:10 | 47.39786 | 19.67882 | 92° | 7km/h | 26141m | 6.7m/s | -49.3°C | 0.7% | 22.6hPa | 2.6V | 00:00:00 | 00:00:00 | 00:00:00 | |
| GYPAP8-17 | 2026-08-30 12:30:07 | 47.39773 | 19.67870 | 14° | 20km/h | 26112m | 9.0m/s | -49.5°C | 0.7% | 22.7hPa | 2.6V | 00:00:00 | 00:00:00 | 00:00:00 | |
| SQ9EZE-16 | 2026-08-30 12:29:55 | 47.39773 | 19.67849 | 40° | 5km/h | 26038m | 4.9m/s | 0°C | 0% | 22.9hPa | 2.6V | 00:00:00 | 00:00:00 | 00:00:00 | |
| PETON7-10 | 2026-08-30 12:29:52 | 47.39762 | 19.67857 | 329° | 13km/h | 26011m | 7.9m/s | -49.6°C | 3.0% | 23.0hPa | 2.6V | 00:00:00 | 00:00:00 | 00:00:00 | |
| SQ9EZE-16 | 2026-08-30 12:29:40 | 47.39766 | 19.67887 | 273° | 16km/h | 25941m | 6.5m/s | 0°C | 0% | 23.3hPa | 2.6V | 00:00:00 | 00:00:00 | 00:00:00 | |
| PETON7-10 | 2026-08-30 12:29:37 | 47.39765 | 19.67907 | 253° | 15km/h | 25915m | 5.7m/s | -50.8°C | 3.3% | 23.3hPa | 2.6V | 00:00:00 | 01:34:53 | 00:00:00 | |
| SQ9EZE-16 | 2026-08-30 12:29:24 | 47.39775 | 19.67966 | 196° | 15km/h | 25835m | 6.9m/s | 0°C | 0% | 0hPa | 2.6V | 00:00:00 | 00:00:00 | 00:00:00 | |
| PETON7-10 | 2026-08-30 12:29:22 | 47.39786 | 19.67968 | 195° | 9km/h | 25816m | 8.2m/s | -51.2°C | 3.4% | 23.7hPa | 2.6V | 00:00:00 | 00:00:00 | 08:30:00 | |
| SQ9EZE-15 | 2026-08-30 12:29:21 | 47.39786 | 19.67968 | 196° | 13km/h | 25816m | 8.3m/s | -51.3°C | 0.8% | 23.8hPa | 2.6V | 00:00:00 | 00:00:00 | 00:00:00 | |
| LZ4TU-5 | 2026-08-30 12:29:10 | 47.39805 | 19.67992 | 211° | 2km/h | 25734m | 7.9m/s | 0°C | 0% | 0hPa | 2.6V | 00:00:00 | 00:00:00 | 00:00:00 | |
| SQ9EZE-16 | 2026-08-30 12:29:09 | 47.39805 | 19.67992 | 211° | 2km/h | 25734m | 7.9m/s | 0°C | 0% | 0hPa | 2.6V | 00:00:00 | 00:00:00 | 00:00:00 | |
| PETON7-10 | 2026-08-30 12:29:07 | 47.39807 | 19.67994 | 161° | 7km/h | 25714m | 7.7m/s | -51.0°C | 3.3% | 24.1hPa | 2.6V | 00:00:00 | 00:00:00 | 00:00:00 | |
| LZ4TU-5 | 2026-08-30 12:29:04 | 47.39810 | 19.67991 | 146° | 7km/h | 25701m | 4.8m/s | 0°C | 0% | 0hPa | 2.6V | 00:00:00 | 00:00:00 | 00:00:00 | |
| GYPAP8-17 | 2026-08-30 12:29:03 | 47.39811 | 19.67990 | 168° | 7km/h | 25695m | 7.2m/s | -51.2°C | 0.7% | 24.2hPa | 2.6V | 00:00:00 | 00:00:00 | 00:00:00 | |
| SQ9EZE-16 | 2026-08-30 12:28:53 | 47.39814 | 19.67975 | 104° | 16km/h | 25625m | 4.9m/s | 0°C | 0% | 0hPa | 2.6V | 00:00:00 | 00:00:00 | 00:00:00 | |
| PETON7-10 | 2026-08-30 12:28:52 | 47.39817 | 19.67964 | 118° | 15km/h | 25611m | 9.3m/s | -51.8°C | 3.4% | 24.5hPa | 2.6V | 00:00:00 | 01:34:08 | 00:00:00 | |
| OE5DRO-10 | 2026-08-30 12:28:50 | 47.39824 | 19.67953 | 140° | 13km/h | 25591m | 8.1m/s | -51.7°C | 3.4% | 24.5hPa | 2.6V | 00:00:00 | 00:00:00 | 00:00:00 | |
| SQ9EZE-16 | 2026-08-30 12:28:38 | 47.39786 | 19.67951 | 97° | 7km/h | 25509m | 5.9m/s | 0°C | 0% | 0hPa | 2.7V | 00:00:00 | 00:00:00 | 00:00:00 | |
| PETON7-10 | 2026-08-30 12:28:37 | 47.39787 | 19.67949 | 119° | 11km/h | 25504m | 5.7m/s | -52.2°C | 3.5% | 24.9hPa | 2.7V | 00:00:00 | 00:00:00 | 00:00:00 | |
| OE5DRO-10 | 2026-08-30 12:28:31 | 47.39779 | 19.67951 | 332° | 15km/h | 25461m | 6.7m/s | -52.3°C | 3.4% | 25.0hPa | 2.6V | 00:00:00 | 00:00:00 | 00:00:00 | |
| PETON7-10 | 2026-08-30 12:28:22 | 47.39755 | 19.67974 | 326° | 18km/h | 25401m | 6.5m/s | -52.5°C | 3.6% | 25.3hPa | 2.6V | 00:00:00 | 00:00:00 | 00:00:00 | |
| SQ9EZE-16 | 2026-08-30 12:28:21 | 47.39755 | 19.67974 | 327° | 5km/h | 25401m | 6.6m/s | 0°C | 0% | 0hPa | 2.6V | 00:00:00 | 00:00:00 | 00:00:00 | |
| SQ9EZE-15 | 2026-08-30 12:28:13 | 47.39736 | 19.68006 | 307° | 27km/h | 25348m | 6.6m/s | -53.0°C | 0.8% | 25.5hPa | 2.6V | 00:00:00 | 00:00:00 | 00:00:00 | |
| OE5DRO-10 | 2026-08-30 12:28:12 | 47.39730 | 19.68024 | 289° | 15km/h | 25333m | 6.4m/s | -52.9°C | 3.6% | 25.6hPa | 2.6V | 00:00:00 | 00:00:00 | 00:00:00 | |
| PETON7-10 | 2026-08-30 12:28:07 | 47.39720 | 19.68060 | 278° | 13km/h | 25300m | 9.3m/s | -53.0°C | 3.6% | 25.7hPa | 2.6V | 00:00:00 | 01:33:23 | 00:00:00 | |
| SQ9EZE-16 | 2026-08-30 12:28:05 | 47.39720 | 19.68065 | 263° | 13km/h | 25292m | 5.8m/s | 0°C | 0% | 0hPa | 2.6V | 00:00:00 | 00:00:00 | 00:00:00 | |
| GYPAP8-17 | 2026-08-30 12:27:59 | 47.39715 | 19.68094 | 270° | 15km/h | 25250m | 5.6m/s | -52.9°C | 0.8% | 25.9hPa | 2.6V | 00:00:00 | 00:00:00 | 00:00:00 | |
| SQ9EZE-15 | 2026-08-30 12:27:53 | 47.39710 | 19.68121 | 274° | 11km/h | 25209m | 5.5m/s | -53.0°C | 0% | 0hPa | 2.6V | 00:00:00 | 00:00:00 | 00:00:00 | |
| PETON7-10 | 2026-08-30 12:27:52 | 47.39709 | 19.68130 | 293° | 13km/h | 25197m | 9.6m/s | -53.0°C | 3.7% | 26.1hPa | 2.6V | 00:00:00 | 00:00:00 | 00:00:00 | |
| PETON7-10 | 2026-08-30 12:27:37 | 47.39685 | 19.68194 | 325° | 16km/h | 25094m | 6.9m/s | -53.3°C | 3.9% | 26.5hPa | 2.7V | 00:00:00 | 00:00:00 | 00:00:00 | |
| OE5DRO-10 | 2026-08-30 12:27:34 | 47.39676 | 19.68211 | 294° | 16km/h | 25075m | 6.4m/s | -53.2°C | 3.8% | 26.6hPa | 2.7V | 00:00:00 | 00:00:00 | 00:00:00 | |
| SQ9EZE-15 | 2026-08-30 12:27:32 | 47.39674 | 19.68219 | 298° | 24km/h | 25068m | 7.2m/s | -53.3°C | 0% | 0hPa | 2.7V | 00:00:00 | 00:00:00 | 00:00:00 | |
| SQ9EZE-16 | 2026-08-30 12:27:26 | 47.39661 | 19.68243 | 314° | 11km/h | 25026m | 9.6m/s | -52.9°C | 0% | 26.9hPa | 2.7V | 00:00:00 | 00:00:00 | 00:00:00 | |
| PETON7-10 | 2026-08-30 12:27:22 | 47.39652 | 19.68268 | 289° | 18km/h | 24991m | 7.5m/s | -52.7°C | 3.8% | 27.0hPa | 2.7V | 00:00:00 | 01:32:38 | 00:00:00 | |
| OE5DRO-10 | 2026-08-30 12:27:15 | 47.39648 | 19.68312 | 285° | 22km/h | 24932m | 7.4m/s | -52.5°C | 3.7% | 27.2hPa | 2.7V | 00:00:00 | 00:00:00 | 00:00:00 | |
| SQ9EZE-16 | 2026-08-30 12:27:10 | 47.39645 | 19.68331 | 286° | 22km/h | 24910m | 9.0m/s | -52.5°C | 0% | 0hPa | 2.7V | 00:00:00 | 00:00:00 | 00:00:00 | |
| PETON7-10 | 2026-08-30 12:27:07 | 47.39640 | 19.68370 | 265° | 20km/h | 24881m | 6.0m/s | -52.1°C | 3.7% | 27.4hPa | 2.7V | 00:00:00 | 00:00:00 | 08:30:00 | |
| GYPAP8-17 | 2026-08-30 12:26:58 | 47.39654 | 19.68431 | 258° | 11km/h | 24824m | 4.1m/s | -51.7°C | 0.8% | 27.7hPa | 2.7V | 00:00:00 | 00:00:00 | 00:00:00 | |
| SQ9EZE-16 | 2026-08-30 12:26:55 | 47.39655 | 19.68449 | 258° | 18km/h | 24797m | 7.4m/s | -51.6°C | 0% | 0hPa | 2.7V | 00:00:00 | 00:00:00 | 00:00:00 | |
| LZ4TU-5 | 2026-08-30 12:26:43 | 47.39671 | 19.68507 | 257° | 11km/h | 24723m | 5.4m/s | 0°C | 0% | 0hPa | 2.7V | 00:00:00 | 00:00:00 | 00:00:00 | |
| LZ4TU-5 | 2026-08-30 12:26:39 | 47.39675 | 19.68525 | 273° | 9km/h | 24696m | 9.2m/s | 0°C | 0% | 0hPa | 2.7V | 00:00:00 | 00:00:00 | 00:00:00 | |
| SQ9EZE-16 | 2026-08-30 12:26:38 | 47.39674 | 19.68527 | 291° | 7km/h | 24689m | 5.7m/s | -50.9°C | 0% | 0hPa | 2.7V | 00:00:00 | 00:00:00 | 00:00:00 | |
| PETON7-10 | 2026-08-30 12:26:37 | 47.39674 | 19.68532 | 246° | 5km/h | 24675m | 8.9m/s | -50.8°C | 3.4% | 28.3hPa | 2.7V | 00:00:00 | 01:31:53 | 00:00:00 | |
| OE5DRO-10 | 2026-08-30 12:26:36 | 47.39677 | 19.68535 | 190° | 5km/h | 24655m | 8.6m/s | 0°C | 0% | 0hPa | 2.7V | 00:00:00 | 00:00:00 | 00:00:00 | |
| SQ9EZE-14 | 2026-08-30 12:26:25 | 47.39686 | 19.68547 | 117° | 2km/h | 24605m | 4.6m/s | 0°C | 0% | 0hPa | 2.7V | 00:00:00 | 00:00:00 | 00:00:00 | |
| SQ9EZE-16 | 2026-08-30 12:26:23 | 47.39688 | 19.68545 | 139° | 4km/h | 24585m | 4.8m/s | -51.0°C | 0% | 0hPa | 2.7V | 00:00:00 | 00:00:00 | 00:00:00 | |
| PETON7-10 | 2026-08-30 12:26:22 | 47.39688 | 19.68544 | 97° | 5km/h | 24579m | 7.8m/s | -51.0°C | 3.3% | 28.7hPa | 2.7V | 00:00:00 | 00:00:00 | 00:00:00 | |
| OE5DRO-10 | 2026-08-30 12:26:17 | 47.39686 | 19.68555 | 283° | 11km/h | 24531m | 5.6m/s | 0°C | 0% | 0hPa | 2.7V | 00:00:00 | 00:00:00 | 00:00:00 | |
| PETON7-10 | 2026-08-30 12:26:07 | 47.39688 | 19.68564 | 313° | 15km/h | 24484m | 6.9m/s | -51.8°C | 3.4% | 29.2hPa | 2.7V | 00:00:00 | 00:00:00 | 00:00:00 | |
| GYPAP8-17 | 2026-08-30 12:25:54 | 47.39682 | 19.68637 | 293° | 15km/h | 24406m | 4.8m/s | -52.5°C | 0.8% | 29.6hPa | 2.7V | 00:00:00 | 00:00:00 | 00:00:00 | |
| SQ9EZE-16 | 2026-08-30 12:25:53 | 47.39681 | 19.68642 | 281° | 15km/h | 24400m | 7.4m/s | -52.7°C | 0% | 0hPa | 2.7V | 00:00:00 | 00:00:00 | 00:00:00 | |
| PETON7-10 | 2026-08-30 12:25:52 | 47.39681 | 19.68647 | 254° | 11km/h | 24393m | 6.2m/s | -52.9°C | 3.5% | 29.6hPa | 2.7V | 00:00:00 | 01:31:08 | 00:00:00 | |
| OE5DRO-10 | 2026-08-30 12:25:46 | 47.39702 | 19.68675 | 237° | 9km/h | 24345m | 8.4m/s | 0°C | 0% | 0hPa | 2.7V | 00:00:00 | 00:00:00 | 00:00:00 | |
| SQ9EZE-16 | 2026-08-30 12:25:38 | 47.39709 | 19.68685 | 146° | 9km/h | 24305m | 7.6m/s | 0°C | 0% | 0hPa | 2.7V | 00:00:00 | 00:00:00 | 00:00:00 | |
| PETON7-10 | 2026-08-30 12:25:37 | 47.39711 | 19.68683 | 146° | 7km/h | 24298m | 4.9m/s | -53.3°C | 3.6% | 30.0hPa | 2.7V | 00:00:00 | 00:00:00 | 00:00:00 | |
| PETON7-10 | 2026-08-30 12:25:22 | 47.39714 | 19.68677 | 290° | 11km/h | 24206m | 5.5m/s | -53.8°C | 3.6% | 30.4hPa | 2.6V | 00:00:00 | 00:00:00 | 00:00:00 | |
| SQ9EZE-16 | 2026-08-30 12:25:21 | 47.39714 | 19.68677 | 290° | 4km/h | 24206m | 5.5m/s | 0°C | 0% | 0hPa | 2.6V | 00:00:00 | 00:00:00 | 00:00:00 | |
| PETON7-10 | 2026-08-30 12:25:07 | 47.39705 | 19.68734 | 283° | 13km/h | 24111m | 6.1m/s | -54.7°C | 4.0% | 30.9hPa | 2.6V | 00:00:00 | 01:30:23 | 00:00:00 | |
| SQ9EZE-16 | 2026-08-30 12:25:06 | 47.39705 | 19.68734 | 283° | 13km/h | 24111m | 6.2m/s | 0°C | 0% | 0hPa | 2.6V | 00:00:00 | 00:00:00 | 00:00:00 | |
| GYPAP8-17 | 2026-08-30 12:24:54 | 47.39730 | 19.68758 | 200° | 7km/h | 24035m | 6.0m/s | -54.5°C | 0.9% | 31.3hPa | 2.6V | 00:00:00 | 00:00:00 | 00:00:00 | |
| PETON7-10 | 2026-08-30 12:24:52 | 47.39731 | 19.68767 | 283° | 13km/h | 24015m | 5.3m/s | -54.4°C | 4.0% | 31.4hPa | 2.6V | 00:00:00 | 00:00:00 | 08:30:00 | |
| SQ9EZE-16 | 2026-08-30 12:24:51 | 47.39731 | 19.68770 | 291° | 9km/h | 24008m | 8.3m/s | 0°C | 0% | 0hPa | 2.6V | 00:00:00 | 00:00:00 | 00:00:00 | |
| LZ4TU-5 | 2026-08-30 12:24:43 | 47.39747 | 19.68765 | 146° | 24km/h | 23962m | 4.5m/s | 0°C | 0% | 0hPa | 2.6V | 00:00:00 | 00:00:00 | 00:00:00 | |
| LZ4TU-5 | 2026-08-30 12:24:38 | 47.39763 | 19.68754 | 119° | 4km/h | 23931m | 6.4m/s | 0°C | 0% | 0hPa | 2.6V | 00:00:00 | 00:00:00 | 00:00:00 | |
| PETON7-10 | 2026-08-30 12:24:37 | 47.39763 | 19.68753 | 351° | 5km/h | 23919m | 6.9m/s | -54.6°C | 3.9% | 31.9hPa | 2.6V | 00:00:00 | 00:00:00 | 00:00:00 | |
| OE5DRO-10 | 2026-08-30 12:24:36 | 47.39762 | 19.68754 | 307° | 5km/h | 23912m | 7.3m/s | 0°C | 0% | 0hPa | 2.6V | 00:00:00 | 00:00:00 | 00:00:00 | |
| PETON7-10 | 2026-08-30 12:24:22 | 47.39762 | 19.68737 | 274° | 4km/h | 23822m | 5.3m/s | -54.7°C | 4.0% | 32.4hPa | 2.6V | 00:00:00 | 01:29:38 | 00:00:00 | |
| OE5DRO-10 | 2026-08-30 12:24:16 | 47.39762 | 19.68743 | 65° | 9km/h | 23783m | 6.6m/s | 0°C | 0% | 0hPa | 2.6V | 00:00:00 | 00:00:00 | 00:00:00 | |
| PETON7-10 | 2026-08-30 12:24:07 | 47.39764 | 19.68745 | 304° | 11km/h | 23724m | 5.6m/s | -54.2°C | 4.0% | 32.9hPa | 2.6V | 00:00:00 | 00:00:00 | 00:00:00 | |
| PETON7-10 | 2026-08-30 12:23:52 | 47.39740 | 19.68791 | 289° | 15km/h | 23627m | 6.0m/s | -54.0°C | 3.9% | 33.3hPa | 2.6V | 00:00:00 | 00:00:00 | 00:00:00 | |
| GYPAP8-17 | 2026-08-30 12:23:46 | 47.39730 | 19.68830 | 283° | 20km/h | 23587m | 6.3m/s | -53.8°C | 0.9% | 33.6hPa | 2.6V | 00:00:00 | 00:00:00 | 00:00:00 | |
| PETON7-10 | 2026-08-30 12:23:37 | 47.39721 | 19.68862 | 320° | 11km/h | 23530m | 6.0m/s | -54.0°C | 3.9% | 33.9hPa | 2.6V | 00:00:00 | 01:28:53 | 00:00:00 | |
| PETON7-10 | 2026-08-30 12:23:22 | 47.39689 | 19.68888 | 323° | 13km/h | 23433m | 6.1m/s | -53.6°C | 3.7% | 34.4hPa | 2.6V | 00:00:00 | 00:00:00 | 00:00:00 | |
| SQ9EZE-15 | 2026-08-30 12:23:13 | 47.39661 | 19.68898 | 69° | 13km/h | 23380m | 6.7m/s | -53.5°C | 0% | 0hPa | 2.7V | 00:00:00 | 00:00:00 | 00:00:00 | |
| PETON7-10 | 2026-08-30 12:23:07 | 47.39653 | 19.68893 | 308° | 15km/h | 23335m | 5.9m/s | -53.6°C | 3.8% | 34.9hPa | 2.7V | 00:00:00 | 00:00:00 | 00:00:00 | |
| SQ9EZE-16 | 2026-08-30 12:23:04 | 47.39650 | 19.68902 | 288° | 15km/h | 23321m | 5.8m/s | -53.5°C | 0.9% | 35.0hPa | 2.7V | 00:00:00 | 00:00:00 | 00:00:00 | |
| PETON7-10 | 2026-08-30 12:22:52 | 47.39619 | 19.68882 | 278° | 9km/h | 23241m | 5.5m/s | -53.5°C | 3.8% | 35.4hPa | 2.7V | 00:00:00 | 01:28:08 | 00:00:00 | |
| SQ9EZE-16 | 2026-08-30 12:22:50 | 47.39618 | 19.68886 | 316° | 5km/h | 23228m | 6.7m/s | -53.6°C | 0% | 0hPa | 2.7V | 00:00:00 | 00:00:00 | 00:00:00 | |
| GYPAP8-17 | 2026-08-30 12:22:42 | 47.39605 | 19.68877 | 29° | 16km/h | 23183m | 5.1m/s | -53.5°C | 0.9% | 35.8hPa | 2.7V | 00:00:00 | 00:00:00 | 00:00:00 | |
| PETON7-10 | 2026-08-30 12:22:37 | 47.39592 | 19.68880 | 302° | 7km/h | 23144m | 5.9m/s | -53.5°C | 3.7% | 36.0hPa | 2.7V | 00:00:00 | 00:00:00 | 08:30:00 | |
| SQ9EZE-16 | 2026-08-30 12:22:33 | 47.39590 | 19.68890 | 299° | 7km/h | 23125m | 5.8m/s | -53.6°C | 0% | 0hPa | 2.7V | 00:00:00 | 00:00:00 | 00:00:00 | |
| OE5DRO-10 | 2026-08-30 12:22:32 | 47.39586 | 19.68893 | 5° | 15km/h | 23111m | 4.9m/s | 0°C | 0% | 0hPa | 2.7V | 00:00:00 | 00:00:00 | 00:00:00 | |
| LZ4TU-5 | 2026-08-30 12:22:29 | 47.39582 | 19.68892 | 12° | 5km/h | 23099m | 7.3m/s | 0°C | 0% | 0hPa | 2.7V | 00:00:00 | 00:00:00 | 00:00:00 | |
| LZ4TU-5 | 2026-08-30 12:22:24 | 47.39576 | 19.68892 | 284° | 4km/h | 23066m | 8.1m/s | 0°C | 0% | 0hPa | 2.7V | 00:00:00 | 00:00:00 | 00:00:00 | |
| PETON7-10 | 2026-08-30 12:22:22 | 47.39575 | 19.68896 | 352° | 13km/h | 23048m | 8.0m/s | -53.8°C | 3.8% | 36.5hPa | 2.7V | 00:00:00 | 00:00:00 | 00:00:00 | |
| SQ9EZE-16 | 2026-08-30 12:22:17 | 47.39570 | 19.68892 | 25° | 5km/h | 23023m | 4.8m/s | -53.7°C | 0% | 0hPa | 2.7V | 00:00:00 | 00:00:00 | 00:00:00 | |
| PETON7-10 | 2026-08-30 12:22:07 | 47.39536 | 19.68928 | 331° | 20km/h | 22951m | 4.7m/s | -53.8°C | 3.8% | 37.1hPa | 2.7V | 00:00:00 | 01:27:23 | 00:00:00 | |
| SQ9EZE-16 | 2026-08-30 12:22:03 | 47.39528 | 19.68929 | 348° | 7km/h | 22925m | 8.5m/s | -53.9°C | 0% | 0hPa | 2.7V | 00:00:00 | 00:00:00 | 00:00:00 | |
| PETON7-10 | 2026-08-30 12:21:52 | 47.39463 | 19.68967 | 326° | 20km/h | 22856m | 7.6m/s | -54.2°C | 3.9% | 37.6hPa | 2.7V | 00:00:00 | 00:00:00 | 00:00:00 | |
| SQ9EZE-16 | 2026-08-30 12:21:47 | 47.39453 | 19.68983 | 316° | 16km/h | 22831m | 5.0m/s | -54.4°C | 0% | 0hPa | 2.6V | 00:00:00 | 00:00:00 | 00:00:00 | |
| GYPAP8-17 | 2026-08-30 12:21:38 | 47.39408 | 19.69020 | 343° | 18km/h | 22776m | 5.0m/s | -54.4°C | 0.9% | 38.1hPa | 2.6V | 00:00:00 | 00:00:00 | 00:00:00 | |
| PETON7-10 | 2026-08-30 12:21:37 | 47.39400 | 19.69024 | 342° | 15km/h | 22763m | 5.3m/s | -54.4°C | 3.9% | 38.2hPa | 2.6V | 00:00:00 | 00:00:00 | 00:00:00 | |
| SQ9EZE-16 | 2026-08-30 12:21:31 | 47.39388 | 19.69044 | 314° | 13km/h | 22733m | 7.1m/s | 0°C | 0% | 0hPa | 2.6V | 00:00:00 | 00:00:00 | 00:00:00 | |
| PETON7-10 | 2026-08-30 12:21:22 | 47.39356 | 19.69057 | 316° | 16km/h | 22674m | 4.4m/s | -54.5°C | 4.0% | 38.7hPa | 2.6V | 00:00:00 | 01:26:38 | 00:00:00 | |
| SQ9EZE-16 | 2026-08-30 12:21:15 | 47.39332 | 19.69096 | 312° | 16km/h | 22638m | 5.7m/s | 0°C | 0% | 0hPa | 2.6V | 00:00:00 | 00:00:00 | 00:00:00 | |
| SQ9EZE-14 | 2026-08-30 12:21:14 | 47.39330 | 19.69099 | 321° | 15km/h | 22631m | 7.6m/s | 0°C | 0% | 0hPa | 2.6V | 00:00:00 | 00:00:00 | 00:00:00 | |
| PETON7-10 | 2026-08-30 12:21:07 | 47.39313 | 19.69125 | 301° | 16km/h | 22581m | 7.9m/s | -54.5°C | 4.0% | 39.3hPa | 2.6V | 00:00:00 | 00:00:00 | 00:00:00 | |
| PETON7-10 | 2026-08-30 12:20:52 | 47.39295 | 19.69204 | 260° | 7km/h | 22490m | 7.1m/s | -54.1°C | 3.9% | 39.8hPa | 2.6V | 00:00:00 | 00:00:00 | 00:00:00 | |
| PETON7-10 | 2026-08-30 12:20:37 | 47.39290 | 19.69234 | 153° | 5km/h | 22397m | 4.5m/s | -54.3°C | 3.9% | 40.4hPa | 2.6V | 00:00:00 | 01:25:53 | 00:00:00 | |
| LZ4TU-5 | 2026-08-30 12:20:33 | 47.39288 | 19.69237 | 326° | 9km/h | 22379m | 5.0m/s | 0°C | 0% | 0hPa | 2.6V | 00:00:00 | 00:00:00 | 00:00:00 | |
| PETON7-10 | 2026-08-30 12:20:22 | 47.39289 | 19.69232 | 338° | 11km/h | 22309m | 5.8m/s | -54.4°C | 4.0% | 41.0hPa | 2.6V | 00:00:00 | 00:00:00 | 08:30:00 | |
| SQ9EZE-15 | 2026-08-30 12:20:18 | 47.39287 | 19.69233 | 348° | 7km/h | 22291m | 7.1m/s | -54.4°C | 0% | 0hPa | 2.7V | 00:00:00 | 00:00:00 | 00:00:00 | |
| PETON7-10 | 2026-08-30 12:20:05 | 47.39259 | 19.69190 | 15° | 15km/h | 22206m | 7.2m/s | -54.4°C | 4.0% | 41.7hPa | 2.7V | 00:00:00 | 00:00:00 | 00:00:00 | |
| SQ9EZE-15 | 2026-08-30 12:19:57 | 47.39234 | 19.69173 | 36° | 18km/h | 22163m | 4.3m/s | -54.5°C | 0% | 0hPa | 2.7V | 00:00:00 | 00:00:00 | 00:00:00 | |
| PETON7-10 | 2026-08-30 12:19:50 | 47.39209 | 19.69168 | 347° | 18km/h | 22114m | 5.5m/s | -54.5°C | 4.0% | 42.3hPa | 2.7V | 00:00:00 | 01:25:06 | 00:00:00 | |
| SQ9EZE-15 | 2026-08-30 12:19:36 | 47.39148 | 19.69172 | 355° | 16km/h | 22035m | 5.5m/s | 0°C | 0% | 0hPa | 2.7V | 00:00:00 | 00:00:00 | 00:00:00 | |
| PETON7-10 | 2026-08-30 12:19:35 | 47.39140 | 19.69175 | 336° | 18km/h | 22023m | 5.0m/s | -54.6°C | 4.0% | 42.9hPa | 2.7V | 00:00:00 | 00:00:00 | 00:00:00 | |
| GYPAP8-17 | 2026-08-30 12:19:29 | 47.39116 | 19.69187 | 350° | 16km/h | 21992m | 5.0m/s | -54.6°C | 1.0% | 43.1hPa | 2.7V | 00:00:00 | 00:00:00 | 00:00:00 | |
| PETON7-10 | 2026-08-30 12:19:20 | 47.39072 | 19.69192 | 349° | 18km/h | 21933m | 7.0m/s | -54.4°C | 4.0% | 43.5hPa | 2.7V | 00:00:00 | 00:00:00 | 00:00:00 | |
| SQ9EZE-15 | 2026-08-30 12:19:16 | 47.39059 | 19.69197 | 343° | 18km/h | 21908m | 5.7m/s | 0°C | 0% | 0hPa | 2.7V | 00:00:00 | 00:00:00 | 00:00:00 | |
| PETON7-10 | 2026-08-30 12:19:05 | 47.39019 | 19.69245 | 298° | 18km/h | 21839m | 4.2m/s | -54.3°C | 3.9% | 44.1hPa | 2.7V | 00:00:00 | 01:24:21 | 00:00:00 | |
| SQ9EZE-15 | 2026-08-30 12:18:55 | 47.39005 | 19.69305 | 287° | 15km/h | 21786m | 5.1m/s | 0°C | 0% | 0hPa | 2.7V | 00:00:00 | 00:00:00 | 00:00:00 | |
| PETON7-10 | 2026-08-30 12:18:50 | 47.38990 | 19.69335 | 312° | 18km/h | 21751m | 4.3m/s | -54.0°C | 3.8% | 44.8hPa | 2.7V | 00:00:00 | 00:00:00 | 00:00:00 | |
| LZ4TU-5 | 2026-08-30 12:18:40 | 47.38962 | 19.69397 | 284° | 15km/h | 21689m | 5.9m/s | 0°C | 0% | 0hPa | 2.6V | 00:00:00 | 00:00:00 | 00:00:00 | |
| PETON7-10 | 2026-08-30 12:18:35 | 47.38952 | 19.69406 | 5° | 13km/h | 21661m | 6.6m/s | -54.7°C | 4.0% | 45.3hPa | 2.6V | 00:00:00 | 00:00:00 | 00:00:00 | |
| PETON7-10 | 2026-08-30 12:18:20 | 47.38943 | 19.69457 | 291° | 16km/h | 21571m | 6.4m/s | -54.4°C | 3.9% | 46.0hPa | 2.6V | 00:00:00 | 01:23:36 | 00:00:00 | |
| PETON7-10 | 2026-08-30 12:18:05 | 47.38967 | 19.69545 | 238° | 22km/h | 21477m | 5.9m/s | -54.3°C | 4.0% | 46.7hPa | 2.6V | 00:00:00 | 00:00:00 | 08:30:00 | |
| PETON7-10 | 2026-08-30 12:17:50 | 47.39021 | 19.69642 | 242° | 15km/h | 21385m | 6.1m/s | -54.2°C | 3.9% | 47.4hPa | 2.7V | 00:00:00 | 00:00:00 | 00:00:00 | |
| PETON7-10 | 2026-08-30 12:17:35 | 47.39071 | 19.69673 | 187° | 15km/h | 21293m | 6.1m/s | -54.1°C | 3.9% | 48.0hPa | 2.7V | 00:00:00 | 01:22:51 | 00:00:00 | |
| PETON7-10 | 2026-08-30 12:17:19 | 47.39130 | 19.69686 | 191° | 13km/h | 21200m | 6.7m/s | -54.0°C | 3.9% | 48.8hPa | 2.7V | 00:00:00 | 00:00:00 | 00:00:00 | |
| GYPAP8-17 | 2026-08-30 12:17:18 | 47.39130 | 19.69686 | 192° | 13km/h | 21200m | 6.8m/s | -54.0°C | 1.0% | 48.8hPa | 2.6V | 00:00:00 | 00:00:00 | 00:00:00 | |
| PETON7-10 | 2026-08-30 12:17:03 | 47.39176 | 19.69671 | 134° | 5km/h | 21106m | 6.2m/s | -53.9°C | 3.8% | 49.5hPa | 2.6V | 00:00:00 | 00:00:00 | 00:00:00 | |
| LZ4TU-5 | 2026-08-30 12:16:50 | 47.39171 | 19.69663 | 11° | 5km/h | 21032m | 6.1m/s | 0°C | 0% | 0hPa | 2.6V | 00:00:00 | 00:00:00 | 00:00:00 | |
| PETON7-10 | 2026-08-30 12:16:48 | 47.39167 | 19.69660 | 37° | 11km/h | 21014m | 5.2m/s | -54.2°C | 3.8% | 50.2hPa | 2.6V | 00:00:00 | 01:22:04 | 00:00:00 | |
| LZ4TU-5 | 2026-08-30 12:16:46 | 47.39165 | 19.69658 | 15° | 7km/h | 21008m | 6.3m/s | 0°C | 0% | 0hPa | 2.6V | 00:00:00 | 00:00:00 | 00:00:00 | |
| PETON7-10 | 2026-08-30 12:16:33 | 47.39134 | 19.69702 | 2° | 5km/h | 20928m | 5.6m/s | -54.4°C | 4.0% | 50.9hPa | 2.6V | 00:00:00 | 00:00:00 | 00:00:00 | |
| PETON7-10 | 2026-08-30 12:16:18 | 47.39126 | 19.69698 | 146° | 11km/h | 20836m | 5.1m/s | -54.4°C | 3.9% | 51.6hPa | 2.6V | 00:00:00 | 00:00:00 | 00:00:00 | |
| GYPAP8-17 | 2026-08-30 12:16:04 | 47.39133 | 19.69646 | 112° | 11km/h | 20763m | 6.5m/s | -54.9°C | 1.0% | 52.3hPa | 2.6V | 00:00:00 | 00:00:00 | 00:00:00 | |
| PETON7-10 | 2026-08-30 12:16:03 | 47.39134 | 19.69636 | 98° | 18km/h | 20751m | 6.7m/s | -54.9°C | 4.1% | 52.3hPa | 2.6V | 00:00:00 | 01:21:19 | 00:00:00 | |
| PETON7-10 | 2026-08-30 12:15:48 | 47.39129 | 19.69539 | 92° | 20km/h | 20663m | 4.0m/s | -54.8°C | 4.1% | 53.0hPa | 2.6V | 00:00:00 | 00:00:00 | 08:30:00 | |
| PETON7-10 | 2026-08-30 12:15:33 | 47.39103 | 19.69440 | 61° | 15km/h | 20576m | 7.3m/s | -54.4°C | 4.0% | 53.8hPa | 2.7V | 00:00:00 | 00:00:00 | 00:00:00 | |
| PETON7-10 | 2026-08-30 12:15:18 | 47.39071 | 19.69379 | 33° | 18km/h | 20487m | 6.2m/s | -54.4°C | 3.9% | 54.5hPa | 2.7V | 00:00:00 | 01:20:34 | 00:00:00 | |
| GYPAP8-17 | 2026-08-30 12:14:56 | 47.38986 | 19.69377 | 325° | 13km/h | 20362m | 6.5m/s | -54.6°C | 1.0% | 55.6hPa | 2.7V | 00:00:00 | 00:00:00 | 00:00:00 | |
| LZ4TU-5 | 2026-08-30 12:14:55 | 47.38984 | 19.69380 | 337° | 13km/h | 20356m | 6.3m/s | 0°C | 0% | 0hPa | 2.7V | 00:00:00 | 00:00:00 | 00:00:00 | |
| LZ4TU-5 | 2026-08-30 12:14:50 | 47.38958 | 19.69388 | 6° | 22km/h | 20326m | 6.3m/s | 0°C | 0% | 0hPa | 2.7V | 00:00:00 | 00:00:00 | 00:00:00 | |
| PETON7-10 | 2026-08-30 12:14:48 | 47.38946 | 19.69386 | 7° | 15km/h | 20309m | 5.3m/s | -54.8°C | 4.0% | 56.0hPa | 2.7V | 00:00:00 | 00:00:00 | 00:00:00 | |
| OE5DRO-10 | 2026-08-30 12:14:37 | 47.38904 | 19.69396 | 26° | 16km/h | 20240m | 6.6m/s | 0°C | 0% | 0hPa | 2.7V | 00:00:00 | 00:00:00 | 00:00:00 | |
| PETON7-10 | 2026-08-30 12:14:34 | 47.38892 | 19.69389 | 6° | 18km/h | 20221m | 5.4m/s | -55.1°C | 4.1% | 56.8hPa | 2.7V | 00:00:00 | 01:19:49 | 00:00:00 | |
| PETON7-10 | 2026-08-30 12:14:18 | 47.38823 | 19.69392 | 346° | 13km/h | 20132m | 5.7m/s | -55.0°C | 4.1% | 57.6hPa | 2.7V | 00:00:00 | 00:00:00 | 00:00:00 | |
| OE5DRO-10 | 2026-08-30 12:14:16 | 47.38810 | 19.69398 | 341° | 13km/h | 20114m | 4.4m/s | 0°C | 0% | 0hPa | 2.7V | 00:00:00 | 00:00:00 | 00:00:00 | |
| PETON7-10 | 2026-08-30 12:14:03 | 47.38777 | 19.69414 | 305° | 9km/h | 20043m | 7.4m/s | -54.5°C | 4.0% | 58.4hPa | 2.7V | 00:00:00 | 00:00:00 | 00:00:00 | |
| OE5DRO-10 | 2026-08-30 12:13:54 | 47.38760 | 19.69448 | 327° | 7km/h | 19991m | 5.3m/s | 0°C | 0% | 0hPa | 2.7V | 00:00:00 | 00:00:00 | 00:00:00 | |
| GYPAP8-17 | 2026-08-30 12:13:51 | 47.38759 | 19.69449 | 0° | 0km/h | 19981m | 5.5m/s | -54.5°C | 1.0% | 59.0hPa | 2.7V | 00:00:00 | 00:00:00 | 00:00:00 | |
| PETON7-10 | 2026-08-30 12:13:48 | 47.38759 | 19.69456 | 297° | 11km/h | 19957m | 6.4m/s | -54.4°C | 3.9% | 59.2hPa | 2.7V | 00:00:00 | 01:19:04 | 00:00:00 | |
| PETON7-10 | 2026-08-30 12:13:33 | 47.38756 | 19.69517 | 302° | 5km/h | 19874m | 6.7m/s | -54.6°C | 4.0% | 60.0hPa | 2.7V | 00:00:00 | 00:00:00 | 08:30:00 | |
| PETON7-10 | 2026-08-30 12:13:18 | 47.38762 | 19.69512 | 35° | 9km/h | 19789m | 4.8m/s | -54.8°C | 4.1% | 60.8hPa | 2.6V | 00:00:00 | 00:00:00 | 00:00:00 | |
| PETON7-10 | 2026-08-30 12:13:03 | 47.38747 | 19.69480 | 359° | 11km/h | 19706m | 5.4m/s | -54.7°C | 4.0% | 61.6hPa | 2.6V | 00:00:00 | 01:18:19 | 00:00:00 | |
| PETON7-10 | 2026-08-30 12:12:48 | 47.38701 | 19.69481 | 2° | 13km/h | 19621m | 6.0m/s | -54.6°C | 3.9% | 62.4hPa | 2.6V | 00:00:00 | 00:00:00 | 00:00:00 | |
| PETON7-10 | 2026-08-30 12:12:33 | 47.38663 | 19.69520 | 17° | 15km/h | 19532m | 5.0m/s | -54.4°C | 3.9% | 63.3hPa | 2.7V | 00:00:00 | 00:00:00 | 00:00:00 | |
| PETON7-10 | 2026-08-30 12:12:18 | 47.38610 | 19.69531 | 359° | 16km/h | 19444m | 5.6m/s | -54.8°C | 3.9% | 64.1hPa | 2.7V | 00:00:00 | 01:17:34 | 00:00:00 | |
| PETON7-10 | 2026-08-30 12:12:03 | 47.38554 | 19.69518 | 3° | 11km/h | 19358m | 4.0m/s | -55.1°C | 4.1% | 65.0hPa | 2.7V | 00:00:00 | 00:00:00 | 00:00:00 | |
| PETON7-10 | 2026-08-30 12:11:48 | 47.38543 | 19.69525 | 135° | 15km/h | 19268m | 5.7m/s | -55.0°C | 4.0% | 66.0hPa | 2.7V | 00:00:00 | 00:00:00 | 00:00:00 | |
| GYPAP8-17 | 2026-08-30 12:11:45 | 47.38545 | 19.69524 | 181° | 5km/h | 19256m | 4.6m/s | -55.0°C | 1.1% | 66.1hPa | 2.7V | 00:00:00 | 00:00:00 | 00:00:00 | |
| PETON7-10 | 2026-08-30 12:11:33 | 47.38579 | 19.69456 | 127° | 16km/h | 19181m | 5.3m/s | -55.2°C | 4.1% | 66.9hPa | 2.7V | 00:00:00 | 01:16:49 | 00:00:00 | |
| PETON7-10 | 2026-08-30 12:11:18 | 47.38604 | 19.69375 | 60° | 15km/h | 19099m | 4.7m/s | -55.0°C | 4.0% | 67.7hPa | 2.7V | 00:00:00 | 00:00:00 | 08:30:00 | |
| PETON7-10 | 2026-08-30 12:11:04 | 47.38565 | 19.69309 | 41° | 18km/h | 19015m | 5.7m/s | -55.4°C | 4.2% | 68.6hPa | 2.6V | 00:00:00 | 00:00:00 | 00:00:00 | |
| PETON7-10 | 2026-08-30 12:10:48 | 47.38508 | 19.69264 | 5° | 13km/h | 18929m | 4.4m/s | -55.4°C | 4.2% | 69.6hPa | 2.6V | 00:00:00 | 01:16:04 | 00:00:00 | |
| GYPAP8-17 | 2026-08-30 12:10:41 | 47.38481 | 19.69269 | 339° | 16km/h | 18893m | 7.7m/s | -55.5°C | 1.1% | 70.0hPa | 2.6V | 00:00:00 | 00:00:00 | 00:00:00 | |
| PETON7-10 | 2026-08-30 12:10:33 | 47.38462 | 19.69275 | 6° | 9km/h | 18837m | 5.8m/s | -55.1°C | 4.1% | 70.5hPa | 2.6V | 00:00:00 | 00:00:00 | 00:00:00 | |
| OE3JTB-15 | 2026-08-30 12:10:26 | 47.38440 | 19.69278 | 5° | 16km/h | 18791m | 5.8m/s | -55.1°C | 4.1% | 71.1hPa | 2.6V | 00:00:00 | 00:00:00 | 00:00:00 | |
| PETON7-10 | 2026-08-30 12:10:18 | 47.38432 | 19.69270 | 55° | 15km/h | 18752m | 6.6m/s | -55.7°C | 4.2% | 71.5hPa | 2.7V | 00:00:00 | 00:00:00 | 00:00:00 | |
| PETON7-10 | 2026-08-30 12:10:03 | 47.38428 | 19.69189 | 46° | 18km/h | 18666m | 6.9m/s | -55.7°C | 4.2% | 72.5hPa | 2.7V | 00:00:00 | 01:15:19 | 00:00:00 | |
| OE3JTB-15 | 2026-08-30 12:09:52 | 47.38408 | 19.69116 | 79° | 38km/h | 18603m | 7.2m/s | -56.1°C | 4.4% | 73.3hPa | 2.7V | 00:00:00 | 00:00:00 | 00:00:00 | |
| PETON7-10 | 2026-08-30 12:09:48 | 47.38400 | 19.69094 | 42° | 16km/h | 18579m | 5.8m/s | -56.0°C | 4.4% | 73.5hPa | 2.7V | 00:00:00 | 00:00:00 | 00:00:00 | |
| PETON7-10 | 2026-08-30 12:09:33 | 47.38355 | 19.69036 | 32° | 16km/h | 18490m | 6.2m/s | -55.4°C | 4.1% | 74.6hPa | 2.6V | 00:00:00 | 00:00:00 | 00:00:00 | |
| GYPAP8-17 | 2026-08-30 12:09:26 | 47.38337 | 19.69011 | 54° | 16km/h | 18455m | 5.4m/s | -56.0°C | 1.2% | 75.1hPa | 2.6V | 00:00:00 | 00:00:00 | 00:00:00 | |
| PETON7-10 | 2026-08-30 12:09:18 | 47.38323 | 19.68958 | 75° | 9km/h | 18402m | 5.7m/s | -56.1°C | 4.3% | 75.6hPa | 2.6V | 00:00:00 | 01:14:34 | 00:00:00 | |
| PETON7-10 | 2026-08-30 12:09:03 | 47.38306 | 19.68922 | 360° | 13km/h | 18314m | 6.1m/s | -56.2°C | 4.5% | 76.7hPa | 2.6V | 00:00:00 | 00:00:00 | 08:30:00 | |
| PETON7-10 | 2026-08-30 12:08:48 | 47.38257 | 19.68934 | 334° | 9km/h | 18231m | 6.2m/s | -55.8°C | 4.3% | 77.7hPa | 2.6V | 00:00:00 | 00:00:00 | 00:00:00 | |
| PETON7-10 | 2026-08-30 12:08:32 | 47.38230 | 19.68958 | 294° | 11km/h | 18136m | 7.7m/s | -55.4°C | 4.2% | 78.9hPa | 2.6V | 00:00:00 | 01:13:48 | 00:00:00 | |
| GYPAP8-17 | 2026-08-30 12:08:19 | 47.38212 | 19.68984 | 119° | 5km/h | 18055m | 7.4m/s | -55.6°C | 1.3% | 79.9hPa | 2.6V | 00:00:00 | 00:00:00 | 00:00:00 | |
| PETON7-10 | 2026-08-30 12:08:17 | 47.38212 | 19.68978 | 76° | 13km/h | 18036m | 5.2m/s | -55.4°C | 4.2% | 80.1hPa | 2.6V | 00:00:00 | 00:00:00 | 00:00:00 | |
| PETON7-10 | 2026-08-30 12:08:02 | 47.38230 | 19.68918 | 89° | 15km/h | 17939m | 5.6m/s | -55.6°C | 4.3% | 81.3hPa | 2.6V | 00:00:00 | 00:00:00 | 00:00:00 | |
| PETON7-10 | 2026-08-30 12:07:47 | 47.38244 | 19.68836 | 114° | 22km/h | 17843m | 4.5m/s | -55.6°C | 4.2% | 82.6hPa | 2.6V | 00:00:00 | 01:13:03 | 00:00:00 | |
| PETON7-10 | 2026-08-30 12:07:32 | 47.38262 | 19.68723 | 83° | 22km/h | 17751m | 9.6m/s | -56.4°C | 4.6% | 83.8hPa | 2.6V | 00:00:00 | 00:00:00 | 00:00:00 | |
| PETON7-10 | 2026-08-30 12:07:17 | 47.38250 | 19.68599 | 83° | 26km/h | 17656m | 4.1m/s | -56.1°C | 4.3% | 85.1hPa | 2.6V | 00:00:00 | 00:00:00 | 00:00:00 | |
| GYPAP8-17 | 2026-08-30 12:07:07 | 47.38256 | 19.68513 | 95° | 29km/h | 17595m | 7.3m/s | -56.4°C | 1.4% | 85.9hPa | 2.6V | 00:00:00 | 00:00:00 | 00:00:00 | |
| PETON7-10 | 2026-08-30 12:07:02 | 47.38261 | 19.68453 | 97° | 31km/h | 17560m | 6.6m/s | -56.6°C | 4.3% | 86.4hPa | 2.6V | 00:00:00 | 01:12:18 | 00:00:00 | |
| PETON7-10 | 2026-08-30 12:06:47 | 47.38240 | 19.68286 | 72° | 27km/h | 17465m | 10.6m/s | -57.6°C | 5.0% | 87.7hPa | 2.6V | 00:00:00 | 00:00:00 | 08:30:00 | |
| PETON7-10 | 2026-08-30 12:06:32 | 47.38195 | 19.68158 | 59° | 22km/h | 17371m | 5.7m/s | -57.1°C | 4.8% | 89.0hPa | 2.6V | 00:00:00 | 00:00:00 | 00:00:00 | |
| PETON7-10 | 2026-08-30 12:06:17 | 47.38179 | 19.68042 | 75° | 24km/h | 17265m | 4.6m/s | -56.5°C | 4.5% | 90.5hPa | 2.6V | 00:00:00 | 01:11:33 | 00:00:00 | |
| GYPAP8-17 | 2026-08-30 12:06:04 | 47.38184 | 19.67935 | 84° | 27km/h | 17188m | 6.8m/s | -56.7°C | 1.5% | 91.6hPa | 2.6V | 00:00:00 | 00:00:00 | 00:00:00 | |
| PETON7-10 | 2026-08-30 12:06:02 | 47.38178 | 19.67910 | 63° | 24km/h | 17169m | 9.3m/s | -56.7°C | 4.7% | 91.9hPa | 2.6V | 00:00:00 | 00:00:00 | 00:00:00 | |
| PETON7-10 | 2026-08-30 12:05:47 | 47.38145 | 19.67788 | 46° | 31km/h | 17071m | 4.8m/s | -56.1°C | 4.5% | 93.3hPa | 2.7V | 00:00:00 | 00:00:00 | 00:00:00 | |
| PETON7-10 | 2026-08-30 12:05:32 | 47.38072 | 19.67653 | 47° | 26km/h | 16978m | 6.5m/s | -56.3°C | 4.6% | 94.7hPa | 2.7V | 00:00:00 | 01:10:48 | 00:00:00 | |
| PETON7-10 | 2026-08-30 12:05:17 | 47.38018 | 19.67536 | 58° | 18km/h | 16891m | 6.0m/s | -56.1°C | 4.5% | 95.9hPa | 2.7V | 00:00:00 | 00:00:00 | 00:00:00 | |
| PETON7-10 | 2026-08-30 12:05:02 | 47.38006 | 19.67435 | 85° | 26km/h | 16809m | 5.3m/s | -56.0°C | 4.4% | 97.2hPa | 2.6V | 00:00:00 | 00:00:00 | 00:00:00 | |
| PETON7-10 | 2026-08-30 12:04:47 | 47.38022 | 19.67298 | 96° | 31km/h | 16729m | 6.8m/s | -56.2°C | 4.6% | 98.4hPa | 2.6V | 00:00:00 | 01:10:03 | 00:00:00 | |
| PETON7-10 | 2026-08-30 12:04:32 | 47.38025 | 19.67125 | 81° | 27km/h | 16648m | 5.6m/s | -55.9°C | 4.6% | 99.7hPa | 2.6V | 00:00:00 | 00:00:00 | 08:30:00 | |
| PETON7-10 | 2026-08-30 12:04:17 | 47.38012 | 19.66975 | 76° | 20km/h | 16568m | 5.8m/s | -55.5°C | 4.5% | 101.0hPa | 2.6V | 00:00:00 | 00:00:00 | 00:00:00 | |
| ATIDSZ-14 | 2026-08-30 12:04:05 | 47.37999 | 19.66891 | 76° | 18km/h | 16510m | 5.2m/s | -55.6°C | 1.6% | 102.0hPa | 2.6V | 00:00:00 | 00:00:00 | 00:00:00 | |
| PETON7-10 | 2026-08-30 12:04:02 | 47.37995 | 19.66869 | 83° | 22km/h | 16491m | 3.6m/s | -55.5°C | 4.4% | 102.3hPa | 2.6V | 00:00:00 | 01:09:18 | 00:00:00 | |
| GYPAP8-17 | 2026-08-30 12:03:59 | 47.37995 | 19.66855 | 96° | 24km/h | 16480m | 5.7m/s | -55.6°C | 1.5% | 102.5hPa | 2.6V | 00:00:00 | 00:00:00 | 00:00:00 | |
| PETON7-10 | 2026-08-30 12:03:47 | 47.38020 | 19.66750 | 109° | 29km/h | 16410m | 5.2m/s | -55.8°C | 4.6% | 103.6hPa | 2.6V | 00:00:00 | 00:00:00 | 00:00:00 | |
| ATIDSZ-14 | 2026-08-30 12:03:44 | 47.38023 | 19.66732 | 101° | 27km/h | 16400m | 7.0m/s | -56.0°C | 1.6% | 103.7hPa | 2.7V | 00:00:00 | 00:00:00 | 00:00:00 | |
| PETON7-10 | 2026-08-30 12:03:33 | 47.38064 | 19.66597 | 113° | 38km/h | 16335m | 4.5m/s | -56.4°C | 4.9% | 104.8hPa | 2.7V | 00:00:00 | 00:00:00 | 00:00:00 | |
| ATIDSZ-14 | 2026-08-30 12:03:24 | 47.38081 | 19.66501 | 103° | 37km/h | 16297m | 5.7m/s | -56.3°C | 1.8% | 105.5hPa | 2.7V | 00:00:00 | 00:00:00 | 00:00:00 | |
| PETON7-10 | 2026-08-30 12:03:17 | 47.38090 | 19.66381 | 97° | 40km/h | 16252m | 4.9m/s | -56.2°C | 4.8% | 106.2hPa | 2.7V | 00:00:00 | 01:08:33 | 00:00:00 | |
| ATIDSZ-14 | 2026-08-30 12:03:04 | 47.38090 | 19.66203 | 84° | 42km/h | 16183m | 9.6m/s | -56.7°C | 1.8% | 107.3hPa | 2.7V | 00:00:00 | 00:00:00 | 00:00:00 | |
| PETON7-10 | 2026-08-30 12:03:02 | 47.38085 | 19.66153 | 82° | 53km/h | 16166m | 4.3m/s | -57.0°C | 5.0% | 107.6hPa | 2.7V | 00:00:00 | 00:00:00 | 00:00:00 | |
| GYPAP8-17 | 2026-08-30 12:02:51 | 47.38057 | 19.65947 | 76° | 55km/h | 16103m | 9.1m/s | -57.8°C | 2.0% | 108.8hPa | 2.7V | 00:00:00 | 00:00:00 | 00:00:00 | |
| PETON7-10 | 2026-08-30 12:02:45 | 47.38029 | 19.65823 | 71° | 40km/h | 16054m | 5.0m/s | -57.6°C | 5.4% | 109.5hPa | 2.7V | 00:00:00 | 00:00:00 | 00:00:00 | |
| ATIDSZ-14 | 2026-08-30 12:02:43 | 47.38025 | 19.65808 | 73° | 42km/h | 16048m | 7.6m/s | -57.7°C | 2.1% | 109.6hPa | 2.7V | 00:00:00 | 00:00:00 | 00:00:00 | |
| PETON7-10 | 2026-08-30 12:02:30 | 47.37983 | 19.65606 | 58° | 31km/h | 15958m | 6.1m/s | -57.1°C | 5.2% | 111.2hPa | 2.7V | 00:00:00 | 01:07:46 | 00:00:00 | |
| ATIDSZ-14 | 2026-08-30 12:02:20 | 47.37964 | 19.65511 | 76° | 27km/h | 15908m | 4.9m/s | -57.0°C | 2.2% | 112.2hPa | 2.7V | 00:00:00 | 00:00:00 | 00:00:00 | |
| PETON7-10 | 2026-08-30 12:02:15 | 47.37952 | 19.65443 | 76° | 26km/h | 15873m | 5.2m/s | -57.0°C | 5.2% | 112.7hPa | 2.7V | 00:00:00 | 00:00:00 | 08:30:00 | |
| PETON7-10 | 2026-08-30 12:02:00 | 47.37939 | 19.65305 | 103° | 22km/h | 15780m | 6.7m/s | -57.8°C | 5.8% | 114.5hPa | 2.7V | 00:00:00 | 00:00:00 | 00:00:00 | |
| ATIDSZ-14 | 2026-08-30 12:01:58 | 47.37941 | 19.65296 | 111° | 24km/h | 15775m | 4.8m/s | -57.7°C | 2.4% | 114.7hPa | 2.7V | 00:00:00 | 00:00:00 | 00:00:00 | |
| GYPAP8-17 | 2026-08-30 12:01:47 | 47.37944 | 19.65210 | 120° | 24km/h | 15696m | 5.3m/s | -58.1°C | 2.5% | 116.0hPa | 2.7V | 00:00:00 | 00:00:00 | 00:00:00 | |
| PETON7-10 | 2026-08-30 12:01:45 | 47.37954 | 19.65186 | 125° | 35km/h | 15676m | 7.1m/s | -57.9°C | 6.0% | 116.3hPa | 2.7V | 00:00:00 | 01:07:01 | 00:00:00 | |
| ATIDSZ-14 | 2026-08-30 12:01:38 | 47.37969 | 19.65124 | 101° | 38km/h | 15636m | 7.3m/s | -57.6°C | 2.4% | 117.1hPa | 2.7V | 00:00:00 | 00:00:00 | 00:00:00 | |
| PETON7-10 | 2026-08-30 12:01:30 | 47.38001 | 19.65007 | 116° | 40km/h | 15576m | 5.1m/s | -57.1°C | 5.7% | 118.1hPa | 2.7V | 00:00:00 | 00:00:00 | 00:00:00 | |
| ATIDSZ-14 | 2026-08-30 12:01:18 | 47.38043 | 19.64861 | 122° | 42km/h | 15510m | 6.8m/s | -57.0°C | 2.4% | 119.4hPa | 2.7V | 00:00:00 | 00:00:00 | 00:00:00 | |
| PETON7-10 | 2026-08-30 12:01:15 | 47.38066 | 19.64807 | 119° | 49km/h | 15487m | 4.7m/s | -57.2°C | 5.8% | 119.8hPa | 2.7V | 00:00:00 | 00:00:00 | 00:00:00 | |
| PETON7-10 | 2026-08-30 12:01:00 | 47.38140 | 19.64553 | 110° | 60km/h | 15405m | 4.3m/s | -57.6°C | 6.1% | 121.4hPa | 2.7V | 00:00:00 | 01:06:16 | 00:00:00 | |
| ATIDSZ-14 | 2026-08-30 12:00:54 | 47.38168 | 19.64444 | 108° | 68km/h | 15378m | 5.2m/s | -57.6°C | 2.9% | 121.9hPa | 2.7V | 00:00:00 | 00:00:00 | 00:00:00 | |
| PETON7-10 | 2026-08-30 12:00:45 | 47.38207 | 19.64234 | 104° | 57km/h | 15324m | 4.1m/s | -57.3°C | 6.1% | 122.9hPa | 2.7V | 00:00:00 | 00:00:00 | 00:00:00 | |
| GYPAP8-17 | 2026-08-30 12:00:41 | 47.38223 | 19.64143 | 109° | 64km/h | 15300m | 8.9m/s | -57.3°C | 2.9% | 123.4hPa | 2.7V | 00:00:00 | 00:00:00 | 00:00:00 | |
| ATIDSZ-14 | 2026-08-30 12:00:34 | 47.38248 | 19.64033 | 110° | 51km/h | 15261m | 5.9m/s | -57.3°C | 3.1% | 124.1hPa | 2.7V | 00:00:00 | 00:00:00 | 00:00:00 | |
| PETON7-10 | 2026-08-30 12:00:30 | 47.38267 | 19.63932 | 106° | 53km/h | 15232m | 7.1m/s | -57.2°C | 6.2% | 124.7hPa | 2.7V | 00:00:00 | 00:00:00 | 00:00:00 | |
| PETON7-10 | 2026-08-30 12:00:17 | 47.38297 | 19.63650 | 96° | 47km/h | 15137m | 6.0m/s | -57.8°C | 7.2% | 126.6hPa | 2.7V | 00:00:00 | 01:05:31 | 00:00:00 | |
| ATIDSZ-14 | 2026-08-30 12:00:13 | 47.38297 | 19.63632 | 93° | 47km/h | 15131m | 7.0m/s | -57.9°C | 3.5% | 126.8hPa | 2.7V | 00:00:00 | 00:00:00 | 00:00:00 | |
| PETON7-10 | 2026-08-30 12:00:00 | 47.38296 | 19.63388 | 75° | 47km/h | 15051m | 8.5m/s | -57.5°C | 6.9% | 128.5hPa | 2.7V | 00:00:00 | 00:00:00 | 08:30:00 | |
| OE3JTB-15 | 2026-08-30 11:59:52 | 47.38276 | 19.63244 | 89° | 44km/h | 15007m | 5.3m/s | -57.3°C | 6.7% | 129.4hPa | 2.7V | 00:00:00 | 01:05:08 | 00:00:00 | |
| PETON7-10 | 2026-08-30 11:59:45 | 47.38268 | 19.63126 | 74° | 42km/h | 14970m | 5.7m/s | -57.2°C | 7.0% | 130.2hPa | 2.7V | 00:00:00 | 00:00:00 | 00:00:00 | |
| ATIDSZ-14 | 2026-08-30 11:59:32 | 47.38254 | 19.62940 | 79° | 42km/h | 14907m | 4.3m/s | -57.1°C | 3.4% | 131.5hPa | 2.7V | 00:00:00 | 00:00:00 | 00:00:00 | |
| PETON7-10 | 2026-08-30 11:59:30 | 47.38244 | 19.62898 | 66° | 40km/h | 14891m | 5.4m/s | -57.0°C | 6.7% | 131.7hPa | 2.7V | 00:00:00 | 01:04:46 | 00:00:00 | |
| OE3JTB-15 | 2026-08-30 11:59:23 | 47.38221 | 19.62794 | 74° | 38km/h | 14856m | 4.9m/s | -56.8°C | 6.8% | 132.5hPa | 2.7V | 00:00:00 | 00:00:00 | 00:00:00 | |
| PETON7-10 | 2026-08-30 11:59:15 | 47.38204 | 19.62678 | 75° | 40km/h | 14816m | 3.9m/s | -57.5°C | 7.0% | 133.4hPa | 2.7V | 00:00:00 | 00:00:00 | 00:00:00 | |
| ATIDSZ-14 | 2026-08-30 11:59:11 | 47.38192 | 19.62633 | 66° | 44km/h | 14802m | 4.6m/s | -57.5°C | 3.6% | 133.7hPa | 2.7V | 00:00:00 | 00:00:00 | 00:00:00 | |
| PETON7-10 | 2026-08-30 11:58:59 | 47.38154 | 19.62456 | 73° | 35km/h | 14736m | 4.5m/s | -57.8°C | 7.5% | 135.1hPa | 2.7V | 00:00:00 | 00:00:00 | 00:00:00 | |
| OE3JTB-15 | 2026-08-30 11:58:53 | 47.38131 | 19.62386 | 58° | 37km/h | 14702m | 6.9m/s | -57.9°C | 7.6% | 135.8hPa | 2.7V | 00:00:00 | 00:00:00 | 00:00:00 | |
| ATIDSZ-14 | 2026-08-30 11:58:49 | 47.38121 | 19.62358 | 71° | 27km/h | 14687m | 4.8m/s | -57.8°C | 4.2% | 136.2hPa | 2.7V | 00:00:00 | 00:00:00 | 00:00:00 | |
| PETON7-10 | 2026-08-30 11:58:44 | 47.38109 | 19.62274 | 88° | 31km/h | 14653m | 4.5m/s | -57.7°C | 8.1% | 136.9hPa | 2.7V | 00:00:00 | 01:04:00 | 00:00:00 | |
| GYPAP8-17 | 2026-08-30 11:58:30 | 47.38105 | 19.62150 | 102° | 44km/h | 14565m | 7.1m/s | -57.6°C | 4.1% | 138.8hPa | 2.7V | 00:00:00 | 00:00:00 | 00:00:00 | |
| PETON7-10 | 2026-08-30 11:58:29 | 47.38108 | 19.62116 | 97° | 37km/h | 14546m | 8.1m/s | -57.5°C | 7.8% | 139.2hPa | 2.7V | 00:00:00 | 00:00:00 | 00:00:00 | |
| ATIDSZ-14 | 2026-08-30 11:58:28 | 47.38108 | 19.62116 | 97° | 47km/h | 14546m | 8.2m/s | -57.5°C | 4.2% | 139.2hPa | 2.7V | 00:00:00 | 00:00:00 | 00:00:00 | |
| OE3JTB-15 | 2026-08-30 11:58:21 | 47.38132 | 19.62010 | 117° | 46km/h | 14491m | 6.8m/s | -57.2°C | 8.2% | 140.4hPa | 2.7V | 00:00:00 | 01:03:37 | 00:00:00 | |
| PETON7-10 | 2026-08-30 11:58:14 | 47.38140 | 19.61918 | 120° | 44km/h | 14448m | 7.0m/s | -57.1°C | 8.3% | 141.3hPa | 2.7V | 00:00:00 | 00:00:00 | 00:00:00 | |
| ATIDSZ-14 | 2026-08-30 11:58:08 | 47.38187 | 19.61862 | 149° | 35km/h | 14415m | 4.5m/s | -56.8°C | 4.4% | 142.1hPa | 2.7V | 00:00:00 | 00:00:00 | 00:00:00 | |
| PETON7-10 | 2026-08-30 11:57:59 | 47.38236 | 19.61732 | 129° | 55km/h | 14334m | 4.7m/s | -56.5°C | 8.1% | 143.9hPa | 2.7V | 00:00:00 | 01:03:15 | 00:00:00 | |
| ATIDSZ-14 | 2026-08-30 11:57:45 | 47.38305 | 19.61490 | 106° | 57km/h | 14244m | 4.9m/s | -56.7°C | 5.0% | 146.0hPa | 2.7V | 00:00:00 | 00:00:00 | 00:00:00 | |
| PETON7-10 | 2026-08-30 11:57:44 | 47.38312 | 19.61447 | 105° | 58km/h | 14229m | 6.7m/s | -56.7°C | 8.6% | 146.2hPa | 2.7V | 00:00:00 | 00:00:00 | 08:30:00 | |
| PETON7-10 | 2026-08-30 11:57:29 | 47.38369 | 19.61131 | 105° | 60km/h | 14135m | 9.7m/s | -56.0°C | 8.8% | 148.5hPa | 2.7V | 00:00:00 | 00:00:00 | 00:00:00 | |
| ATIDSZ-14 | 2026-08-30 11:57:25 | 47.38377 | 19.61064 | 97° | 60km/h | 14118m | 7.9m/s | -56.1°C | 5.0% | 148.9hPa | 2.7V | 00:00:00 | 00:00:00 | 00:00:00 | |
| OE3JTB-15 | 2026-08-30 11:57:23 | 47.38380 | 19.60998 | 97° | 64km/h | 14102m | 4.4m/s | -55.9°C | 8.5% | 149.4hPa | 2.7V | 00:00:00 | 00:00:00 | 00:00:00 | |
| GYPAP8-17 | 2026-08-30 11:57:20 | 47.38386 | 19.60953 | 105° | 60km/h | 14086m | 5.4m/s | -55.9°C | 4.9% | 149.7hPa | 2.7V | 00:00:00 | 00:00:00 | 00:00:00 | |
| PETON7-10 | 2026-08-30 11:57:14 | 47.38395 | 19.60799 | 85° | 66km/h | 14041m | 5.0m/s | -55.8°C | 8.2% | 150.8hPa | 2.7V | 00:00:00 | 01:02:30 | 00:00:00 | |
| ATIDSZ-14 | 2026-08-30 11:57:05 | 47.38406 | 19.60618 | 104° | 62km/h | 13986m | 7.3m/s | -55.6°C | 5.0% | 152.1hPa | 2.7V | 00:00:00 | 00:00:00 | 00:00:00 | |
| PETON7-10 | 2026-08-30 11:56:59 | 47.38425 | 19.60438 | 98° | 66km/h | 13941m | 9.0m/s | -55.8°C | 8.6% | 153.1hPa | 2.7V | 00:00:00 | 00:00:00 | 00:00:00 | |
| OE3JTB-15 | 2026-08-30 11:56:54 | 47.38443 | 19.60310 | 103° | 60km/h | 13911m | 3.5m/s | -55.7°C | 8.7% | 153.9hPa | 2.7V | 00:00:00 | 01:02:10 | 00:00:00 | |
| PETON7-10 | 2026-08-30 11:56:44 | 47.38464 | 19.60070 | 96° | 58km/h | 13842m | 5.9m/s | -55.5°C | 8.8% | 155.4hPa | 2.7V | 00:00:00 | 00:00:00 | 00:00:00 | |
| PETON7-10 | 2026-08-30 11:56:29 | 47.38493 | 19.59752 | 92° | 62km/h | 13744m | 9.2m/s | -55.0°C | 8.5% | 157.9hPa | 2.7V | 00:00:00 | 01:01:45 | 00:00:00 | |
| OE3JTB-15 | 2026-08-30 11:56:25 | 47.38504 | 19.59658 | 106° | 66km/h | 13719m | 6.7m/s | -55.0°C | 8.6% | 158.5hPa | 2.7V | 00:00:00 | 00:00:00 | 00:00:00 | |
| ATIDSZ-14 | 2026-08-30 11:56:23 | 47.38508 | 19.59635 | 108° | 64km/h | 13712m | 6.9m/s | -55.0°C | 5.3% | 158.7hPa | 2.7V | 00:00:00 | 00:00:00 | 00:00:00 | |
| GYPAP8-17 | 2026-08-30 11:56:16 | 47.38531 | 19.59479 | 102° | 58km/h | 13671m | 5.8m/s | -55.1°C | 5.2% | 159.6hPa | 2.7V | 00:00:00 | 00:00:00 | 00:00:00 | |
| PETON7-10 | 2026-08-30 11:56:14 | 47.38543 | 19.59416 | 110° | 68km/h | 13649m | 6.0m/s | -55.0°C | 8.6% | 160.1hPa | 2.7V | 00:00:00 | 00:00:00 | 00:00:00 | |
| ATIDSZ-14 | 2026-08-30 11:56:01 | 47.38598 | 19.59122 | 111° | 68km/h | 13574m | 8.0m/s | -54.9°C | 5.1% | 162.1hPa | 2.7V | 00:00:00 | 00:00:00 | 00:00:00 | |
| PETON7-10 | 2026-08-30 11:55:59 | 47.38614 | 19.59047 | 107° | 80km/h | 13555m | 6.2m/s | -54.9°C | 8.5% | 162.6hPa | 2.7V | 00:00:00 | 00:00:00 | 00:00:00 | |
| OE3JTB-15 | 2026-08-30 11:55:56 | 47.38628 | 19.58968 | 102° | 80km/h | 13534m | 8.0m/s | -55.0°C | 8.8% | 163.1hPa | 2.7V | 00:00:00 | 00:00:00 | 00:00:00 | |
| PETON7-10 | 2026-08-30 11:55:44 | 47.38676 | 19.58606 | 98° | 80km/h | 13462m | 5.3m/s | -54.8°C | 8.0% | 165.1hPa | 2.7V | 00:00:00 | 01:01:00 | 00:00:00 | |
| ATIDSZ-14 | 2026-08-30 11:55:36 | 47.38687 | 19.58393 | 97° | 82km/h | 13422m | 4.7m/s | -55.4°C | 5.0% | 166.2hPa | 2.7V | 00:00:00 | 00:00:00 | 00:00:00 | |
| PETON7-10 | 2026-08-30 11:55:29 | 47.38706 | 19.58162 | 99° | 82km/h | 13383m | 4.4m/s | -55.5°C | 8.0% | 167.1hPa | 2.7V | 00:00:00 | 00:00:00 | 08:30:00 | |
| OE3JTB-15 | 2026-08-30 11:55:27 | 47.38711 | 19.58103 | 97° | 82km/h | 13371m | 4.5m/s | -55.4°C | 7.8% | 167.4hPa | 2.7V | 00:00:00 | 01:00:43 | 00:00:00 | |
| ATIDSZ-14 | 2026-08-30 11:55:16 | 47.38729 | 19.57799 | 92° | 77km/h | 13307m | 4.9m/s | -55.7°C | 4.6% | 169.2hPa | 2.7V | 00:00:00 | 00:00:00 | 00:00:00 | |
| PETON7-10 | 2026-08-30 11:55:14 | 47.38729 | 19.57705 | 89° | 82km/h | 13291m | 3.1m/s | -55.7°C | 8.0% | 169.6hPa | 2.7V | 00:00:00 | 00:00:00 | 00:00:00 | |
| GYPAP8-17 | 2026-08-30 11:55:04 | 47.38731 | 19.57427 | 89° | 78km/h | 13234m | 6.5m/s | -55.8°C | 4.7% | 171.1hPa | 2.7V | 00:00:00 | 00:00:00 | 00:00:00 | |
| PETON7-10 | 2026-08-30 11:54:59 | 47.38736 | 19.57246 | 94° | 78km/h | 13193m | 7.9m/s | 0°C | 0% | 0hPa | 2.7V | 00:00:00 | 01:00:15 | 00:00:00 | |
| OE3JTB-15 | 2026-08-30 11:54:58 | 47.38737 | 19.57214 | 92° | 82km/h | 13184m | 9.5m/s | -55.4°C | 8.1% | 172.4hPa | 2.7V | 00:00:00 | 00:00:00 | 00:00:00 | |
| ATIDSZ-14 | 2026-08-30 11:54:56 | 47.38737 | 19.57184 | 88° | 78km/h | 13177m | 6.5m/s | -55.4°C | 4.8% | 172.6hPa | 2.7V | 00:00:00 | 00:00:00 | 00:00:00 | |
| PETON7-10 | 2026-08-30 11:54:44 | 47.38742 | 19.56806 | 91° | 86km/h | 13095m | 6.1m/s | -54.8°C | 8.1% | 174.9hPa | 2.7V | 00:00:00 | 00:00:00 | 00:00:00 | |
| ATIDSZ-14 | 2026-08-30 11:54:36 | 47.38749 | 19.56571 | 92° | 80km/h | 13046m | 7.6m/s | -54.6°C | 5.1% | 176.4hPa | 2.7V | 00:00:00 | 00:00:00 | 00:00:00 | |
| PETON7-10 | 2026-08-30 11:54:29 | 47.38742 | 19.56326 | 92° | 80km/h | 12991m | 10.3m/s | -54.3°C | 8.4% | 177.8hPa | 2.7V | 00:00:00 | 00:00:00 | 00:00:00 | |
| PETON7-10 | 2026-08-30 11:54:14 | 47.38778 | 19.55875 | 95° | 91km/h | 12894m | 2.1m/s | -53.8°C | 9.2% | 180.6hPa | 2.7V | 00:00:00 | 00:59:30 | 00:00:00 | |
| GYPAP8-17 | 2026-08-30 11:54:01 | 47.38830 | 19.55484 | 97° | 93km/h | 12810m | 6.5m/s | -54.2°C | 7.0% | 183.0hPa | 2.7V | 00:00:00 | 00:00:00 | 00:00:00 | |
| OE3JTB-15 | 2026-08-30 11:54:00 | 47.38836 | 19.55413 | 98° | 95km/h | 12796m | 4.0m/s | -54.1°C | 10.5% | 183.4hPa | 2.7V | 00:00:00 | 00:59:16 | 00:00:00 | |
| PETON7-10 | 2026-08-30 11:53:59 | 47.38839 | 19.55379 | 99° | 95km/h | 12791m | 8.1m/s | -54.2°C | 10.4% | 183.6hPa | 2.7V | 00:00:00 | 00:00:00 | 00:00:00 | |
| ATIDSZ-14 | 2026-08-30 11:53:55 | 47.38855 | 19.55281 | 107° | 88km/h | 12772m | 6.3m/s | -54.4°C | 7.3% | 184.1hPa | 2.7V | 00:00:00 | 00:00:00 | 00:00:00 | |
| PETON7-10 | 2026-08-30 11:53:44 | 47.38908 | 19.54851 | 102° | 97km/h | 12692m | 8.9m/s | -54.6°C | 10.7% | 186.3hPa | 2.7V | 00:00:00 | 00:00:00 | 00:00:00 | |
| ATIDSZ-14 | 2026-08-30 11:53:34 | 47.38939 | 19.54537 | 101° | 102km/h | 12628m | 4.6m/s | -54.2°C | 7.2% | 188.2hPa | 2.7V | 00:00:00 | 00:00:00 | 00:00:00 | |
| OE3JTB-15 | 2026-08-30 11:53:31 | 47.38953 | 19.54391 | 93° | 93km/h | 12604m | 5.8m/s | -54.0°C | 10.4% | 188.9hPa | 2.7V | 00:00:00 | 00:00:00 | 08:30:00 | |
| PETON7-10 | 2026-08-30 11:53:29 | 47.38953 | 19.54318 | 88° | 99km/h | 12590m | 6.5m/s | -53.9°C | 10.2% | 189.3hPa | 2.7V | 00:00:00 | 00:58:45 | 00:00:00 | |
| PETON7-10 | 2026-08-30 11:53:14 | 47.38976 | 19.53770 | 92° | 91km/h | 12488m | 7.4m/s | -53.2°C | 9.6% | 192.3hPa | 2.7V | 00:00:00 | 00:00:00 | 08:30:00 | |
| PETON7-10 | 2026-08-30 11:52:59 | 47.38982 | 19.53262 | 95° | 88km/h | 12390m | 6.7m/s | -53.1°C | 9.8% | 195.3hPa | 2.7V | 00:00:00 | 00:00:00 | 00:00:00 | |
| GYPAP8-17 | 2026-08-30 11:52:58 | 47.38982 | 19.53262 | 95° | 88km/h | 12390m | 6.7m/s | -53.1°C | 6.6% | 195.4hPa | 2.7V | 00:00:00 | 00:00:00 | 00:00:00 | |
| ATIDSZ-14 | 2026-08-30 11:52:53 | 47.38985 | 19.53098 | 87° | 91km/h | 12354m | 7.7m/s | -53.0°C | 6.3% | 196.3hPa | 2.7V | 00:00:00 | 00:00:00 | 00:00:00 | |
| PETON7-10 | 2026-08-30 11:52:44 | 47.38990 | 19.52769 | 93° | 97km/h | 12279m | 5.9m/s | -53.1°C | 10.0% | 198.5hPa | 2.7V | 00:00:00 | 00:58:00 | 00:00:00 | |
| ATIDSZ-14 | 2026-08-30 11:52:33 | 47.39015 | 19.52412 | 104° | 93km/h | 12205m | 7.5m/s | -53.4°C | 7.6% | 200.8hPa | 2.7V | 00:00:00 | 00:00:00 | 00:00:00 | |
| PETON7-10 | 2026-08-30 11:52:29 | 47.39032 | 19.52234 | 94° | 93km/h | 12175m | 8.5m/s | -53.3°C | 11.3% | 201.7hPa | 2.7V | 00:00:00 | 00:00:00 | 00:00:00 | |
| OE3JTB-15 | 2026-08-30 11:52:21 | 47.39052 | 19.51929 | 91° | 104km/h | 12116m | 8.8m/s | -53.2°C | 11.4% | 203.4hPa | 2.7V | 00:00:00 | 00:00:00 | 00:00:00 | |
| PETON7-10 | 2026-08-30 11:52:14 | 47.39060 | 19.51712 | 96° | 95km/h | 12077m | 6.1m/s | -52.9°C | 11.8% | 204.7hPa | 2.7V | 00:00:00 | 00:00:00 | 00:00:00 | |
| ATIDSZ-14 | 2026-08-30 11:52:13 | 47.39060 | 19.51712 | 97° | 93km/h | 12077m | 6.2m/s | -52.9°C | 8.4% | 204.8hPa | 2.7V | 00:00:00 | 00:00:00 | 00:00:00 | |
| PETON7-10 | 2026-08-30 11:51:59 | 47.39117 | 19.51193 | 95° | 97km/h | 11985m | 7.0m/s | -52.4°C | 12.7% | 207.6hPa | 2.7V | 00:00:00 | 00:57:15 | 00:00:00 | |
| GYPAP8-17 | 2026-08-30 11:51:55 | 47.39128 | 19.51085 | 103° | 99km/h | 11967m | 6.8m/s | -52.5°C | 0% | 208.1hPa | 2.7V | 00:00:00 | 00:00:00 | 00:00:00 | |
| ATIDSZ-14 | 2026-08-30 11:51:51 | 47.39143 | 19.50943 | 100° | 95km/h | 11938m | 5.4m/s | -52.6°C | 10.2% | 209.1hPa | 2.7V | 00:00:00 | 00:00:00 | 00:00:00 | |
| PETON7-10 | 2026-08-30 11:51:44 | 47.39174 | 19.50662 | 103° | 91km/h | 11896m | 8.9m/s | -52.6°C | 14.6% | 210.8hPa | 2.7V | 00:00:00 | 00:00:00 | 00:00:00 | |
| ATIDSZ-14 | 2026-08-30 11:51:31 | 47.39241 | 19.50265 | 102° | 89km/h | 11818m | 6.1m/s | -52.7°C | 12.7% | 213.4hPa | 2.7V | 00:00:00 | 00:00:00 | 00:00:00 | |
| PETON7-10 | 2026-08-30 11:51:29 | 47.39250 | 19.50166 | 99° | 91km/h | 11802m | 7.6m/s | -52.7°C | 17.0% | 213.9hPa | 2.7V | 00:00:00 | 00:00:00 | 00:00:00 | |
| PETON7-10 | 2026-08-30 11:51:14 | 47.39309 | 19.49662 | 106° | 100km/h | 11712m | 4.2m/s | -52.4°C | 18.9% | 216.9hPa | 2.7V | 00:00:00 | 00:56:30 | 00:00:00 | |
| ATIDSZ-14 | 2026-08-30 11:51:10 | 47.39330 | 19.49558 | 108° | 100km/h | 11692m | 9.3m/s | -52.4°C | 15.4% | 217.7hPa | 2.7V | 00:00:00 | 00:00:00 | 00:00:00 | |
| PETON7-10 | 2026-08-30 11:50:59 | 47.39404 | 19.49125 | 108° | 111km/h | 11623m | 4.6m/s | -52.5°C | 20.6% | 219.9hPa | 2.7V | 00:00:00 | 00:00:00 | 08:30:00 | |
| GYPAP8-17 | 2026-08-30 11:50:54 | 47.39444 | 19.48942 | 108° | 106km/h | 11594m | 5.6m/s | -52.4°C | 0% | 220.8hPa | 2.9V | 00:00:00 | 00:00:00 | 00:00:00 | |
| ATIDSZ-14 | 2026-08-30 11:50:49 | 47.39466 | 19.48777 | 98° | 119km/h | 11569m | 8.0m/s | -52.4°C | 18.0% | 221.7hPa | 2.9V | 00:00:00 | 00:00:00 | 00:00:00 | |
| PETON7-10 | 2026-08-30 11:50:43 | 47.39495 | 19.48485 | 103° | 102km/h | 11529m | 8.1m/s | -52.5°C | 22.8% | 223.1hPa | 2.9V | 00:00:00 | 00:00:00 | 00:00:00 | |
| OE3JTB-15 | 2026-08-30 11:50:35 | 47.39534 | 19.48194 | 98° | 104km/h | 11475m | 9.1m/s | -52.4°C | 23.0% | 224.9hPa | 2.9V | 00:00:00 | 00:55:51 | 00:00:00 | |
| PETON7-10 | 2026-08-30 11:50:28 | 47.39542 | 19.47914 | 93° | 102km/h | 11426m | 5.4m/s | -52.0°C | 22.5% | 226.6hPa | 2.9V | 00:00:00 | 00:55:44 | 00:00:00 | |
| PETON7-10 | 2026-08-30 11:50:12 | 47.39568 | 19.47303 | 89° | 102km/h | 11336m | 8.3m/s | -51.9°C | 24.1% | 229.7hPa | 2.9V | 00:00:00 | 00:00:00 | 00:00:00 | |
| ATIDSZ-14 | 2026-08-30 11:50:07 | 47.39569 | 19.47145 | 97° | 108km/h | 11308m | 5.8m/s | -51.9°C | 20.5% | 230.7hPa | 2.7V | 00:00:00 | 00:00:00 | 00:00:00 | |
| GYPAP8-17 | 2026-08-30 11:49:49 | 47.39606 | 19.46483 | 96° | 99km/h | 11205m | 7.3m/s | -51.0°C | 0% | 234.6hPa | 2.7V | 00:00:00 | 00:00:00 | 00:00:00 | |
| ATIDSZ-14 | 2026-08-30 11:49:48 | 47.39605 | 19.46406 | 88° | 104km/h | 11195m | 5.7m/s | -50.9°C | 21.4% | 234.9hPa | 2.7V | 00:00:00 | 00:00:00 | 00:00:00 | |
| PETON7-10 | 2026-08-30 11:49:42 | 47.39610 | 19.46175 | 97° | 100km/h | 11161m | 6.6m/s | -50.7°C | 26.7% | 236.1hPa | 2.7V | 00:00:00 | 00:54:58 | 00:00:00 | |
| OE3JTB-15 | 2026-08-30 11:49:37 | 47.39613 | 19.46002 | 92° | 95km/h | 11131m | 8.6m/s | -50.7°C | 27.6% | 237.2hPa | 2.7V | 00:00:00 | 00:00:00 | 00:00:00 | |
| PETON7-10 | 2026-08-30 11:49:27 | 47.39665 | 19.45623 | 105° | 93km/h | 11072m | 5.2m/s | -50.7°C | 30.3% | 239.4hPa | 2.7V | 00:00:00 | 00:00:00 | 00:00:00 | |
| ATIDSZ-14 | 2026-08-30 11:49:26 | 47.39665 | 19.45623 | 105° | 97km/h | 11072m | 5.2m/s | -50.8°C | 25.4% | 239.4hPa | 2.7V | 00:00:00 | 00:00:00 | 00:00:00 | |
| PETON7-10 | 2026-08-30 11:49:12 | 47.39724 | 19.45109 | 102° | 99km/h | 10984m | 4.2m/s | -50.5°C | 32.5% | 242.6hPa | 2.7V | 00:00:00 | 00:00:00 | 00:00:00 | |
| ATIDSZ-14 | 2026-08-30 11:49:05 | 47.39756 | 19.44903 | 99° | 102km/h | 10941m | 6.6m/s | -50.5°C | 28.0% | 244.3hPa | 2.7V | 00:00:00 | 00:00:00 | 00:00:00 | |
| OE3JTB-15 | 2026-08-30 11:49:01 | 47.39767 | 19.44712 | 93° | 102km/h | 10909m | 5.9m/s | -50.2°C | 34.6% | 245.4hPa | 2.7V | 00:00:00 | 00:54:17 | 00:00:00 | |
| PETON7-10 | 2026-08-30 11:48:57 | 47.39775 | 19.44568 | 97° | 99km/h | 10890m | 4.0m/s | -50.0°C | 35.1% | 246.3hPa | 2.7V | 00:00:00 | 00:54:13 | 00:00:00 | |
| GYPAP8-17 | 2026-08-30 11:48:56 | 47.39775 | 19.44568 | 97° | 88km/h | 10890m | 4.0m/s | -50.1°C | 0% | 246.4hPa | 2.7V | 00:00:00 | 00:00:00 | 00:00:00 | |
| ATIDSZ-14 | 2026-08-30 11:48:44 | 47.39787 | 19.44119 | 94° | 93km/h | 10823m | 4.6m/s | -49.7°C | 27.8% | 248.8hPa | 2.7V | 00:00:00 | 00:00:00 | 00:00:00 | |
| PETON7-10 | 2026-08-30 11:48:27 | 47.39844 | 19.43488 | 98° | 93km/h | 10718m | 5.4m/s | -48.7°C | 29.3% | 252.6hPa | 2.7V | 00:00:00 | 00:00:00 | 00:00:00 | |
| OE3JTB-15 | 2026-08-30 11:48:25 | 47.39849 | 19.43417 | 94° | 91km/h | 10708m | 6.3m/s | -48.6°C | 28.4% | 253.0hPa | 2.7V | 00:00:00 | 00:00:00 | 00:00:00 | |
| ATIDSZ-14 | 2026-08-30 11:48:23 | 47.39849 | 19.43381 | 91° | 99km/h | 10702m | 6.1m/s | -48.6°C | 23.7% | 253.3hPa | 2.9V | 00:00:00 | 00:00:00 | 00:00:00 | |
| PETON7-10 | 2026-08-30 11:48:12 | 47.39868 | 19.42973 | 100° | 91km/h | 10627m | 4.6m/s | -48.1°C | 27.2% | 256.3hPa | 2.9V | 00:00:00 | 00:53:28 | 00:00:00 | |
| ATIDSZ-14 | 2026-08-30 11:48:02 | 47.39888 | 19.42664 | 107° | 93km/h | 10574m | 5.6m/s | -47.9°C | 22.1% | 258.3hPa | 2.9V | 00:00:00 | 00:00:00 | 00:00:00 | |
| PETON7-10 | 2026-08-30 11:47:57 | 47.39923 | 19.42482 | 92° | 89km/h | 10543m | 4.7m/s | -47.5°C | 25.9% | 259.5hPa | 2.9V | 00:00:00 | 00:00:00 | 00:00:00 | |
| OE3JTB-15 | 2026-08-30 11:47:56 | 47.39923 | 19.42452 | 90° | 89km/h | 10536m | 9.0m/s | -47.5°C | 25.9% | 259.8hPa | 2.9V | 00:00:00 | 00:00:00 | 00:00:00 | |
| GYPAP8-17 | 2026-08-30 11:47:53 | 47.39924 | 19.42387 | 98° | 91km/h | 10522m | 5.6m/s | -47.4°C | 0% | 260.4hPa | 2.9V | 00:00:00 | 00:00:00 | 00:00:00 | |
| PETON7-10 | 2026-08-30 11:47:43 | 47.39997 | 19.41999 | 101° | 88km/h | 10439m | 10.7m/s | -46.7°C | 24.5% | 263.5hPa | 2.9V | 00:00:00 | 00:00:00 | 00:00:00 | |
| ATIDSZ-14 | 2026-08-30 11:47:41 | 47.39997 | 19.41999 | 101° | 78km/h | 10439m | 10.8m/s | -46.8°C | 20.7% | 263.5hPa | 2.9V | 00:00:00 | 00:00:00 | 00:00:00 | |
| PETON7-10 | 2026-08-30 11:47:27 | 47.40055 | 19.41513 | 91° | 89km/h | 10325m | 5.6m/s | -45.7°C | 23.8% | 267.8hPa | 2.9V | 00:00:00 | 00:52:43 | 00:00:00 | |
| ATIDSZ-14 | 2026-08-30 11:47:21 | 47.40075 | 19.41347 | 108° | 88km/h | 10296m | 10.6m/s | -45.6°C | 19.4% | 269.1hPa | 2.9V | 00:00:00 | 00:00:00 | 00:00:00 | |
| PETON7-10 | 2026-08-30 11:47:12 | 47.40127 | 19.41032 | 99° | 88km/h | 10228m | 4.8m/s | -44.8°C | 22.2% | 271.9hPa | 2.9V | 00:00:00 | 00:00:00 | 00:00:00 | |
| ATIDSZ-14 | 2026-08-30 11:47:00 | 47.40190 | 19.40667 | 104° | 82km/h | 10154m | 5.5m/s | -44.3°C | 18.3% | 274.8hPa | 2.9V | 00:00:00 | 00:00:00 | 00:00:00 | |
| PETON7-10 | 2026-08-30 11:46:57 | 47.40213 | 19.40557 | 110° | 82km/h | 10132m | 2.6m/s | -44.0°C | 21.9% | 275.8hPa | 2.9V | 00:00:00 | 00:00:00 | 00:00:00 | |
| PETON7-10 | 2026-08-30 11:46:42 | 47.40308 | 19.40116 | 112° | 82km/h | 10039m | 5.3m/s | -43.3°C | 20.3% | 279.7hPa | 2.9V | 00:00:00 | 00:51:58 | 00:00:00 | |
| GYPAP8-17 | 2026-08-30 11:46:40 | 47.40324 | 19.40059 | 113° | 84km/h | 10026m | 7.9m/s | 0°C | 0% | 280.4hPa | 2.9V | 00:00:00 | 00:00:00 | 00:00:00 | |
| PETON7-10 | 2026-08-30 11:46:27 | 47.40399 | 19.39682 | 98° | 82km/h | 9949m | 5.0m/s | -42.5°C | 18.8% | 283.4hPa | 2.9V | 00:00:00 | 00:00:00 | 08:30:00 | |
| ATIDSZ-14 | 2026-08-30 11:46:19 | 47.40432 | 19.39460 | 111° | 95km/h | 9906m | 4.7m/s | -42.2°C | 15.6% | 285.2hPa | 2.9V | 00:00:00 | 00:00:00 | 00:00:00 | |
| PETON7-10 | 2026-08-30 11:46:12 | 47.40473 | 19.39236 | 97° | 86km/h | 9850m | 8.7m/s | -41.6°C | 16.9% | 287.5hPa | 2.9V | 00:00:00 | 00:00:00 | 00:00:00 | |
| ATIDSZ-14 | 2026-08-30 11:45:58 | 47.40552 | 19.38836 | 110° | 84km/h | 9764m | 5.4m/s | -40.9°C | 15.1% | 291.1hPa | 2.9V | 00:00:00 | 00:00:00 | 00:00:00 | |
| PETON7-10 | 2026-08-30 11:45:57 | 47.40567 | 19.38774 | 109° | 89km/h | 9745m | 6.2m/s | -40.7°C | 18.4% | 291.7hPa | 2.9V | 00:00:00 | 00:51:13 | 00:00:00 | |
| PETON7-10 | 2026-08-30 11:45:42 | 47.40654 | 19.38296 | 107° | 78km/h | 9655m | 5.0m/s | -40.3°C | 26.3% | 296.1hPa | 2.9V | 00:00:00 | 00:00:00 | 00:00:00 | |
| OE3JTB-15 | 2026-08-30 11:45:41 | 47.40659 | 19.38268 | 103° | 82km/h | 9650m | 5.6m/s | -40.3°C | 26.6% | 296.3hPa | 2.9V | 00:00:00 | 00:50:57 | 00:00:00 | |
| ATIDSZ-14 | 2026-08-30 11:45:37 | 47.40670 | 19.38186 | 103° | 78km/h | 9633m | 8.5m/s | -40.3°C | 24.0% | 297.0hPa | 2.9V | 00:00:00 | 00:00:00 | 00:00:00 | |
| GYPAP8-17 | 2026-08-30 11:45:36 | 47.40681 | 19.38128 | 110° | 80km/h | 9620m | 7.3m/s | 0°C | 0% | 297.5hPa | 2.9V | 00:00:00 | 00:00:00 | 00:00:00 | |
| PETON7-10 | 2026-08-30 11:45:27 | 47.40722 | 19.37871 | 96° | 78km/h | 9568m | 5.3m/s | -39.7°C | 28.5% | 299.8hPa | 2.9V | 00:00:00 | 00:00:00 | 00:00:00 | |
| ATIDSZ-14 | 2026-08-30 11:45:17 | 47.40780 | 19.37564 | 106° | 89km/h | 9496m | 6.6m/s | -39.2°C | 24.9% | 302.9hPa | 2.9V | 00:00:00 | 00:00:00 | 00:00:00 | |
| OM5KV | 2026-08-30 11:45:10 | 47.40825 | 19.37391 | 115° | 80km/h | 9458m | 7.0m/s | -38.9°C | 25.8% | 304.8hPa | 2.9V | 00:00:00 | 00:00:00 | 00:00:00 | |
| OE3JTB-15 | 2026-08-30 11:45:09 | 47.40838 | 19.37330 | 104° | 78km/h | 9445m | 6.2m/s | 0°C | 0% | 0hPa | 2.9V | 00:00:00 | 00:00:00 | 08:30:00 | |
| OM5KV | 2026-08-30 11:45:05 | 47.40853 | 19.37229 | 101° | 89km/h | 9427m | 4.7m/s | -38.6°C | 27.3% | 306.1hPa | 2.9V | 00:00:00 | 00:00:00 | 00:00:00 | |
| OM5KV | 2026-08-30 11:44:59 | 47.40869 | 19.37049 | 101° | 77km/h | 9388m | 8.4m/s | -38.4°C | 29.8% | 308.0hPa | 2.9V | 00:00:00 | 00:00:00 | 00:00:00 | |
| OM5KV | 2026-08-30 11:44:53 | 47.40911 | 19.36883 | 112° | 75km/h | 9350m | 6.8m/s | -38.1°C | 30.0% | 309.7hPa | 2.9V | 00:00:00 | 00:00:00 | 00:00:00 | |
| OM5KV | 2026-08-30 11:44:42 | 47.40956 | 19.36600 | 101° | 77km/h | 9275m | 3.7m/s | -37.4°C | 31.9% | 313.1hPa | 2.9V | 00:00:00 | 00:00:00 | 00:00:00 | |
| PETON7-10 | 2026-08-30 11:44:41 | 47.40964 | 19.36541 | 103° | 78km/h | 9258m | 6.6m/s | -37.2°C | 34.7% | 313.8hPa | 2.9V | 00:00:00 | 00:49:57 | 00:00:00 | |
| OE3JTB-15 | 2026-08-30 11:44:40 | 47.40968 | 19.36510 | 103° | 80km/h | 9250m | 10.2m/s | 0°C | 0% | 0hPa | 2.9V | 00:00:00 | 00:00:00 | 00:00:00 | |
| ATIDSZ-14 | 2026-08-30 11:44:34 | 47.40993 | 19.36351 | 103° | 88km/h | 9210m | 8.1m/s | -36.9°C | 31.3% | 315.9hPa | 2.9V | 00:00:00 | 00:00:00 | 00:00:00 | |
| OM5KV | 2026-08-30 11:44:31 | 47.41006 | 19.36265 | 107° | 71km/h | 9189m | 6.8m/s | -36.7°C | 31.5% | 316.9hPa | 2.9V | 00:00:00 | 00:00:00 | 00:00:00 | |
| PETON7-10 | 2026-08-30 11:44:26 | 47.41029 | 19.36109 | 102° | 77km/h | 9151m | 8.4m/s | -36.3°C | 34.1% | 318.5hPa | 2.9V | 00:00:00 | 00:00:00 | 00:00:00 | |
| OM5KV | 2026-08-30 11:44:25 | 47.41029 | 19.36109 | 102° | 80km/h | 9151m | 8.4m/s | -36.4°C | 30.9% | 318.6hPa | 2.9V | 00:00:00 | 00:00:00 | 00:00:00 | |
| OM5KV | 2026-08-30 11:44:19 | 47.41070 | 19.35955 | 112° | 68km/h | 9109m | 5.8m/s | -36.0°C | 31.1% | 320.4hPa | 2.9V | 00:00:00 | 00:00:00 | 00:00:00 | |
| ATIDSZ-14 | 2026-08-30 11:44:13 | 47.41092 | 19.35795 | 99° | 80km/h | 9065m | 8.7m/s | -35.6°C | 30.2% | 322.4hPa | 2.9V | 00:00:00 | 00:00:00 | 00:00:00 | |
| PETON7-10 | 2026-08-30 11:44:11 | 47.41106 | 19.35701 | 108° | 80km/h | 9048m | 3.4m/s | -35.3°C | 32.8% | 323.2hPa | 2.9V | 00:00:00 | 00:00:00 | 00:00:00 | |
| OM5KV | 2026-08-30 11:44:07 | 47.41126 | 19.35604 | 108° | 89km/h | 9027m | 5.8m/s | -35.2°C | 29.0% | 324.3hPa | 2.9V | 00:00:00 | 00:00:00 | 00:00:00 | |
| OM5KV | 2026-08-30 11:44:01 | 47.41154 | 19.35448 | 108° | 68km/h | 8984m | 5.6m/s | -34.8°C | 28.0% | 326.3hPa | 2.9V | 00:00:00 | 00:00:00 | 00:00:00 | |
| PETON7-10 | 2026-08-30 11:43:56 | 47.41191 | 19.35273 | 110° | 80km/h | 8942m | 7.0m/s | -34.5°C | 30.6% | 328.2hPa | 2.9V | 00:00:00 | 00:49:12 | 00:00:00 | |
| OM5KV | 2026-08-30 11:43:54 | 47.41199 | 19.35240 | 110° | 91km/h | 8936m | 6.0m/s | -34.5°C | 27.7% | 328.5hPa | 2.9V | 00:00:00 | 00:00:00 | 00:00:00 | |
| ATIDSZ-14 | 2026-08-30 11:43:52 | 47.41213 | 19.35179 | 109° | 82km/h | 8925m | 5.2m/s | -34.4°C | 27.5% | 329.0hPa | 2.9V | 00:00:00 | 00:00:00 | 00:00:00 | |
| GYPAP8-17 | 2026-08-30 11:43:44 | 47.41262 | 19.34967 | 103° | 73km/h | 8867m | 3.4m/s | 0°C | 0% | 0hPa | 2.9V | 00:00:00 | 00:00:00 | 00:00:00 | |
| PETON7-10 | 2026-08-30 11:43:41 | 47.41284 | 19.34849 | 108° | 75km/h | 8836m | 7.0m/s | -33.5°C | 27.2% | 333.1hPa | 2.9V | 00:00:00 | 00:00:00 | 08:30:00 | |
| OM5KV | 2026-08-30 11:43:37 | 47.41301 | 19.34761 | 107° | 78km/h | 8811m | 7.0m/s | -33.3°C | 24.5% | 334.4hPa | 2.7V | 00:00:00 | 00:00:00 | 00:00:00 | |
| ATIDSZ-14 | 2026-08-30 11:43:32 | 47.41331 | 19.34633 | 119° | 62km/h | 8779m | 3.6m/s | -33.0°C | 23.5% | 335.9hPa | 2.7V | 00:00:00 | 00:00:00 | 00:00:00 | |
| OE3JTB-15 | 2026-08-30 11:43:31 | 47.41345 | 19.34592 | 111° | 77km/h | 8767m | 5.7m/s | 0°C | 0% | 0hPa | 2.7V | 00:00:00 | 00:48:47 | 00:00:00 | |
| PETON7-10 | 2026-08-30 11:43:26 | 47.41366 | 19.34453 | 97° | 77km/h | 8733m | 7.4m/s | -32.6°C | 23.5% | 338.0hPa | 2.7V | 00:00:00 | 00:00:00 | 00:00:00 | |
| OM5KV | 2026-08-30 11:43:25 | 47.41366 | 19.34453 | 97° | 80km/h | 8733m | 7.4m/s | -32.6°C | 21.2% | 338.1hPa | 2.7V | 00:00:00 | 00:00:00 | 00:00:00 | |
| OM5KV | 2026-08-30 11:43:18 | 47.41411 | 19.34263 | 118° | 78km/h | 8684m | 5.8m/s | -32.1°C | 17.9% | 340.4hPa | 2.7V | 00:00:00 | 00:00:00 | 00:00:00 | |
| OM5KV | 2026-08-30 11:43:13 | 47.41440 | 19.34131 | 103° | 75km/h | 8652m | 5.1m/s | -31.8°C | 15.8% | 342.1hPa | 2.7V | 00:00:00 | 00:00:00 | 00:00:00 | |
| PETON7-10 | 2026-08-30 11:43:11 | 47.41453 | 19.34044 | 106° | 77km/h | 8630m | 5.8m/s | -31.5°C | 16.0% | 343.1hPa | 2.7V | 00:00:00 | 00:48:27 | 00:00:00 | |
| OM5KV | 2026-08-30 11:43:08 | 47.41464 | 19.33987 | 106° | 75km/h | 8613m | 7.8m/s | -31.4°C | 12.7% | 343.9hPa | 2.7V | 00:00:00 | 00:00:00 | 00:00:00 | |
| OM5KV | 2026-08-30 11:43:03 | 47.41486 | 19.33850 | 98° | 80km/h | 8577m | 11.3m/s | -31.1°C | 10.6% | 345.6hPa | 2.7V | 00:00:00 | 00:00:00 | 00:00:00 | |
| OE3JTB-15 | 2026-08-30 11:43:00 | 47.41500 | 19.33745 | 106° | 66km/h | 8550m | 9.6m/s | 0°C | 0% | 0hPa | 2.7V | 00:00:00 | 00:00:00 | 00:00:00 | |
| PETON7-10 | 2026-08-30 11:42:54 | 47.41547 | 19.33598 | 119° | 75km/h | 8508m | 6.5m/s | -30.5°C | 9.7% | 349.0hPa | 2.7V | 00:00:00 | 00:00:00 | 00:00:00 | |
| ATIDSZ-14 | 2026-08-30 11:42:51 | 47.41559 | 19.33548 | 102° | 69km/h | 8498m | 6.3m/s | -30.4°C | 8.1% | 349.6hPa | 2.5V | 00:00:00 | 00:00:00 | 00:00:00 | |
| GYPAP8-17 | 2026-08-30 11:42:42 | 47.41597 | 19.33314 | 114° | 75km/h | 8437m | 4.8m/s | 0°C | 0% | 0hPa | 2.5V | 00:00:00 | 00:00:00 | 00:00:00 | |
| PETON7-10 | 2026-08-30 11:42:37 | 47.41645 | 19.33164 | 108° | 68km/h | 8397m | 5.5m/s | 0°C | 0% | 0hPa | 2.5V | 00:00:00 | 00:00:00 | 00:00:00 | |
| OM5KV | 2026-08-30 11:42:34 | 47.41652 | 19.33114 | 101° | 73km/h | 8385m | 4.2m/s | -29.6°C | 6.4% | 355.3hPa | 2.5V | 00:00:00 | 00:00:00 | 00:00:00 | |
| ATIDSZ-14 | 2026-08-30 11:42:30 | 47.41668 | 19.33001 | 105° | 75km/h | 8359m | 6.7m/s | -29.5°C | 6.6% | 356.6hPa | 2.5V | 00:00:00 | 00:00:00 | 00:00:00 | |
| OM5KV | 2026-08-30 11:42:28 | 47.41677 | 19.32952 | 108° | 60km/h | 8345m | 6.7m/s | -29.4°C | 6.5% | 357.4hPa | 2.5V | 00:00:00 | 00:00:00 | 00:00:00 | |
| PETON7-10 | 2026-08-30 11:42:22 | 47.41708 | 19.32800 | 105° | 68km/h | 8298m | 9.2m/s | 0°C | 0% | 0hPa | 2.5V | 00:00:00 | 00:47:38 | 00:00:00 | |
| OM5KV | 2026-08-30 11:42:16 | 47.41731 | 19.32671 | 101° | 68km/h | 8262m | 5.5m/s | -28.6°C | 6.2% | 361.5hPa | 2.5V | 00:00:00 | 00:00:00 | 00:00:00 | |
| ATIDSZ-14 | 2026-08-30 11:42:10 | 47.41756 | 19.32525 | 110° | 58km/h | 8221m | 7.5m/s | -28.2°C | 6.1% | 363.7hPa | 2.5V | 00:00:00 | 00:00:00 | 00:00:00 | |
| PETON7-10 | 2026-08-30 11:42:07 | 47.41771 | 19.32434 | 100° | 73km/h | 8196m | 6.4m/s | 0°C | 0% | 0hPa | 2.5V | 00:00:00 | 00:00:00 | 00:00:00 | |
| OM5KV | 2026-08-30 11:41:55 | 47.41812 | 19.32163 | 100° | 71km/h | 8121m | 6.8m/s | -27.3°C | 5.6% | 368.8hPa | 2.5V | 00:00:00 | 00:00:00 | 00:00:00 | |
| PETON7-10 | 2026-08-30 11:41:52 | 47.41826 | 19.32054 | 105° | 68km/h | 8094m | 4.8m/s | 0°C | 0% | 0hPa | 2.5V | 00:00:00 | 00:00:00 | 00:00:00 | |
| ATIDSZ-14 | 2026-08-30 11:41:50 | 47.41830 | 19.32029 | 103° | 71km/h | 8088m | 7.9m/s | -27.1°C | 5.5% | 370.5hPa | 2.5V | 00:00:00 | 00:00:00 | 00:00:00 | |
| OM5KV | 2026-08-30 11:41:49 | 47.41833 | 19.32003 | 98° | 69km/h | 8081m | 8.6m/s | -27.0°C | 5.5% | 371.0hPa | 2.5V | 00:00:00 | 00:00:00 | 00:00:00 | |
| OM5KV | 2026-08-30 11:41:43 | 47.41847 | 19.31874 | 104° | 71km/h | 8036m | 7.0m/s | -26.7°C | 5.5% | 373.2hPa | 2.5V | 00:00:00 | 00:00:00 | 00:00:00 | |
| PETON7-10 | 2026-08-30 11:41:37 | 47.41879 | 19.31714 | 100° | 66km/h | 7989m | 4.0m/s | 0°C | 0% | 0hPa | 2.5V | 00:00:00 | 00:46:53 | 00:00:00 | |
| OM5KV | 2026-08-30 11:41:32 | 47.41890 | 19.31621 | 102° | 69km/h | 7960m | 7.7m/s | -26.2°C | 5.1% | 377.0hPa | 2.5V | 00:00:00 | 00:00:00 | 00:00:00 | |
| ATIDSZ-14 | 2026-08-30 11:41:29 | 47.41892 | 19.31540 | 91° | 71km/h | 7936m | 7.4m/s | -26.2°C | 5.9% | 378.1hPa | 2.5V | 00:00:00 | 00:00:00 | 00:00:00 | |
| PETON7-10 | 2026-08-30 11:41:22 | 47.41910 | 19.31357 | 95° | 62km/h | 7881m | 9.5m/s | 0°C | 0% | 0hPa | 2.5V | 00:00:00 | 00:00:00 | 08:30:00 | |
| OE3JTB-15 | 2026-08-30 11:41:19 | 47.41913 | 19.31297 | 101° | 60km/h | 7859m | 7.3m/s | 0°C | 0% | 0hPa | 2.5V | 00:00:00 | 00:00:00 | 00:00:00 | |
| OM5KV | 2026-08-30 11:41:13 | 47.41932 | 19.31179 | 94° | 66km/h | 7823m | 8.5m/s | -25.4°C | 7.0% | 384.1hPa | 2.5V | 00:00:00 | 00:00:00 | 00:00:00 | |
| ATIDSZ-14 | 2026-08-30 11:41:08 | 47.41925 | 19.31061 | 91° | 57km/h | 7797m | 4.5m/s | -25.4°C | 12.1% | 385.6hPa | 2.5V | 00:00:00 | 00:00:00 | 00:00:00 | |
| PETON7-10 | 2026-08-30 11:41:07 | 47.41926 | 19.31025 | 92° | 55km/h | 7784m | 8.1m/s | 0°C | 0% | 0hPa | 2.5V | 00:00:00 | 00:00:00 | 00:00:00 | |
| OM5KV | 2026-08-30 11:41:02 | 47.41927 | 19.30957 | 101° | 53km/h | 7757m | 8.0m/s | -25.3°C | 14.9% | 387.6hPa | 2.5V | 00:00:00 | 00:00:00 | 00:00:00 | |
| ATIDSZ-14 | 2026-08-30 11:40:47 | 47.41939 | 19.30633 | 88° | 58km/h | 7665m | 6.1m/s | -24.4°C | 13.2% | 392.4hPa | 2.5V | 00:00:00 | 00:00:00 | 00:00:00 | |
| OE3JTB-15 | 2026-08-30 11:40:46 | 47.41941 | 19.30586 | 99° | 58km/h | 7651m | 6.1m/s | 0°C | 0% | 0hPa | 2.5V | 00:00:00 | 00:46:02 | 00:00:00 | |
| OM5KV | 2026-08-30 11:40:45 | 47.41941 | 19.30586 | 100° | 71km/h | 7651m | 6.1m/s | -24.3°C | 13.0% | 393.1hPa | 2.5V | 00:00:00 | 00:00:00 | 00:00:00 | |
| OM5KV | 2026-08-30 11:40:39 | 47.41945 | 19.30439 | 94° | 55km/h | 7616m | 6.8m/s | -24.0°C | 12.9% | 395.1hPa | 2.5V | 00:00:00 | 00:00:00 | 00:00:00 | |
| PETON7-10 | 2026-08-30 11:40:36 | 47.41943 | 19.30364 | 83° | 57km/h | 7592m | 4.8m/s | 0°C | 0% | 0hPa | 2.5V | 00:00:00 | 00:45:52 | 00:00:00 | |
| GYPAP8-17 | 2026-08-30 11:40:30 | 47.41942 | 19.30259 | 106° | 47km/h | 7564m | 6.5m/s | 0°C | 0% | 0hPa | 2.5V | 00:00:00 | 00:00:00 | 00:00:00 | |
| OM5KV | 2026-08-30 11:40:27 | 47.41950 | 19.30196 | 96° | 68km/h | 7541m | 6.6m/s | -23.5°C | 12.6% | 399.1hPa | 2.5V | 00:00:00 | 00:00:00 | 00:00:00 | |
| ATIDSZ-14 | 2026-08-30 11:40:26 | 47.41951 | 19.30172 | 95° | 64km/h | 7533m | 8.8m/s | -23.5°C | 12.3% | 399.4hPa | 2.5V | 00:00:00 | 00:00:00 | 00:00:00 | |
| OM5KV | 2026-08-30 11:40:22 | 47.41953 | 19.30095 | 99° | 53km/h | 7507m | 6.6m/s | -23.2°C | 11.3% | 400.9hPa | 2.5V | 00:00:00 | 00:00:00 | 00:00:00 | |
| OE3JTB-15 | 2026-08-30 11:40:17 | 47.41966 | 19.29972 | 97° | 51km/h | 7471m | 6.8m/s | 0°C | 0% | 0hPa | 2.5V | 00:00:00 | 00:00:00 | 00:00:00 | |
| OM5KV | 2026-08-30 11:40:16 | 47.41966 | 19.29972 | 98° | 53km/h | 7471m | 6.8m/s | -22.9°C | 10.3% | 403.1hPa | 2.5V | 00:00:00 | 00:00:00 | 00:00:00 | |
| OM5KV | 2026-08-30 11:40:11 | 47.41974 | 19.29879 | 103° | 51km/h | 7441m | 6.4m/s | -22.6°C | 10.1% | 404.7hPa | 2.5V | 00:00:00 | 00:00:00 | 00:00:00 | |
| ATIDSZ-14 | 2026-08-30 11:40:06 | 47.41982 | 19.29782 | 105° | 53km/h | 7412m | 5.0m/s | -22.4°C | 8.9% | 406.5hPa | 2.5V | 00:00:00 | 00:00:00 | 00:00:00 | |
| PETON7-10 | 2026-08-30 11:40:05 | 47.41987 | 19.29741 | 99° | 51km/h | 7400m | 5.1m/s | 0°C | 0% | 0hPa | 2.5V | 00:00:00 | 00:00:00 | 00:00:00 | |
| OM5KV | 2026-08-30 11:40:04 | 47.41987 | 19.29741 | 100° | 57km/h | 7400m | 5.1m/s | -22.2°C | 8.6% | 407.2hPa | 2.5V | 00:00:00 | 00:00:00 | 00:00:00 | |
| OM5KV | 2026-08-30 11:39:58 | 47.41999 | 19.29648 | 87° | 46km/h | 7371m | 5.7m/s | -21.9°C | 7.8% | 409.0hPa | 2.5V | 00:00:00 | 00:00:00 | 00:00:00 | |
| OM5KV | 2026-08-30 11:39:52 | 47.42006 | 19.29531 | 88° | 46km/h | 7335m | 3.7m/s | -21.6°C | 7.3% | 411.0hPa | 2.5V | 00:00:00 | 00:00:00 | 00:00:00 | |
| PETON7-10 | 2026-08-30 11:39:50 | 47.42008 | 19.29475 | 103° | 51km/h | 7311m | 7.2m/s | 0°C | 0% | 0hPa | 2.5V | 00:00:00 | 00:45:06 | 00:00:00 | |
| ATIDSZ-14 | 2026-08-30 11:39:46 | 47.42016 | 19.29401 | 100° | 68km/h | 7298m | 4.9m/s | -21.3°C | 6.3% | 413.0hPa | 2.5V | 00:00:00 | 00:00:00 | 00:00:00 | |
| OE3JTB-15 | 2026-08-30 11:39:39 | 47.42036 | 19.29263 | 92° | 49km/h | 7253m | 7.4m/s | 0°C | 0% | 0hPa | 2.5V | 00:00:00 | 00:00:00 | 00:00:00 | |
| PETON7-10 | 2026-08-30 11:39:35 | 47.42042 | 19.29184 | 100° | 53km/h | 7229m | 7.2m/s | 0°C | 0% | 0hPa | 2.5V | 00:00:00 | 00:00:00 | 00:00:00 | |
| OM5KV | 2026-08-30 11:39:28 | 47.42048 | 19.29070 | 96° | 49km/h | 7191m | 6.7m/s | -20.7°C | 6.4% | 419.0hPa | 2.5V | 00:00:00 | 00:00:00 | 00:00:00 | |
| ATIDSZ-14 | 2026-08-30 11:39:25 | 47.42056 | 19.29011 | 118° | 60km/h | 7169m | 3.6m/s | -20.6°C | 6.7% | 420.1hPa | 2.5V | 00:00:00 | 00:00:00 | 00:00:00 | |
| OM5KV | 2026-08-30 11:39:23 | 47.42070 | 19.28971 | 107° | 58km/h | 7162m | 2.3m/s | -20.6°C | 7.2% | 420.6hPa | 2.5V | 00:00:00 | 00:00:00 | 00:00:00 | |
| GYPAP8-17 | 2026-08-30 11:39:22 | 47.42073 | 19.28949 | 97° | 57km/h | 7160m | 5.5m/s | 0°C | 0% | 0hPa | 2.5V | 00:00:00 | 00:00:00 | 00:00:00 | |
| PETON7-10 | 2026-08-30 11:39:20 | 47.42068 | 19.28891 | 79° | 46km/h | 7141m | 3.7m/s | 0°C | 0% | 0hPa | 2.5V | 00:00:00 | 00:00:00 | 00:00:00 | |
| OM5KV | 2026-08-30 11:39:17 | 47.42064 | 19.28862 | 82° | 33km/h | 7134m | 5.8m/s | -20.5°C | 7.4% | 422.3hPa | 2.5V | 00:00:00 | 00:00:00 | 00:00:00 | |
| OE3JTB-15 | 2026-08-30 11:39:10 | 47.42079 | 19.28729 | 88° | 44km/h | 7087m | 8.1m/s | 0°C | 0% | 0hPa | 2.5V | 00:00:00 | 00:44:26 | 00:00:00 | |
| OM5KV | 2026-08-30 11:39:06 | 47.42079 | 19.28680 | 89° | 44km/h | 7068m | 5.3m/s | -19.9°C | 7.3% | 426.2hPa | 2.5V | 00:00:00 | 00:00:00 | 00:00:00 | |
| ATIDSZ-14 | 2026-08-30 11:39:05 | 47.42081 | 19.28645 | 107° | 47km/h | 7056m | 7.5m/s | -19.8°C | 7.3% | 426.8hPa | 2.5V | 00:00:00 | 00:00:00 | 00:00:00 | |
| PETON7-10 | 2026-08-30 11:39:03 | 47.42088 | 19.28613 | 105° | 42km/h | 7043m | 7.9m/s | 0°C | 0% | 0hPa | 2.5V | 00:00:00 | 00:44:19 | 00:00:00 | |
| OM5KV | 2026-08-30 11:38:55 | 47.42092 | 19.28506 | 116° | 40km/h | 6999m | 8.4m/s | -19.5°C | 7.8% | 430.0hPa | 2.5V | 00:00:00 | 00:00:00 | 00:00:00 | |
| OM5KV | 2026-08-30 11:38:49 | 47.42110 | 19.28396 | 87° | 31km/h | 6958m | 8.3m/s | -19.2°C | 8.2% | 432.3hPa | 2.5V | 00:00:00 | 00:00:00 | 00:00:00 | |
| PETON7-10 | 2026-08-30 11:38:48 | 47.42110 | 19.28375 | 99° | 44km/h | 6945m | 3.0m/s | 0°C | 0% | 0hPa | 2.5V | 00:00:00 | 00:00:00 | 00:00:00 | |
| ATIDSZ-14 | 2026-08-30 11:38:44 | 47.42112 | 19.28326 | 100° | 58km/h | 6930m | 6.3m/s | -19.0°C | 8.0% | 433.9hPa | 2.5V | 00:00:00 | 00:00:00 | 00:00:00 | |
| OM5KV | 2026-08-30 11:38:42 | 47.42119 | 19.28290 | 112° | 37km/h | 6917m | 5.3m/s | -18.9°C | 8.0% | 434.7hPa | 2.5V | 00:00:00 | 00:00:00 | 00:00:00 | |
| OE3JTB-15 | 2026-08-30 11:38:41 | 47.42125 | 19.28264 | 102° | 40km/h | 6905m | 7.2m/s | 0°C | 0% | 0hPa | 2.5V | 00:00:00 | 00:00:00 | 00:00:00 | |
| OM5KV | 2026-08-30 11:38:32 | 47.42136 | 19.28151 | 80° | 31km/h | 6855m | 4.8m/s | -18.5°C | 9.1% | 438.2hPa | 2.5V | 00:00:00 | 00:00:00 | 00:00:00 | |
| OM5KV | 2026-08-30 11:38:26 | 47.42144 | 19.28088 | 97° | 20km/h | 6824m | 5.1m/s | -18.3°C | 8.5% | 440.0hPa | 2.5V | 00:00:00 | 00:00:00 | 00:00:00 | |
| ATIDSZ-14 | 2026-08-30 11:38:24 | 47.42150 | 19.28062 | 108° | 47km/h | 6816m | 6.7m/s | -18.2°C | 8.4% | 440.6hPa | 2.5V | 00:00:00 | 00:00:00 | 00:00:00 | |
| GYPAP8-17 | 2026-08-30 11:38:18 | 47.42148 | 19.27956 | 92° | 46km/h | 6781m | 5.4m/s | 0°C | 0% | 0hPa | 2.5V | 00:00:00 | 00:00:00 | 00:00:00 | |
| OM5KV | 2026-08-30 11:38:15 | 47.42153 | 19.27899 | 95° | 57km/h | 6764m | 5.2m/s | -17.8°C | 8.1% | 443.7hPa | 2.5V | 00:00:00 | 00:00:00 | 00:00:00 | |
| OM5KV | 2026-08-30 11:38:09 | 47.42166 | 19.27815 | 71° | 38km/h | 6729m | 6.8m/s | -17.5°C | 8.0% | 445.8hPa | 2.5V | 00:00:00 | 00:00:00 | 00:00:00 | |
| ATIDSZ-14 | 2026-08-30 11:38:04 | 47.42167 | 19.27737 | 101° | 47km/h | 6696m | 6.6m/s | -17.3°C | 8.6% | 447.8hPa | 2.5V | 00:00:00 | 00:00:00 | 00:00:00 | |
| OM5KV | 2026-08-30 11:37:59 | 47.42176 | 19.27661 | 85° | 44km/h | 6667m | 6.6m/s | -17.1°C | 8.6% | 449.6hPa | 2.5V | 00:00:00 | 00:00:00 | 00:00:00 | |
| OM5KV | 2026-08-30 11:37:54 | 47.42181 | 19.27581 | 68° | 27km/h | 6635m | 7.8m/s | -17.0°C | 9.5% | 451.2hPa | 2.5V | 00:00:00 | 00:00:00 | 00:00:00 | |
| OM5KV | 2026-08-30 11:37:48 | 47.42178 | 19.27506 | 105° | 42km/h | 6603m | 5.8m/s | -16.9°C | 13.6% | 453.2hPa | 2.5V | 00:00:00 | 00:00:00 | 00:00:00 | |
| ATIDSZ-14 | 2026-08-30 11:37:43 | 47.42181 | 19.27436 | 107° | 40km/h | 6575m | 5.0m/s | -17.8°C | 40.9% | 455.1hPa | 2.5V | 00:00:00 | 00:00:00 | 00:00:00 | |
| OM5KV | 2026-08-30 11:37:41 | 47.42180 | 19.27408 | 72° | 46km/h | 6563m | 5.9m/s | -17.9°C | 49.1% | 455.7hPa | 2.5V | 00:00:00 | 00:00:00 | 00:00:00 | |
| OM5KV | 2026-08-30 11:37:34 | 47.42176 | 19.27314 | 69° | 42km/h | 6520m | 5.7m/s | -18.2°C | 80.0% | 458.3hPa | 2.5V | 00:00:00 | 00:00:00 | 00:00:00 | |
| ATIDSZ-14 | 2026-08-30 11:37:22 | 47.42150 | 19.27145 | 80° | 26km/h | 6447m | 4.3m/s | -17.5°C | 78.9% | 462.6hPa | 2.5V | 00:00:00 | 00:00:00 | 00:00:00 | |
| GYPAP8-17 | 2026-08-30 11:37:21 | 47.42150 | 19.27134 | 89° | 37km/h | 6443m | 5.8m/s | 0°C | 0% | 0hPa | 2.5V | 00:00:00 | 00:00:00 | 00:00:00 | |
| OM5KV | 2026-08-30 11:37:15 | 47.42147 | 19.27050 | 75° | 40km/h | 6406m | 5.4m/s | -17.1°C | 76.2% | 465.4hPa | 2.5V | 00:00:00 | 00:00:00 | 00:00:00 | |
| OM5KV | 2026-08-30 11:37:10 | 47.42138 | 19.26984 | 80° | 46km/h | 6376m | 6.0m/s | -16.8°C | 75.2% | 467.3hPa | 2.5V | 00:00:00 | 00:00:00 | 00:00:00 | |
| OM5KV | 2026-08-30 11:37:05 | 47.42130 | 19.26917 | 81° | 44km/h | 6347m | 4.9m/s | -16.6°C | 74.8% | 469.1hPa | 2.5V | 00:00:00 | 00:00:00 | 00:00:00 | |
| ATIDSZ-14 | 2026-08-30 11:37:02 | 47.42125 | 19.26883 | 99° | 29km/h | 6330m | 5.6m/s | -16.4°C | 0% | 470.2hPa | 2.5V | 00:00:00 | 00:00:00 | 00:00:00 | |
| OM5KV | 2026-08-30 11:36:52 | 47.42117 | 19.26761 | 98° | 35km/h | 6266m | 5.8m/s | -15.8°C | 72.6% | 473.9hPa | 2.5V | 00:00:00 | 00:00:00 | 00:00:00 | |
| OM5KV | 2026-08-30 11:36:46 | 47.42113 | 19.26683 | 99° | 35km/h | 6229m | 5.6m/s | -15.5°C | 70.8% | 476.3hPa | 2.5V | 00:00:00 | 00:00:00 | 00:00:00 | |
| ATIDSZ-14 | 2026-08-30 11:36:42 | 47.42112 | 19.26640 | 90° | 38km/h | 6205m | 4.9m/s | -15.3°C | 0% | 477.8hPa | 2.5V | 00:00:00 | 00:00:00 | 00:00:00 | |
| OM5KV | 2026-08-30 11:36:40 | 47.42110 | 19.26614 | 86° | 27km/h | 6191m | 6.8m/s | -15.1°C | 69.6% | 478.7hPa | 2.5V | 00:00:00 | 00:00:00 | 00:00:00 | |
| OM5KV | 2026-08-30 11:36:34 | 47.42104 | 19.26543 | 91° | 18km/h | 6155m | 6.4m/s | -14.9°C | 69.0% | 480.9hPa | 2.5V | 00:00:00 | 00:00:00 | 00:00:00 | |
| OM5KV | 2026-08-30 11:36:28 | 47.42121 | 19.26486 | 91° | 35km/h | 6119m | 4.5m/s | -14.5°C | 69.6% | 483.2hPa | 2.5V | 00:00:00 | 00:00:00 | 00:00:00 | |
| ATIDSZ-14 | 2026-08-30 11:36:22 | 47.42112 | 19.26417 | 98° | 46km/h | 6082m | 6.8m/s | 0°C | 0% | 485.4hPa | 2.5V | 00:00:00 | 00:00:00 | 00:00:00 | |
| OM5KV | 2026-08-30 11:36:16 | 47.42123 | 19.26333 | 99° | 55km/h | 6050m | 3.4m/s | -14.2°C | 82.1% | 487.6hPa | 2.5V | 00:00:00 | 00:00:00 | 00:00:00 | |
| OM5KV | 2026-08-30 11:36:10 | 47.42116 | 19.26269 | 115° | 16km/h | 6011m | 6.1m/s | -13.9°C | 79.9% | 490.0hPa | 2.5V | 00:00:00 | 00:00:00 | 00:00:00 | |
| OM5KV | 2026-08-30 11:35:59 | 47.42123 | 19.26164 | 112° | 64km/h | 5960m | 5.1m/s | -13.3°C | 76.5% | 493.9hPa | 2.5V | 00:00:00 | 00:00:00 | 00:00:00 | |
| OM5KV | 2026-08-30 11:35:52 | 47.42126 | 19.26097 | 139° | 42km/h | 5931m | 9.7m/s | -12.9°C | 74.9% | 496.1hPa | 2.5V | 00:00:00 | 00:00:00 | 00:00:00 | |
| OM5KV | 2026-08-30 11:35:45 | 47.42128 | 19.26040 | 45° | 38km/h | 5888m | 7.4m/s | -12.5°C | 72.4% | 498.9hPa | 2.5V | 00:00:00 | 00:00:00 | 00:00:00 | |
| OM5KV | 2026-08-30 11:35:44 | 47.42129 | 19.26003 | 131° | 57km/h | 5877m | 4.8m/s | -12.4°C | 73.1% | 499.6hPa | 2.5V | 00:00:00 | 00:00:00 | 00:00:00 | |
| OM5KV | 2026-08-30 11:35:41 | 47.42131 | 19.25985 | 51° | 53km/h | 5862m | 4.9m/s | -12.2°C | 72.3% | 501.1hPa | 2.5V | 00:00:00 | 00:00:00 | 00:00:00 | |
| ATIDSZ-14 | 2026-08-30 11:35:39 | 47.42127 | 19.25966 | 86° | 58km/h | 5859m | 7.5m/s | 0°C | 0% | 0hPa | 2.5V | 00:00:00 | 00:00:00 | 00:00:00 | |
| OM5KV | 2026-08-30 11:35:38 | 47.42130 | 19.25949 | 134° | 47km/h | 5851m | 9.9m/s | -12.1°C | 71.9% | 501.8hPa | 2.5V | 00:00:00 | 00:00:00 | 00:00:00 | |
| OM5KV | 2026-08-30 11:35:35 | 47.42129 | 19.25918 | 97° | 64km/h | 5828m | 6.5m/s | -11.9°C | 72.6% | 503.3hPa | 2.5V | 00:00:00 | 00:00:00 | 00:00:00 | |
| OM5KV | 2026-08-30 11:35:32 | 47.42141 | 19.25893 | 197° | 24km/h | 5813m | 7.9m/s | -11.8°C | 72.2% | 504.3hPa | 2.5V | 00:00:00 | 00:00:00 | 00:00:00 | |
| OM5KV | 2026-08-30 11:35:28 | 47.42140 | 19.25849 | 146° | 53km/h | 5784m | 7.4m/s | -11.5°C | 69.8% | 506.0hPa | 2.5V | 00:00:00 | 00:00:00 | 00:00:00 | |
| OM5KV | 2026-08-30 11:35:27 | 47.42149 | 19.25844 | 195° | 20km/h | 5778m | 7.6m/s | -11.5°C | 69.7% | 506.4hPa | 2.5V | 00:00:00 | 00:00:00 | 00:00:00 | |
| OM5KV | 2026-08-30 11:35:23 | 47.42147 | 19.25794 | 142° | 44km/h | 5747m | 9.1m/s | -11.2°C | 68.5% | 508.2hPa | 2.5V | 00:00:00 | 00:00:00 | 00:00:00 | |
| OM5KV | 2026-08-30 11:35:21 | 47.42155 | 19.25791 | 349° | 16km/h | 5732m | 7.4m/s | -11.1°C | 68.1% | 509.0hPa | 2.5V | 00:00:00 | 00:00:00 | 00:00:00 | |
| OM5KV | 2026-08-30 11:35:18 | 47.42160 | 19.25745 | 218° | 16km/h | 5698m | 8.0m/s | -10.8°C | 66.0% | 510.7hPa | 2.5V | 00:00:00 | 00:00:00 | 00:00:00 | |
| OM5KV | 2026-08-30 11:35:16 | 47.42157 | 19.25743 | 34° | 37km/h | 5690m | 6.8m/s | -10.8°C | 65.3% | 511.2hPa | 2.5V | 00:00:00 | 00:00:00 | 00:00:00 | |
| ATIDSZ-14 | 2026-08-30 11:35:14 | 47.42156 | 19.25708 | 132° | 58km/h | 5677m | 6.8m/s | 0°C | 0% | 0hPa | 2.5V | 00:00:00 | 00:00:00 | 00:00:00 | |
| OM5KV | 2026-08-30 11:35:12 | 47.42166 | 19.25699 | 16° | 16km/h | 5663m | 6.9m/s | -10.5°C | 63.6% | 513.0hPa | 2.5V | 00:00:00 | 00:00:00 | 00:00:00 | |
| OM5KV | 2026-08-30 11:35:11 | 47.42161 | 19.25688 | 69° | 57km/h | 5656m | 7.0m/s | -10.5°C | 63.4% | 513.4hPa | 2.5V | 00:00:00 | 00:00:00 | 00:00:00 | |
| OM5KV | 2026-08-30 11:35:07 | 47.42171 | 19.25633 | 91° | 60km/h | 5623m | 5.6m/s | -10.2°C | 62.3% | 515.6hPa | 2.5V | 00:00:00 | 00:00:00 | 00:00:00 | |
| OM5KV | 2026-08-30 11:35:06 | 47.42176 | 19.25616 | 135° | 47km/h | 5616m | 9.3m/s | -10.1°C | 62.2% | 516.0hPa | 2.5V | 00:00:00 | 00:00:00 | 00:00:00 | |
| OM5KV | 2026-08-30 11:35:00 | 47.42185 | 19.25573 | 161° | 42km/h | 5582m | 5.1m/s | -9.8°C | 62.8% | 518.3hPa | 2.5V | 00:00:00 | 00:00:00 | 00:00:00 | |
| OM5KV | 2026-08-30 11:34:59 | 47.42190 | 19.25571 | 340° | 4km/h | 5578m | 2.5m/s | -9.8°C | 61.9% | 518.6hPa | 2.5V | 00:00:00 | 00:00:00 | 00:00:00 | |
| OM5KV | 2026-08-30 11:34:55 | 47.42193 | 19.25523 | 14° | 31km/h | 5544m | 6.2m/s | -9.4°C | 56.2% | 521.0hPa | 2.5V | 00:00:00 | 00:00:00 | 00:00:00 | |
| OM5KV | 2026-08-30 11:34:48 | 47.42192 | 19.25455 | 97° | 53km/h | 5503m | 10.0m/s | -9.1°C | 57.5% | 523.7hPa | 2.5V | 00:00:00 | 00:00:00 | 00:00:00 | |
| OM5KV | 2026-08-30 11:34:44 | 47.42202 | 19.25424 | 76° | 47km/h | 5475m | 6.1m/s | -8.9°C | 58.5% | 525.7hPa | 2.5V | 00:00:00 | 00:00:00 | 00:00:00 | |
| ATIDSZ-14 | 2026-08-30 11:34:42 | 47.42211 | 19.25402 | 196° | 22km/h | 5463m | 4.5m/s | 0°C | 0% | 0hPa | 2.5V | 00:00:00 | 00:00:00 | 00:00:00 | |
| OM5KV | 2026-08-30 11:34:39 | 47.42216 | 19.25357 | 155° | 40km/h | 5434m | 6.9m/s | -8.4°C | 55.6% | 528.4hPa | 2.5V | 00:00:00 | 00:00:00 | 00:00:00 | |
| OM5KV | 2026-08-30 11:34:36 | 47.42218 | 19.25352 | 38° | 40km/h | 5421m | 5.7m/s | -8.3°C | 56.0% | 529.3hPa | 2.5V | 00:00:00 | 00:00:00 | 00:00:00 | |
| OM5KV | 2026-08-30 11:34:32 | 47.42226 | 19.25316 | 335° | 13km/h | 5392m | 6.5m/s | -8.1°C | 54.8% | 531.0hPa | 2.5V | 00:00:00 | 00:00:00 | 00:00:00 | |
| OM5KV | 2026-08-30 11:34:30 | 47.42220 | 19.25294 | 97° | 58km/h | 5378m | 8.3m/s | -8.0°C | 53.2% | 532.1hPa | 2.5V | 00:00:00 | 00:00:00 | 00:00:00 | |
| OM5KV | 2026-08-30 11:34:27 | 47.42231 | 19.25261 | 47° | 44km/h | 5350m | 5.8m/s | -7.8°C | 53.0% | 533.9hPa | 2.5V | 00:00:00 | 00:00:00 | 00:00:00 | |
| OM5KV | 2026-08-30 11:34:24 | 47.42233 | 19.25230 | 139° | 46km/h | 5335m | 8.5m/s | -7.6°C | 52.6% | 534.7hPa | 2.5V | 00:00:00 | 00:00:00 | 00:00:00 | |
| OM5KV | 2026-08-30 11:34:15 | 47.42242 | 19.25163 | 93° | 49km/h | 5272m | 4.5m/s | -7.1°C | 49.1% | 539.1hPa | 2.5V | 00:00:00 | 00:00:00 | 00:00:00 | |
| OM5KV | 2026-08-30 11:34:10 | 47.42249 | 19.25123 | 106° | 27km/h | 5239m | 5.0m/s | -6.8°C | 51.8% | 541.5hPa | 2.5V | 00:00:00 | 00:00:00 | 00:00:00 | |
| OM5KV | 2026-08-30 11:34:07 | 47.42253 | 19.25082 | 116° | 22km/h | 5222m | 7.6m/s | -6.6°C | 53.0% | 542.7hPa | 2.5V | 00:00:00 | 00:00:00 | 00:00:00 | |
| OM5KV | 2026-08-30 11:34:05 | 47.42249 | 19.25071 | 56° | 35km/h | 5207m | 7.4m/s | -6.6°C | 54.9% | 543.7hPa | 2.5V | 00:00:00 | 00:00:00 | 00:00:00 | |
| ATIDSZ-14 | 2026-08-30 11:34:03 | 47.42250 | 19.25047 | 131° | 27km/h | 5193m | 7.0m/s | 0°C | 0% | 0hPa | 2.5V | 00:00:00 | 00:00:00 | 00:00:00 | |
| OM5KV | 2026-08-30 11:34:01 | 47.42250 | 19.25036 | 63° | 29km/h | 5181m | 6.2m/s | -6.3°C | 56.1% | 545.6hPa | 2.5V | 00:00:00 | 00:00:00 | 00:00:00 | |
| OM5KV | 2026-08-30 11:33:59 | 47.42256 | 19.25008 | 142° | 46km/h | 5166m | 4.9m/s | -6.2°C | 56.1% | 546.5hPa | 2.5V | 00:00:00 | 00:00:00 | 00:00:00 | |
| OM5KV | 2026-08-30 11:33:55 | 47.42252 | 19.24975 | 102° | 42km/h | 5141m | 6.8m/s | -6.0°C | 55.7% | 548.2hPa | 2.5V | 00:00:00 | 00:00:00 | 00:00:00 | |
| OM5KV | 2026-08-30 11:33:53 | 47.42260 | 19.24965 | 34° | 18km/h | 5121m | 5.5m/s | -5.8°C | 55.9% | 549.7hPa | 2.5V | 00:00:00 | 00:00:00 | 00:00:00 | |
| OM5KV | 2026-08-30 11:33:50 | 47.42260 | 19.24940 | 122° | 51km/h | 5106m | 6.0m/s | -5.6°C | 55.6% | 550.7hPa | 2.5V | 00:00:00 | 00:00:00 | 00:00:00 | |
| OM5KV | 2026-08-30 11:33:46 | 47.42259 | 19.24903 | 101° | 53km/h | 5074m | 7.6m/s | -5.4°C | 54.5% | 552.9hPa | 2.5V | 00:00:00 | 00:00:00 | 00:00:00 | |
| OM5KV | 2026-08-30 11:33:40 | 47.42266 | 19.24859 | 99° | 51km/h | 5041m | 5.3m/s | -5.1°C | 54.0% | 555.3hPa | 2.5V | 00:00:00 | 00:00:00 | 00:00:00 | |
| OM5KV | 2026-08-30 11:33:39 | 47.42270 | 19.24845 | 134° | 35km/h | 5035m | 6.7m/s | -5.0°C | 54.2% | 555.6hPa | 2.5V | 00:00:00 | 00:00:00 | 00:00:00 | |
| OM5KV | 2026-08-30 11:33:34 | 47.42280 | 19.24804 | 168° | 26km/h | 5001m | 6.2m/s | -4.8°C | 53.7% | 558.0hPa | 2.5V | 00:00:00 | 00:00:00 | 00:00:00 | |
| OM5KV | 2026-08-30 11:33:33 | 47.42282 | 19.24804 | 350° | 11km/h | 4994m | 8.3m/s | -4.7°C | 53.9% | 558.5hPa | 2.5V | 00:00:00 | 00:00:00 | 00:00:00 | |
| OM5KV | 2026-08-30 11:33:28 | 47.42284 | 19.24761 | 5° | 15km/h | 4962m | 7.9m/s | -4.6°C | 60.3% | 560.7hPa | 2.5V | 00:00:00 | 00:00:00 | 00:00:00 | |
| OM5KV | 2026-08-30 11:33:27 | 47.42279 | 19.24753 | 60° | 47km/h | 4954m | 7.1m/s | -4.6°C | 62.2% | 561.2hPa | 2.5V | 00:00:00 | 00:00:00 | 00:00:00 | |
| OM5KV | 2026-08-30 11:33:22 | 47.42280 | 19.24709 | 58° | 46km/h | 4921m | 5.7m/s | -4.6°C | 67.9% | 563.6hPa | 2.5V | 00:00:00 | 00:00:00 | 00:00:00 | |
| OM5KV | 2026-08-30 11:33:18 | 47.42280 | 19.24664 | 79° | 40km/h | 4888m | 8.2m/s | -4.4°C | 66.9% | 565.9hPa | 2.5V | 00:00:00 | 00:00:00 | 00:00:00 | |
| OM5KV | 2026-08-30 11:33:16 | 47.42282 | 19.24650 | 122° | 42km/h | 4881m | 6.3m/s | -4.3°C | 66.9% | 566.5hPa | 2.5V | 00:00:00 | 00:00:00 | 00:00:00 | |
| OM5KV | 2026-08-30 11:33:12 | 47.42284 | 19.24603 | 143° | 35km/h | 4848m | 5.8m/s | -4.0°C | 65.2% | 568.7hPa | 2.5V | 00:00:00 | 00:00:00 | 00:00:00 | |
| OM5KV | 2026-08-30 11:33:06 | 47.42283 | 19.24562 | 37° | 9km/h | 4809m | 6.8m/s | -3.7°C | 62.1% | 571.6hPa | 2.5V | 00:00:00 | 00:00:00 | 00:00:00 | |
| OM5KV | 2026-08-30 11:33:05 | 47.42283 | 19.24562 | 37° | 9km/h | 4809m | 6.8m/s | -3.7°C | 62.1% | 571.6hPa | 2.5V | 00:00:00 | 00:00:00 | 00:00:00 | |
| OM5KV | 2026-08-30 11:32:59 | 47.42275 | 19.24526 | 130° | 15km/h | 4770m | 8.3m/s | -3.4°C | 60.7% | 574.3hPa | 2.5V | 00:00:00 | 00:00:00 | 00:00:00 | |
| OM5KV | 2026-08-30 11:32:58 | 47.42279 | 19.24517 | 113° | 44km/h | 4762m | 8.0m/s | -3.3°C | 60.3% | 575.0hPa | 2.5V | 00:00:00 | 00:00:00 | 00:00:00 | |
| OM5KV | 2026-08-30 11:32:53 | 47.42273 | 19.24482 | 125° | 40km/h | 4734m | 6.2m/s | -3.1°C | 60.3% | 577.0hPa | 2.5V | 00:00:00 | 00:00:00 | 00:00:00 | |
| OM5KV | 2026-08-30 11:32:52 | 47.42273 | 19.24467 | 71° | 51km/h | 4727m | 7.8m/s | -3.1°C | 60.0% | 577.6hPa | 2.5V | 00:00:00 | 00:00:00 | 00:00:00 | |
| OM5KV | 2026-08-30 11:32:47 | 47.42268 | 19.24424 | 52° | 44km/h | 4692m | 6.5m/s | -2.9°C | 59.2% | 579.9hPa | 2.5V | 00:00:00 | 00:00:00 | 00:00:00 | |
| OM5KV | 2026-08-30 11:32:46 | 47.42261 | 19.24418 | 360° | 26km/h | 4686m | 6.1m/s | -2.9°C | 58.9% | 580.5hPa | 2.5V | 00:00:00 | 00:00:00 | 00:00:00 | |
| OM5KV | 2026-08-30 11:32:42 | 47.42265 | 19.24394 | 36° | 42km/h | 4663m | 7.7m/s | -2.7°C | 58.8% | 582.0hPa | 2.5V | 00:00:00 | 00:00:00 | 00:00:00 | |
| OM5KV | 2026-08-30 11:32:36 | 47.42260 | 19.24341 | 135° | 40km/h | 4618m | 3.9m/s | -2.4°C | 48.5% | 585.5hPa | 2.5V | 00:00:00 | 00:00:00 | 00:00:00 | |
| OM5KV | 2026-08-30 11:32:29 | 47.42260 | 19.24290 | 91° | 51km/h | 4580m | 6.7m/s | -2.3°C | 33.3% | 588.2hPa | 2.5V | 00:00:00 | 00:00:00 | 00:00:00 | |
| OM5KV | 2026-08-30 11:32:26 | 47.42253 | 19.24267 | 134° | 44km/h | 4557m | 6.2m/s | -2.3°C | 30.9% | 589.9hPa | 2.5V | 00:00:00 | 00:00:00 | 00:00:00 | |
| OM5KV | 2026-08-30 11:32:23 | 47.42252 | 19.24240 | 32° | 35km/h | 4544m | 7.8m/s | -2.3°C | 34.2% | 590.9hPa | 2.5V | 00:00:00 | 00:00:00 | 00:00:00 | |
| OM5KV | 2026-08-30 11:32:19 | 47.42258 | 19.24219 | 82° | 42km/h | 4518m | 3.8m/s | -2.2°C | 36.9% | 592.8hPa | 2.5V | 00:00:00 | 00:00:00 | 00:00:00 | |
| OM5KV | 2026-08-30 11:32:14 | 47.42262 | 19.24183 | 73° | 42km/h | 4486m | 5.3m/s | -2.2°C | 37.1% | 595.1hPa | 2.5V | 00:00:00 | 00:00:00 | 00:00:00 | |
| OM5KV | 2026-08-30 11:32:12 | 47.42256 | 19.24177 | 257° | 22km/h | 4471m | 6.3m/s | -2.2°C | 38.9% | 596.2hPa | 2.5V | 00:00:00 | 00:00:00 | 00:00:00 | |
| OM5KV | 2026-08-30 11:32:09 | 47.42268 | 19.24166 | 99° | 31km/h | 4451m | 8.1m/s | -2.1°C | 34.6% | 597.7hPa | 2.5V | 00:00:00 | 00:00:00 | 00:00:00 | |
| OM5KV | 2026-08-30 11:32:04 | 47.42266 | 19.24134 | 0° | 0km/h | 4413m | 8.2m/s | -1.9°C | 32.4% | 600.5hPa | 2.5V | 00:00:00 | 00:00:00 | 00:00:00 | |
| OM5KV | 2026-08-30 11:32:01 | 47.42276 | 19.24127 | 119° | 33km/h | 4399m | 6.5m/s | -1.7°C | 32.6% | 601.7hPa | 2.5V | 00:00:00 | 00:00:00 | 00:00:00 | |
| OM5KV | 2026-08-30 11:31:55 | 47.42279 | 19.24095 | 9° | 24km/h | 4360m | 6.0m/s | -1.5°C | 36.9% | 604.6hPa | 2.5V | 00:00:00 | 00:00:00 | 00:00:00 | |
| OM5KV | 2026-08-30 11:31:49 | 47.42293 | 19.24077 | 192° | 27km/h | 4323m | 3.5m/s | -1.5°C | 46.8% | 607.5hPa | 2.5V | 00:00:00 | 00:00:00 | 00:00:00 | |
| OM5KV | 2026-08-30 11:31:43 | 47.42310 | 19.24042 | 142° | 42km/h | 4287m | 6.5m/s | -1.4°C | 56.0% | 610.2hPa | 2.5V | 00:00:00 | 00:00:00 | 00:00:00 | |
| OM5KV | 2026-08-30 11:31:34 | 47.42320 | 19.23977 | 133° | 47km/h | 4233m | 6.1m/s | -1.3°C | 70.0% | 614.6hPa | 2.5V | 00:00:00 | 00:00:00 | 00:00:00 | |
| OM5KV | 2026-08-30 11:31:32 | 47.42320 | 19.23946 | 46° | 37km/h | 4221m | 5.3m/s | -1.3°C | 68.8% | 615.4hPa | 2.5V | 00:00:00 | 00:00:00 | 00:00:00 | |
| OM5KV | 2026-08-30 11:31:28 | 47.42328 | 19.23917 | 79° | 57km/h | 4197m | 6.0m/s | -1.3°C | 55.9% | 617.2hPa | 2.5V | 00:00:00 | 00:00:00 | 00:00:00 | |
| OM5KV | 2026-08-30 11:31:23 | 47.42327 | 19.23854 | 15° | 18km/h | 4161m | 6.4m/s | -1.2°C | 72.6% | 620.1hPa | 2.5V | 00:00:00 | 00:00:00 | 00:00:00 | |
| OM5KV | 2026-08-30 11:31:16 | 47.42342 | 19.23808 | 141° | 49km/h | 4125m | 6.2m/s | -0.9°C | 71.7% | 623.0hPa | 2.5V | 00:00:00 | 00:00:00 | 00:00:00 | |
| OM5KV | 2026-08-30 11:31:15 | 47.42347 | 19.23792 | 98° | 55km/h | 4119m | 6.5m/s | -0.9°C | 71.6% | 623.4hPa | 2.5V | 00:00:00 | 00:00:00 | 00:00:00 | |
| OM5KV | 2026-08-30 11:31:10 | 47.42354 | 19.23728 | 42° | 26km/h | 4082m | 5.1m/s | -0.6°C | 70.7% | 626.4hPa | 2.5V | 00:00:00 | 00:00:00 | 00:00:00 | |
| OM5KV | 2026-08-30 11:31:05 | 47.42366 | 19.23680 | 19° | 15km/h | 4053m | 5.6m/s | -0.3°C | 69.5% | 628.7hPa | 2.5V | 00:00:00 | 00:00:00 | 00:00:00 | |
| OM5KV | 2026-08-30 11:30:58 | 47.42393 | 19.23608 | 101° | 62km/h | 4008m | 7.3m/s | 0.0°C | 68.5% | 632.3hPa | 2.5V | 00:00:00 | 00:00:00 | 00:00:00 | |
| OM5KV | 2026-08-30 11:30:53 | 47.42408 | 19.23550 | 84° | 44km/h | 3979m | 6.8m/s | 0.0°C | 71.4% | 634.6hPa | 2.5V | 00:00:00 | 00:00:00 | 00:00:00 | |
| OM5KV | 2026-08-30 11:30:46 | 47.42423 | 19.23497 | 186° | 20km/h | 3941m | 5.7m/s | 0.3°C | 71.7% | 637.5hPa | 2.5V | 00:00:00 | 00:00:00 | 00:00:00 | |
| OM5KV | 2026-08-30 11:30:45 | 47.42431 | 19.23493 | 151° | 53km/h | 3936m | 5.9m/s | 0.3°C | 71.2% | 638.0hPa | 2.5V | 00:00:00 | 00:00:00 | 00:00:00 | |
| OM5KV | 2026-08-30 11:30:41 | 47.42453 | 19.23435 | 138° | 58km/h | 3907m | 6.3m/s | 0.5°C | 66.1% | 640.3hPa | 2.5V | 00:00:00 | 00:00:00 | 00:00:00 | |
| OM5KV | 2026-08-30 11:30:40 | 47.42460 | 19.23416 | 101° | 66km/h | 3901m | 5.5m/s | 0.5°C | 59.6% | 640.8hPa | 2.5V | 00:00:00 | 00:00:00 | 00:00:00 | |
| OM5KV | 2026-08-30 11:30:34 | 47.42480 | 19.23353 | 84° | 49km/h | 3872m | 6.5m/s | 0.5°C | 56.7% | 643.1hPa | 2.5V | 00:00:00 | 00:00:00 | 00:00:00 | |
| OM5KV | 2026-08-30 11:30:29 | 47.42501 | 19.23286 | 78° | 26km/h | 3841m | 6.5m/s | 0.5°C | 66.7% | 645.5hPa | 2.5V | 00:00:00 | 00:00:00 | 00:00:00 | |
| OM5KV | 2026-08-30 11:30:28 | 47.42504 | 19.23280 | 169° | 29km/h | 3837m | 3.1m/s | 0.6°C | 67.7% | 646.0hPa | 2.5V | 00:00:00 | 00:00:00 | 00:00:00 | |
| OM5KV | 2026-08-30 11:30:24 | 47.42522 | 19.23220 | 102° | 27km/h | 3815m | 7.3m/s | 0.7°C | 70.6% | 647.8hPa | 2.5V | 00:00:00 | 00:00:00 | 00:00:00 | |
| OM5KV | 2026-08-30 11:30:22 | 47.42537 | 19.23205 | 143° | 62km/h | 3802m | 3.8m/s | 0.8°C | 71.7% | 648.7hPa | 2.5V | 00:00:00 | 00:00:00 | 00:00:00 | |
| OM5KV | 2026-08-30 11:30:19 | 47.42556 | 19.23144 | 161° | 44km/h | 3780m | 5.6m/s | 0.9°C | 75.5% | 650.6hPa | 2.5V | 00:00:00 | 00:00:00 | 00:00:00 | |
| OM5KV | 2026-08-30 11:30:16 | 47.42575 | 19.23110 | 103° | 69km/h | 3769m | 6.5m/s | 1.0°C | 75.2% | 651.6hPa | 2.5V | 00:00:00 | 00:00:00 | 00:00:00 | |
| OM5KV | 2026-08-30 11:30:12 | 47.42598 | 19.23060 | 133° | 68km/h | 3747m | 5.8m/s | 1.2°C | 74.8% | 653.4hPa | 2.5V | 00:00:00 | 00:00:00 | 00:00:00 | |
| OM5KV | 2026-08-30 11:30:06 | 47.42633 | 19.22948 | 97° | 18km/h | 3705m | 4.8m/s | 1.5°C | 75.5% | 656.9hPa | 2.5V | 00:00:00 | 00:00:00 | 00:00:00 | |
| OM5KV | 2026-08-30 11:30:00 | 47.42659 | 19.22874 | 108° | 15km/h | 3676m | 6.4m/s | 1.7°C | 75.2% | 659.4hPa | 2.5V | 00:00:00 | 00:00:00 | 00:00:00 | |
| OM5KV | 2026-08-30 11:29:54 | 47.42691 | 19.22792 | 128° | 60km/h | 3641m | 7.5m/s | 2.0°C | 74.7% | 662.5hPa | 2.5V | 00:00:00 | 00:00:00 | 00:00:00 | |
| OM5KV | 2026-08-30 11:29:49 | 47.42706 | 19.22709 | 109° | 29km/h | 3612m | 7.4m/s | 2.2°C | 75.8% | 665.4hPa | 2.5V | 00:00:00 | 00:00:00 | 00:00:00 | |
| OM5KV | 2026-08-30 11:29:43 | 47.42733 | 19.22636 | 147° | 46km/h | 3582m | 7.3m/s | 2.4°C | 73.3% | 668.0hPa | 2.5V | 00:00:00 | 00:00:00 | 00:00:00 | |
| OM5KV | 2026-08-30 11:29:39 | 47.42755 | 19.22564 | 141° | 57km/h | 3549m | 8.8m/s | 2.5°C | 76.2% | 670.8hPa | 2.5V | 00:00:00 | 00:00:00 | 00:00:00 | |
| OM5KV | 2026-08-30 11:29:33 | 47.42775 | 19.22488 | 126° | 66km/h | 3516m | 7.4m/s | 2.7°C | 74.5% | 673.3hPa | 2.5V | 00:00:00 | 00:00:00 | 00:00:00 | |
| OM5KV | 2026-08-30 11:29:32 | 47.42781 | 19.22465 | 97° | 68km/h | 3509m | 8.2m/s | 2.7°C | 74.1% | 673.8hPa | 2.5V | 00:00:00 | 00:00:00 | 00:00:00 | |
| OM5KV | 2026-08-30 11:29:27 | 47.42798 | 19.22395 | 100° | 68km/h | 3477m | 7.4m/s | 3.0°C | 72.9% | 676.1hPa | 2.5V | 00:00:00 | 00:00:00 | 00:00:00 | |
| OM5KV | 2026-08-30 11:29:26 | 47.42796 | 19.22374 | 62° | 47km/h | 3471m | 5.8m/s | 3.0°C | 72.5% | 676.8hPa | 2.5V | 00:00:00 | 00:00:00 | 00:00:00 | |
| OM5KV | 2026-08-30 11:29:21 | 47.42802 | 19.22298 | 144° | 15km/h | 3437m | 6.8m/s | 3.3°C | 71.2% | 679.7hPa | 2.5V | 00:00:00 | 00:00:00 | 00:00:00 | |
| OM5KV | 2026-08-30 11:29:15 | 47.42819 | 19.22233 | 146° | 38km/h | 3406m | 6.7m/s | 3.4°C | 75.7% | 682.3hPa | 2.5V | 00:00:00 | 00:00:00 | 00:00:00 | |
| OM5KV | 2026-08-30 11:29:13 | 47.42827 | 19.22193 | 81° | 60km/h | 3392m | 5.0m/s | 3.4°C | 78.3% | 683.6hPa | 2.5V | 00:00:00 | 00:00:00 | 00:00:00 | |
| OM5KV | 2026-08-30 11:29:07 | 47.42834 | 19.22106 | 71° | 20km/h | 3356m | 7.3m/s | 3.4°C | 77.2% | 686.5hPa | 2.5V | 00:00:00 | 00:00:00 | 00:00:00 | |
| OM5KV | 2026-08-30 11:29:02 | 47.42849 | 19.22029 | 96° | 15km/h | 3327m | 9.5m/s | 3.6°C | 76.3% | 689.2hPa | 2.5V | 00:00:00 | 00:00:00 | 00:00:00 | |
| OM5KV | 2026-08-30 11:28:58 | 47.42864 | 19.21960 | 64° | 44km/h | 3301m | 7.1m/s | 3.8°C | 75.3% | 691.4hPa | 2.5V | 00:00:00 | 00:00:00 | 00:00:00 | |
| OM5KV | 2026-08-30 11:28:57 | 47.42868 | 19.21944 | 146° | 42km/h | 3291m | 6.9m/s | 3.9°C | 75.3% | 692.2hPa | 2.5V | 00:00:00 | 00:00:00 | 00:00:00 | |
| OM5KV | 2026-08-30 11:28:51 | 47.42879 | 19.21868 | 146° | 46km/h | 3261m | 6.9m/s | 4.1°C | 73.8% | 694.9hPa | 2.5V | 00:00:00 | 00:00:00 | 00:00:00 | |
| OM5KV | 2026-08-30 11:28:47 | 47.42887 | 19.21797 | 119° | 18km/h | 3240m | 9.0m/s | 4.3°C | 73.2% | 696.8hPa | 2.5V | 00:00:00 | 00:00:00 | 00:00:00 | |
| OM5KV | 2026-08-30 11:28:45 | 47.42901 | 19.21768 | 105° | 68km/h | 3227m | 8.8m/s | 4.5°C | 73.3% | 697.9hPa | 2.5V | 00:00:00 | 00:00:00 | 00:00:00 | |
| OM5KV | 2026-08-30 11:28:42 | 47.42908 | 19.21712 | 126° | 64km/h | 3202m | 5.4m/s | 4.6°C | 73.3% | 700.0hPa | 2.5V | 00:00:00 | 00:00:00 | 00:00:00 | |
| OM5KV | 2026-08-30 11:28:39 | 47.42911 | 19.21669 | 59° | 47km/h | 3188m | 7.8m/s | 4.7°C | 72.9% | 701.0hPa | 2.5V | 00:00:00 | 00:00:00 | 00:00:00 | |
| OM5KV | 2026-08-30 11:28:35 | 47.42922 | 19.21610 | 82° | 64km/h | 3163m | 6.2m/s | 5.0°C | 69.5% | 703.3hPa | 2.5V | 00:00:00 | 00:00:00 | 00:00:00 | |
| OM5KV | 2026-08-30 11:28:33 | 47.42916 | 19.21585 | 128° | 16km/h | 3153m | 5.5m/s | 5.0°C | 69.1% | 704.3hPa | 2.5V | 00:00:00 | 00:00:00 | 00:00:00 | |
| OM5KV | 2026-08-30 11:28:29 | 47.42927 | 19.21515 | 40° | 33km/h | 3129m | 7.6m/s | 5.3°C | 65.7% | 706.3hPa | 2.5V | 00:00:00 | 00:00:00 | 00:00:00 | |
| OM5KV | 2026-08-30 11:28:28 | 47.42925 | 19.21509 | 114° | 18km/h | 3124m | 4.8m/s | 5.3°C | 66.3% | 706.9hPa | 2.5V | 00:00:00 | 00:00:00 | 00:00:00 | |
| OM5KV | 2026-08-30 11:28:17 | 47.42940 | 19.21350 | 129° | 42km/h | 3060m | 8.7m/s | 5.7°C | 64.5% | 712.2hPa | 2.5V | 00:00:00 | 00:00:00 | 00:00:00 | |
| OM5KV | 2026-08-30 11:28:15 | 47.42943 | 19.21308 | 73° | 57km/h | 3049m | 5.5m/s | 5.7°C | 65.6% | 713.2hPa | 2.5V | 00:00:00 | 00:00:00 | 00:00:00 | |
| OM5KV | 2026-08-30 11:28:11 | 47.42948 | 19.21259 | 101° | 69km/h | 3024m | 5.9m/s | 5.9°C | 0% | 715.3hPa | 2.5V | 00:00:00 | 00:00:00 | 00:00:00 | |
| OM5KV | 2026-08-30 11:28:09 | 47.42940 | 19.21223 | 43° | 29km/h | 3014m | 6.8m/s | 6.0°C | 0% | 716.3hPa | 2.5V | 00:00:00 | 00:00:00 | 00:00:00 | |
| OM5KV | 2026-08-30 11:28:05 | 47.42939 | 19.21156 | 41° | 16km/h | 2985m | 7.4m/s | 6.0°C | 0% | 718.8hPa | 2.5V | 00:00:00 | 00:00:00 | 00:00:00 | |
| OM5KV | 2026-08-30 11:27:58 | 47.42947 | 19.21058 | 90° | 68km/h | 2941m | 6.9m/s | 6.4°C | 0% | 722.7hPa | 2.5V | 00:00:00 | 00:00:00 | 00:00:00 | |
| OM5KV | 2026-08-30 11:27:52 | 47.42946 | 19.20985 | 73° | 62km/h | 2910m | 5.1m/s | 0°C | 0% | 725.2hPa | 2.5V | 00:00:00 | 00:00:00 | 00:00:00 | |
| OM5KV | 2026-08-30 11:27:46 | 47.42940 | 19.20904 | 50° | 20km/h | 2876m | 7.0m/s | 0°C | 0% | 728.4hPa | 2.5V | 00:00:00 | 00:00:00 | 00:00:00 | |
| OM5KV | 2026-08-30 11:27:44 | 47.42948 | 19.20885 | 120° | 60km/h | 2864m | 5.1m/s | 7.1°C | 0% | 729.4hPa | 2.5V | 00:00:00 | 00:00:00 | 00:00:00 | |
| OM5KV | 2026-08-30 11:27:38 | 47.42954 | 19.20792 | 86° | 62km/h | 2829m | 8.1m/s | 7.3°C | 0% | 0hPa | 2.5V | 00:00:00 | 00:00:00 | 00:00:00 | |
| OM5KV | 2026-08-30 11:27:34 | 47.42958 | 19.20741 | 96° | 69km/h | 2804m | 7.4m/s | 0°C | 0% | 0hPa | 2.5V | 00:00:00 | 00:00:00 | 00:00:00 | |
| OM5KV | 2026-08-30 11:27:33 | 47.42956 | 19.20719 | 64° | 55km/h | 2797m | 6.2m/s | 7.4°C | 0% | 0hPa | 2.5V | 00:00:00 | 00:00:00 | 00:00:00 | |
| OM5KV | 2026-08-30 11:27:29 | 47.42962 | 19.20670 | 82° | 64km/h | 2774m | 6.4m/s | 0°C | 0% | 0hPa | 2.5V | 00:00:00 | 00:00:00 | 00:00:00 | |
| OM5KV | 2026-08-30 11:27:25 | 47.42962 | 19.20619 | 101° | 68km/h | 2752m | 6.7m/s | 7.6°C | 0% | 0hPa | 2.5V | 00:00:00 | 00:00:00 | 00:00:00 | |
| OM5KV | 2026-08-30 11:27:12 | 47.42969 | 19.20447 | 92° | 68km/h | 2677m | 6.6m/s | 0°C | 0% | 0hPa | 2.5V | 00:00:00 | 00:00:00 | 00:00:00 | |
| OM5KV | 2026-08-30 11:27:02 | 47.42977 | 19.20319 | 42° | 40km/h | 2624m | 6.2m/s | 7.0°C | 0% | 0hPa | 2.5V | 00:00:00 | 00:00:00 | 00:00:00 | |
| OM5KV | 2026-08-30 11:26:59 | 47.42987 | 19.20291 | 106° | 57km/h | 2604m | 6.5m/s | 0°C | 0% | 0hPa | 2.5V | 00:00:00 | 00:00:00 | 00:00:00 | |
| OM5KV | 2026-08-30 11:26:53 | 47.42986 | 19.20217 | 50° | 42km/h | 2571m | 5.8m/s | 0°C | 0% | 0hPa | 2.5V | 00:00:00 | 00:00:00 | 00:00:00 | |
| OM5KV | 2026-08-30 11:26:47 | 47.42988 | 19.20159 | 172° | 20km/h | 2539m | 6.0m/s | 7.6°C | 0% | 0hPa | 2.5V | 00:00:00 | 00:00:00 | 00:00:00 | |
| OM5KV | 2026-08-30 11:26:46 | 47.42994 | 19.20151 | 127° | 49km/h | 2533m | 9.2m/s | 0°C | 0% | 0hPa | 2.5V | 00:00:00 | 00:00:00 | 00:00:00 | |
| OM5KV | 2026-08-30 11:26:41 | 47.43001 | 19.20089 | 92° | 64km/h | 2502m | 5.6m/s | 8.0°C | 0% | 0hPa | 2.5V | 00:00:00 | 00:00:00 | 00:00:00 | |
| OM5KV | 2026-08-30 11:26:40 | 47.42999 | 19.20071 | 58° | 37km/h | 2498m | 7.6m/s | 0°C | 0% | 0hPa | 2.5V | 00:00:00 | 00:00:00 | 00:00:00 | |
| OM5KV | 2026-08-30 11:26:35 | 47.43003 | 19.20019 | 16° | 13km/h | 2467m | 7.6m/s | 8.3°C | 0% | 0hPa | 2.5V | 00:00:00 | 00:00:00 | 00:00:00 | |
| OM5KV | 2026-08-30 11:26:29 | 47.43019 | 19.19963 | 163° | 40km/h | 2431m | 4.9m/s | 8.3°C | 0% | 0hPa | 2.5V | 00:00:00 | 00:00:00 | 00:00:00 | |
| OM5KV | 2026-08-30 11:26:22 | 47.43043 | 19.19884 | 67° | 22km/h | 2393m | 8.5m/s | 8.2°C | 0% | 0hPa | 2.5V | 00:00:00 | 00:00:00 | 00:00:00 | |
| OM5KV | 2026-08-30 11:26:10 | 47.43084 | 19.19792 | 85° | 47km/h | 2326m | 7.5m/s | 0°C | 0% | 0hPa | 2.5V | 00:00:00 | 00:00:00 | 00:00:00 | |
| OM5KV | 2026-08-30 11:26:05 | 47.43093 | 19.19754 | 52° | 22km/h | 2296m | 5.9m/s | 0°C | 0% | 0hPa | 2.5V | 00:00:00 | 00:00:00 | 00:00:00 | |
| OM5KV | 2026-08-30 11:25:59 | 47.43105 | 19.19720 | 234° | 18km/h | 2263m | 5.0m/s | 0°C | 0% | 0hPa | 2.5V | 00:00:00 | 00:00:00 | 00:00:00 |